Time,TemperatureF,DewpointF,PressureIn,WindDirection,WindDirectionDegrees,WindSpeedMPH,WindSpeedGustMPH,Humidity,HourlyPrecipIn,Conditions,Clouds,dailyrainin,SoftwareType,DateUTC
2013-04-08 00:01:00,53.6,43.3,29.74,SSE,158,10.5,10.5,68,0.00,,,0.00,VWS V14.01,2013-04-08 07:01:00,
2013-04-08 00:02:00,53.4,43.1,29.74,NNW,338,3.1,8.1,68,0.00,,,0.00,VWS V14.01,2013-04-08 07:02:00,
2013-04-08 00:03:00,53.4,43.1,29.74,NNW,338,3.1,8.1,68,0.00,,,0.00,VWS V14.01,2013-04-08 07:03:00,
2013-04-08 00:04:00,53.2,42.6,29.74,WSW,248,4.9,4.9,67,0.00,,,0.00,VWS V14.01,2013-04-08 07:04:00,
2013-04-08 00:05:00,53.2,42.2,29.74,South,180,3.6,4.9,66,0.00,,,0.00,VWS V14.01,2013-04-08 07:05:00,
2013-04-08 00:06:00,53.2,42.2,29.74,WSW,248,4.9,4.9,66,0.00,,,0.00,VWS V14.01,2013-04-08 07:06:00,
2013-04-08 00:07:00,52.9,41.5,29.74,SSE,158,8.3,12.3,65,0.00,,,0.00,VWS V14.01,2013-04-08 07:07:00,
2013-04-08 00:08:00,52.9,41.5,29.74,SSE,158,8.3,12.3,65,0.00,,,0.00,VWS V14.01,2013-04-08 07:08:00,
2013-04-08 00:09:00,52.9,41.5,29.74,NNE,22,4.9,8.3,65,0.00,,,0.00,VWS V14.01,2013-04-08 07:09:00,
2013-04-08 00:10:00,52.7,41.3,29.74,East,90,6.3,7.6,65,0.00,,,0.00,VWS V14.01,2013-04-08 07:10:00,
2013-04-08 00:11:00,52.5,40.7,29.74,WSW,248,3.1,6.3,64,0.00,,,0.00,VWS V14.01,2013-04-08 07:11:00,
2013-04-08 00:12:00,52.5,40.7,29.74,ESE,112,3.1,4.0,64,0.00,,,0.00,VWS V14.01,2013-04-08 07:12:00,
2013-04-08 00:13:00,52.5,40.7,29.74,ESE,112,3.1,4.0,64,0.00,,,0.00,VWS V14.01,2013-04-08 07:13:00,
2013-04-08 00:14:00,52.3,40.5,29.74,WSW,248,3.1,5.8,64,0.00,,,0.00,VWS V14.01,2013-04-08 07:14:00,
2013-04-08 00:15:00,52.3,40.5,29.74,ESE,112,4.9,4.9,64,0.00,,,0.00,VWS V14.01,2013-04-08 07:15:00,
2013-04-08 00:16:00,52.3,40.5,29.74,North,0,2.7,4.9,64,0.00,,,0.00,VWS V14.01,2013-04-08 07:16:00,
2013-04-08 00:17:00,52.2,40.4,29.74,SE,135,4.9,4.9,64,0.00,,,0.00,VWS V14.01,2013-04-08 07:17:00,
2013-04-08 00:18:00,52.2,40.4,29.74,ESE,112,5.4,5.4,64,0.00,,,0.00,VWS V14.01,2013-04-08 07:18:00,
2013-04-08 00:19:00,52.2,40.0,29.74,ENE,68,4.0,5.4,63,0.00,,,0.00,VWS V14.01,2013-04-08 07:19:00,
2013-04-08 00:20:00,52.0,39.8,29.74,ENE,68,3.1,4.9,63,0.00,,,0.00,VWS V14.01,2013-04-08 07:20:00,
2013-04-08 00:22:00,52.2,40.0,29.74,ENE,68,4.9,5.4,63,0.00,,,0.00,VWS V14.01,2013-04-08 07:22:00,
2013-04-08 00:23:00,52.0,39.8,29.74,SSE,158,5.8,5.8,63,0.00,,,0.00,VWS V14.01,2013-04-08 07:23:00,
2013-04-08 00:24:00,52.0,39.8,29.74,NE,45,4.0,5.8,63,0.00,,,0.00,VWS V14.01,2013-04-08 07:24:00,
2013-04-08 00:25:00,52.0,39.4,29.74,ENE,68,3.6,6.3,62,0.00,,,0.00,VWS V14.01,2013-04-08 07:25:00,
2013-04-08 00:26:00,52.0,39.4,29.74,ESE,112,2.7,5.4,62,0.00,,,0.00,VWS V14.01,2013-04-08 07:26:00,
2013-04-08 00:27:00,51.8,39.2,29.74,North,0,3.6,5.8,62,0.00,,,0.00,VWS V14.01,2013-04-08 07:27:00,
2013-04-08 00:28:00,51.8,39.2,29.74,SSW,202,3.6,5.4,62,0.00,,,0.00,VWS V14.01,2013-04-08 07:28:00,
2013-04-08 00:29:00,51.8,39.2,29.74,SSW,202,3.6,5.4,62,0.00,,,0.00,VWS V14.01,2013-04-08 07:29:00,
2013-04-08 00:30:00,51.8,39.2,29.74,West,270,2.7,4.9,62,0.00,,,0.00,VWS V14.01,2013-04-08 07:30:00,
2013-04-08 00:31:00,51.6,39.0,29.74,SSE,158,3.1,3.1,62,0.00,,,0.00,VWS V14.01,2013-04-08 07:31:00,
2013-04-08 00:32:00,51.6,39.0,29.74,SSE,158,5.4,7.2,62,0.00,,,0.00,VWS V14.01,2013-04-08 07:32:00,
2013-04-08 00:33:00,51.6,39.0,29.74,ESE,112,3.1,5.4,62,0.00,,,0.00,VWS V14.01,2013-04-08 07:33:00,
2013-04-08 00:34:00,51.6,38.6,29.74,NE,45,2.2,6.3,61,0.00,,,0.00,VWS V14.01,2013-04-08 07:34:00,
2013-04-08 00:35:00,51.6,38.6,29.74,NE,45,2.2,6.3,61,0.00,,,0.00,VWS V14.01,2013-04-08 07:35:00,
2013-04-08 00:36:00,51.6,38.6,29.76,ENE,68,5.8,7.2,61,0.00,,,0.00,VWS V14.01,2013-04-08 07:36:00,
2013-04-08 00:37:00,51.4,38.5,29.76,ESE,112,3.1,5.8,61,0.00,,,0.00,VWS V14.01,2013-04-08 07:37:00,
2013-04-08 00:38:00,51.4,38.5,29.76,East,90,7.2,7.2,61,0.00,,,0.00,VWS V14.01,2013-04-08 07:38:00,
2013-04-08 00:39:00,51.1,37.3,29.76,SSE,158,6.3,7.6,59,0.00,,,0.00,VWS V14.01,2013-04-08 07:39:00,
2013-04-08 00:40:00,51.1,37.3,29.76,SSE,158,6.3,7.6,59,0.00,,,0.00,VWS V14.01,2013-04-08 07:40:00,
2013-04-08 00:41:00,51.1,37.3,29.76,SSE,158,6.3,6.3,59,0.00,,,0.00,VWS V14.01,2013-04-08 07:41:00,
2013-04-08 00:42:00,51.1,37.3,29.76,ENE,68,2.7,6.3,59,0.00,,,0.00,VWS V14.01,2013-04-08 07:42:00,
2013-04-08 00:43:00,51.3,37.0,29.76,ENE,68,3.6,5.4,58,0.00,,,0.00,VWS V14.01,2013-04-08 07:43:00,
2013-04-08 00:44:00,51.1,36.8,29.76,ENE,68,5.4,5.4,58,0.00,,,0.00,VWS V14.01,2013-04-08 07:44:00,
2013-04-08 00:45:00,51.1,36.8,29.76,ENE,68,5.4,5.4,58,0.00,,,0.00,VWS V14.01,2013-04-08 07:45:00,
2013-04-08 00:46:00,51.3,37.0,29.76,NNE,22,3.6,5.4,58,0.00,,,0.00,VWS V14.01,2013-04-08 07:46:00,
2013-04-08 00:47:00,51.3,37.0,29.76,NNE,22,4.0,4.9,58,0.00,,,0.00,VWS V14.01,2013-04-08 07:47:00,
2013-04-08 00:48:00,51.3,37.0,29.76,NNE,22,3.1,4.0,58,0.00,,,0.00,VWS V14.01,2013-04-08 07:48:00,
2013-04-08 00:49:00,51.3,37.0,29.76,NNW,338,3.1,3.6,58,0.00,,,0.00,VWS V14.01,2013-04-08 07:49:00,
2013-04-08 00:50:00,51.3,37.0,29.74,NNE,22,5.8,5.8,58,0.00,,,0.00,VWS V14.01,2013-04-08 07:50:00,
2013-04-08 00:51:00,51.3,37.0,29.74,ESE,112,7.2,7.2,58,0.00,,,0.00,VWS V14.01,2013-04-08 07:51:00,
2013-04-08 00:53:00,51.1,36.4,29.74,SSW,202,6.3,8.7,57,0.00,,,0.00,VWS V14.01,2013-04-08 07:53:00,
2013-04-08 00:54:00,51.1,36.4,29.74,ENE,68,3.6,6.3,57,0.00,,,0.00,VWS V14.01,2013-04-08 07:54:00,
2013-04-08 00:55:00,51.1,36.4,29.74,NNE,22,4.5,4.5,57,0.00,,,0.00,VWS V14.01,2013-04-08 07:55:00,
2013-04-08 00:56:00,51.1,36.4,29.74,NNE,22,4.5,4.5,57,0.00,,,0.00,VWS V14.01,2013-04-08 07:56:00,
2013-04-08 00:57:00,51.1,36.0,29.74,North,0,4.9,6.3,56,0.00,,,0.00,VWS V14.01,2013-04-08 07:57:00,
2013-04-08 00:58:00,51.3,36.1,29.74,NNW,338,5.4,8.3,56,0.00,,,0.00,VWS V14.01,2013-04-08 07:58:00,
2013-04-08 00:59:00,51.3,36.1,29.74,ENE,68,5.8,5.8,56,0.00,,,0.00,VWS V14.01,2013-04-08 07:59:00,
2013-04-08 01:00:00,51.3,36.1,29.74,SSE,158,8.3,8.3,56,0.00,,,0.00,VWS V14.01,2013-04-08 08:00:00,
2013-04-08 01:01:00,51.1,36.0,29.74,SSW,202,5.4,8.7,56,0.00,,,0.00,VWS V14.01,2013-04-08 08:01:00,
2013-04-08 01:02:00,51.1,36.0,29.74,SSW,202,5.4,8.7,56,0.00,,,0.00,VWS V14.01,2013-04-08 08:02:00,
2013-04-08 01:03:00,51.1,36.0,29.74,SSE,158,3.1,8.3,56,0.00,,,0.00,VWS V14.01,2013-04-08 08:03:00,
2013-04-08 01:04:00,51.1,36.0,29.74,SSE,158,8.3,11.4,56,0.00,,,0.00,VWS V14.01,2013-04-08 08:04:00,
2013-04-08 01:05:00,50.9,35.8,29.74,SSW,202,5.8,10.1,56,0.00,,,0.00,VWS V14.01,2013-04-08 08:05:00,
2013-04-08 01:06:00,50.9,35.8,29.74,SSE,158,5.4,5.4,56,0.00,,,0.00,VWS V14.01,2013-04-08 08:06:00,
2013-04-08 01:07:00,50.9,35.8,29.74,SSE,158,5.4,7.2,56,0.00,,,0.00,VWS V14.01,2013-04-08 08:07:00,
2013-04-08 01:08:00,50.9,35.3,29.74,WSW,248,5.4,5.8,55,0.00,,,0.00,VWS V14.01,2013-04-08 08:08:00,
2013-04-08 01:09:00,50.9,35.8,29.74,WSW,248,4.9,7.2,56,0.00,,,0.00,VWS V14.01,2013-04-08 08:09:00,
2013-04-08 01:10:00,50.9,35.8,29.74,SSE,158,5.4,5.4,56,0.00,,,0.00,VWS V14.01,2013-04-08 08:10:00,
2013-04-08 01:11:00,50.9,35.8,29.74,NE,45,3.6,4.9,56,0.00,,,0.00,VWS V14.01,2013-04-08 08:11:00,
2013-04-08 01:12:00,50.9,35.8,29.74,North,0,4.9,6.3,56,0.00,,,0.00,VWS V14.01,2013-04-08 08:12:00,
2013-04-08 01:13:00,50.9,35.3,29.74,SW,225,8.1,8.1,55,0.00,,,0.00,VWS V14.01,2013-04-08 08:13:00,
2013-04-08 01:14:00,50.9,35.3,29.74,ESE,112,14.1,14.1,55,0.00,,,0.00,VWS V14.01,2013-04-08 08:14:00,
2013-04-08 01:15:00,50.7,35.2,29.74,SSW,202,7.2,14.1,55,0.00,,,0.00,VWS V14.01,2013-04-08 08:15:00,
2013-04-08 01:16:00,50.7,35.2,29.74,WSW,248,4.9,7.2,55,0.00,,,0.00,VWS V14.01,2013-04-08 08:16:00,
2013-04-08 01:17:00,50.9,35.3,29.74,SW,225,2.7,8.1,55,0.00,,,0.00,VWS V14.01,2013-04-08 08:17:00,
2013-04-08 01:18:00,50.9,35.3,29.74,NW,315,7.2,8.1,55,0.00,,,0.00,VWS V14.01,2013-04-08 08:18:00,
2013-04-08 01:19:00,50.7,35.2,29.74,South,180,2.2,10.1,55,0.00,,,0.00,VWS V14.01,2013-04-08 08:19:00,
2013-04-08 01:20:00,50.7,35.2,29.74,ENE,68,2.7,4.9,55,0.00,,,0.00,VWS V14.01,2013-04-08 08:20:00,
2013-04-08 01:21:00,50.7,35.2,29.74,South,180,3.1,3.1,55,0.00,,,0.00,VWS V14.01,2013-04-08 08:21:00,
2013-04-08 01:22:00,50.7,35.2,29.74,North,0,4.0,7.6,55,0.00,,,0.00,VWS V14.01,2013-04-08 08:22:00,
2013-04-08 01:23:00,50.7,35.2,29.74,North,0,4.0,7.6,55,0.00,,,0.00,VWS V14.01,2013-04-08 08:23:00,
2013-04-08 01:24:00,50.7,35.2,29.74,SSE,158,4.0,4.0,55,0.00,,,0.00,VWS V14.01,2013-04-08 08:24:00,
2013-04-08 01:25:00,50.9,35.3,29.74,SSE,158,8.1,8.1,55,0.00,,,0.00,VWS V14.01,2013-04-08 08:25:00,
2013-04-08 01:26:00,50.9,35.3,29.74,SSW,202,5.4,8.1,55,0.00,,,0.00,VWS V14.01,2013-04-08 08:26:00,
2013-04-08 01:27:00,50.7,35.2,29.74,East,90,4.9,4.9,55,0.00,,,0.00,VWS V14.01,2013-04-08 08:27:00,
2013-04-08 01:28:00,50.7,35.2,29.74,East,90,4.9,4.9,55,0.00,,,0.00,VWS V14.01,2013-04-08 08:28:00,
2013-04-08 01:29:00,50.7,35.2,29.74,South,180,5.8,5.8,55,0.00,,,0.00,VWS V14.01,2013-04-08 08:29:00,
2013-04-08 01:30:00,50.7,35.2,29.74,NE,45,4.0,6.3,55,0.00,,,0.00,VWS V14.01,2013-04-08 08:30:00,
2013-04-08 01:31:00,50.7,35.2,29.74,SSE,158,9.6,9.6,55,0.00,,,0.00,VWS V14.01,2013-04-08 08:31:00,
2013-04-08 01:32:00,50.5,35.0,29.74,SSW,202,2.7,5.8,55,0.00,,,0.00,VWS V14.01,2013-04-08 08:32:00,
2013-04-08 01:33:00,50.5,35.0,29.74,SSW,202,2.7,5.8,55,0.00,,,0.00,VWS V14.01,2013-04-08 08:33:00,
2013-04-08 01:34:00,50.7,35.2,29.74,WNW,292,4.9,7.6,55,0.00,,,0.00,VWS V14.01,2013-04-08 08:34:00,
2013-04-08 01:35:00,50.5,35.0,29.74,NNE,22,3.1,4.9,55,0.00,,,0.00,VWS V14.01,2013-04-08 08:35:00,
2013-04-08 01:36:00,50.7,35.2,29.74,NNE,22,3.6,4.9,55,0.00,,,0.00,VWS V14.01,2013-04-08 08:36:00,
2013-04-08 01:37:00,50.7,35.2,29.74,NNE,22,5.4,5.4,55,0.00,,,0.00,VWS V14.01,2013-04-08 08:37:00,
2013-04-08 01:38:00,50.7,35.2,29.74,NNE,22,5.4,5.4,55,0.00,,,0.00,VWS V14.01,2013-04-08 08:38:00,
2013-04-08 01:39:00,50.7,35.2,29.74,WNW,292,4.9,6.7,55,0.00,,,0.00,VWS V14.01,2013-04-08 08:39:00,
2013-04-08 01:40:00,50.7,35.2,29.74,WSW,248,8.7,10.5,55,0.00,,,0.00,VWS V14.01,2013-04-08 08:40:00,
2013-04-08 01:41:00,50.5,35.0,29.74,SSE,158,7.6,8.7,55,0.00,,,0.00,VWS V14.01,2013-04-08 08:41:00,
2013-04-08 01:42:00,50.5,35.0,29.74,SSE,158,3.1,7.2,55,0.00,,,0.00,VWS V14.01,2013-04-08 08:42:00,
2013-04-08 01:43:00,50.5,35.0,29.74,SSE,158,3.1,7.2,55,0.00,,,0.00,VWS V14.01,2013-04-08 08:43:00,
2013-04-08 01:44:00,50.5,35.0,29.74,ENE,68,8.7,15.0,55,0.00,,,0.00,VWS V14.01,2013-04-08 08:44:00,
2013-04-08 01:45:00,50.5,35.0,29.74,SSE,158,5.4,8.7,55,0.00,,,0.00,VWS V14.01,2013-04-08 08:45:00,
2013-04-08 01:46:00,50.5,35.0,29.74,ENE,68,5.4,7.6,55,0.00,,,0.00,VWS V14.01,2013-04-08 08:46:00,
2013-04-08 01:47:00,50.5,35.0,29.74,South,180,8.3,8.7,55,0.00,,,0.00,VWS V14.01,2013-04-08 08:47:00,
2013-04-08 01:48:00,50.5,35.0,29.74,SSW,202,8.7,8.7,55,0.00,,,0.00,VWS V14.01,2013-04-08 08:48:00,
2013-04-08 01:49:00,50.5,35.0,29.74,SSE,158,7.2,8.7,55,0.00,,,0.00,VWS V14.01,2013-04-08 08:49:00,
2013-04-08 01:50:00,50.4,34.8,29.74,East,90,4.0,7.6,55,0.00,,,0.00,VWS V14.01,2013-04-08 08:50:00,
2013-04-08 01:51:00,50.4,34.8,29.71,SSW,202,3.6,7.2,55,0.00,,,0.00,VWS V14.01,2013-04-08 08:51:00,
2013-04-08 01:52:00,50.4,34.8,29.71,SSE,158,7.2,7.2,55,0.00,,,0.00,VWS V14.01,2013-04-08 08:52:00,
2013-04-08 01:53:00,50.4,34.8,29.71,SSE,158,6.3,7.6,55,0.00,,,0.00,VWS V14.01,2013-04-08 08:53:00,
2013-04-08 01:54:00,50.4,34.8,29.71,SSE,158,7.6,7.6,55,0.00,,,0.00,VWS V14.01,2013-04-08 08:54:00,
2013-04-08 01:55:00,50.2,34.7,29.71,SSE,158,5.8,7.6,55,0.00,,,0.00,VWS V14.01,2013-04-08 08:55:00,
2013-04-08 01:56:00,50.2,34.7,29.71,ESE,112,3.6,5.8,55,0.00,,,0.00,VWS V14.01,2013-04-08 08:56:00,
2013-04-08 01:57:00,50.2,34.7,29.71,SSW,202,4.0,8.7,55,0.00,,,0.00,VWS V14.01,2013-04-08 08:57:00,
2013-04-08 01:58:00,50.2,34.7,29.71,SSE,158,9.6,9.6,55,0.00,,,0.00,VWS V14.01,2013-04-08 08:58:00,
2013-04-08 01:59:00,50.2,34.2,29.71,East,90,5.8,9.6,54,0.00,,,0.00,VWS V14.01,2013-04-08 08:59:00,
2013-04-08 02:00:00,50.2,34.2,29.71,ESE,112,3.6,8.3,54,0.00,,,0.00,VWS V14.01,2013-04-08 09:00:00,
2013-04-08 02:01:00,50.2,34.2,29.71,ESE,112,3.1,5.4,54,0.00,,,0.00,VWS V14.01,2013-04-08 09:01:00,
2013-04-08 02:02:00,50.2,34.2,29.71,SSE,158,4.0,8.7,54,0.00,,,0.00,VWS V14.01,2013-04-08 09:02:00,
2013-04-08 02:03:00,50.2,34.2,29.71,ENE,68,5.8,5.8,54,0.00,,,0.00,VWS V14.01,2013-04-08 09:03:00,
2013-04-08 02:04:00,50.2,34.2,29.71,SW,225,4.9,10.1,54,0.00,,,0.00,VWS V14.01,2013-04-08 09:04:00,
2013-04-08 02:05:00,50.2,34.2,29.71,SSW,202,9.2,9.2,54,0.00,,,0.00,VWS V14.01,2013-04-08 09:05:00,
2013-04-08 02:06:00,50.2,34.2,29.71,WNW,292,8.3,9.2,54,0.00,,,0.00,VWS V14.01,2013-04-08 09:06:00,
2013-04-08 02:07:00,50.2,34.2,29.71,SSW,202,5.8,8.3,54,0.00,,,0.00,VWS V14.01,2013-04-08 09:07:00,
2013-04-08 02:08:00,50.2,34.2,29.71,ESE,112,5.4,5.4,54,0.00,,,0.00,VWS V14.01,2013-04-08 09:08:00,
2013-04-08 02:09:00,50.2,33.7,29.71,West,270,10.5,10.5,53,0.00,,,0.00,VWS V14.01,2013-04-08 09:09:00,
2013-04-08 02:10:00,50.2,33.7,29.71,SSW,202,4.0,11.9,53,0.00,,,0.00,VWS V14.01,2013-04-08 09:10:00,
2013-04-08 02:11:00,50.2,33.7,29.71,NE,45,5.8,5.8,53,0.00,,,0.00,VWS V14.01,2013-04-08 09:11:00,
2013-04-08 02:12:00,50.4,33.9,29.71,ESE,112,4.0,5.8,53,0.00,,,0.00,VWS V14.01,2013-04-08 09:12:00,
2013-04-08 02:13:00,50.4,33.9,29.71,SSW,202,4.9,8.7,53,0.00,,,0.00,VWS V14.01,2013-04-08 09:13:00,
2013-04-08 02:14:00,50.4,33.9,29.71,SSW,202,5.4,5.8,53,0.00,,,0.00,VWS V14.01,2013-04-08 09:14:00,
2013-04-08 02:15:00,50.2,33.7,29.71,South,180,4.9,9.6,53,0.00,,,0.00,VWS V14.01,2013-04-08 09:15:00,
2013-04-08 02:16:00,50.2,33.7,29.71,NE,45,3.6,5.4,53,0.00,,,0.00,VWS V14.01,2013-04-08 09:16:00,
2013-04-08 02:17:00,50.2,33.7,29.71,ENE,68,4.0,4.0,53,0.00,,,0.00,VWS V14.01,2013-04-08 09:17:00,
2013-04-08 02:18:00,50.4,34.4,29.71,WNW,292,7.2,11.4,54,0.00,,,0.00,VWS V14.01,2013-04-08 09:18:00,
2013-04-08 02:19:00,50.2,34.2,29.71,NE,45,4.5,5.4,54,0.00,,,0.00,VWS V14.01,2013-04-08 09:19:00,
2013-04-08 02:20:00,50.4,34.4,29.71,NW,315,4.0,5.4,54,0.00,,,0.00,VWS V14.01,2013-04-08 09:20:00,
2013-04-08 02:21:00,50.4,34.4,29.71,NNE,22,6.3,6.3,54,0.00,,,0.00,VWS V14.01,2013-04-08 09:21:00,
2013-04-08 02:22:00,50.4,34.4,29.71,ESE,112,4.9,6.3,54,0.00,,,0.00,VWS V14.01,2013-04-08 09:22:00,
2013-04-08 02:23:00,50.4,34.4,29.71,SE,135,5.8,6.3,54,0.00,,,0.00,VWS V14.01,2013-04-08 09:23:00,
2013-04-08 02:24:00,50.2,34.2,29.71,WSW,248,5.8,6.3,54,0.00,,,0.00,VWS V14.01,2013-04-08 09:24:00,
2013-04-08 02:25:00,50.2,34.2,29.71,WSW,248,5.8,5.8,54,0.00,,,0.00,VWS V14.01,2013-04-08 09:25:00,
2013-04-08 02:27:00,50.2,34.2,29.71,South,180,8.1,8.1,54,0.00,,,0.00,VWS V14.01,2013-04-08 09:27:00,
2013-04-08 02:28:00,50.2,33.7,29.71,South,180,6.3,8.1,53,0.00,,,0.00,VWS V14.01,2013-04-08 09:28:00,
2013-04-08 02:29:00,50.2,33.7,29.71,SE,135,6.3,6.3,53,0.00,,,0.00,VWS V14.01,2013-04-08 09:29:00,
2013-04-08 02:30:00,50.2,33.7,29.71,WNW,292,4.0,11.4,53,0.00,,,0.00,VWS V14.01,2013-04-08 09:30:00,
2013-04-08 02:31:00,50.2,33.7,29.71,NNE,22,4.0,5.4,53,0.00,,,0.00,VWS V14.01,2013-04-08 09:31:00,
2013-04-08 02:32:00,50.2,33.7,29.71,NNE,22,4.0,4.0,53,0.00,,,0.00,VWS V14.01,2013-04-08 09:32:00,
2013-04-08 02:33:00,50.2,33.7,29.71,NW,315,4.9,5.8,53,0.00,,,0.00,VWS V14.01,2013-04-08 09:33:00,
2013-04-08 02:34:00,50.2,33.2,29.71,NNE,22,3.1,5.8,52,0.00,,,0.00,VWS V14.01,2013-04-08 09:34:00,
2013-04-08 02:35:00,50.2,33.2,29.71,SSE,158,8.1,10.1,52,0.00,,,0.00,VWS V14.01,2013-04-08 09:35:00,
2013-04-08 02:36:00,50.2,33.2,29.71,North,0,3.1,8.1,52,0.00,,,0.00,VWS V14.01,2013-04-08 09:36:00,
2013-04-08 02:37:00,50.2,33.2,29.71,SW,225,3.6,3.6,52,0.00,,,0.00,VWS V14.01,2013-04-08 09:37:00,
2013-04-08 02:38:00,50.2,33.2,29.71,SSE,158,2.7,4.9,52,0.00,,,0.00,VWS V14.01,2013-04-08 09:38:00,
2013-04-08 02:39:00,50.2,33.2,29.71,ESE,112,3.6,3.6,52,0.00,,,0.00,VWS V14.01,2013-04-08 09:39:00,
2013-04-08 02:40:00,50.2,33.2,29.71,SSW,202,5.4,5.4,52,0.00,,,0.00,VWS V14.01,2013-04-08 09:40:00,
2013-04-08 02:41:00,50.2,33.2,29.71,East,90,4.9,8.7,52,0.00,,,0.00,VWS V14.01,2013-04-08 09:41:00,
2013-04-08 02:42:00,50.2,33.2,29.71,SE,135,4.0,5.4,52,0.00,,,0.00,VWS V14.01,2013-04-08 09:42:00,
2013-04-08 02:43:00,50.2,33.2,29.71,ESE,112,9.6,9.6,52,0.00,,,0.00,VWS V14.01,2013-04-08 09:43:00,
2013-04-08 02:44:00,50.2,33.2,29.71,ESE,112,8.3,9.6,52,0.00,,,0.00,VWS V14.01,2013-04-08 09:44:00,
2013-04-08 02:45:00,50.2,33.2,29.71,SSE,158,3.6,8.3,52,0.00,,,0.00,VWS V14.01,2013-04-08 09:45:00,
2013-04-08 02:46:00,50.2,33.2,29.71,SSE,158,3.6,3.6,52,0.00,,,0.00,VWS V14.01,2013-04-08 09:46:00,
2013-04-08 02:47:00,50.2,33.2,29.71,WSW,248,5.8,9.6,52,0.00,,,0.00,VWS V14.01,2013-04-08 09:47:00,
2013-04-08 02:48:00,50.2,33.2,29.71,ESE,112,4.0,6.7,52,0.00,,,0.00,VWS V14.01,2013-04-08 09:48:00,
2013-04-08 02:49:00,50.2,33.2,29.71,ESE,112,4.9,4.9,52,0.00,,,0.00,VWS V14.01,2013-04-08 09:49:00,
2013-04-08 02:50:00,50.2,33.2,29.71,SSE,158,7.6,7.6,52,0.00,,,0.00,VWS V14.01,2013-04-08 09:50:00,
2013-04-08 02:51:00,50.2,33.7,29.71,ESE,112,3.1,3.1,53,0.00,,,0.00,VWS V14.01,2013-04-08 09:51:00,
2013-04-08 02:52:00,50.2,33.7,29.71,ENE,68,5.8,5.8,53,0.00,,,0.00,VWS V14.01,2013-04-08 09:52:00,
2013-04-08 02:53:00,50.2,33.7,29.71,South,180,4.0,5.8,53,0.00,,,0.00,VWS V14.01,2013-04-08 09:53:00,
2013-04-08 02:54:00,50.2,33.7,29.71,SE,135,4.9,5.4,53,0.00,,,0.00,VWS V14.01,2013-04-08 09:54:00,
2013-04-08 02:55:00,50.2,33.7,29.71,ESE,112,5.4,5.4,53,0.00,,,0.00,VWS V14.01,2013-04-08 09:55:00,
2013-04-08 02:56:00,50.2,33.7,29.71,ESE,112,3.6,5.4,53,0.00,,,0.00,VWS V14.01,2013-04-08 09:56:00,
2013-04-08 02:57:00,50.2,33.7,29.71,ESE,112,4.0,7.2,53,0.00,,,0.00,VWS V14.01,2013-04-08 09:57:00,
2013-04-08 02:58:00,50.2,33.7,29.71,ESE,112,4.0,4.0,53,0.00,,,0.00,VWS V14.01,2013-04-08 09:58:00,
2013-04-08 02:59:00,50.2,33.7,29.71,South,180,3.1,6.3,53,0.00,,,0.00,VWS V14.01,2013-04-08 09:59:00,
2013-04-08 03:00:00,50.2,33.7,29.71,SSW,202,6.7,6.7,53,0.00,,,0.00,VWS V14.01,2013-04-08 10:00:00,
2013-04-08 03:01:00,50.2,33.7,29.71,ENE,68,5.4,8.3,53,0.00,,,0.00,VWS V14.01,2013-04-08 10:01:00,
2013-04-08 03:02:00,50.4,33.4,29.71,SSE,158,3.1,5.4,52,0.00,,,0.00,VWS V14.01,2013-04-08 10:02:00,
2013-04-08 03:03:00,50.4,33.4,29.71,SSE,158,4.0,5.4,52,0.00,,,0.00,VWS V14.01,2013-04-08 10:03:00,
2013-04-08 03:04:00,50.4,33.4,29.71,NNE,22,5.8,10.1,52,0.00,,,0.00,VWS V14.01,2013-04-08 10:04:00,
2013-04-08 03:05:00,50.2,33.2,29.71,NNW,338,2.7,7.6,52,0.00,,,0.00,VWS V14.01,2013-04-08 10:05:00,
2013-04-08 03:06:00,50.4,33.4,29.71,NNW,338,2.7,5.8,52,0.00,,,0.00,VWS V14.01,2013-04-08 10:06:00,
2013-04-08 03:07:00,50.4,33.4,29.71,ESE,112,5.8,5.8,52,0.00,,,0.00,VWS V14.01,2013-04-08 10:07:00,
2013-04-08 03:08:00,50.4,33.4,29.71,NNE,22,4.0,5.8,52,0.00,,,0.00,VWS V14.01,2013-04-08 10:08:00,
2013-04-08 03:09:00,50.4,33.4,29.71,SSW,202,3.1,5.4,52,0.00,,,0.00,VWS V14.01,2013-04-08 10:09:00,
2013-04-08 03:10:00,50.5,33.6,29.71,WSW,248,5.4,5.4,52,0.00,,,0.00,VWS V14.01,2013-04-08 10:10:00,
2013-04-08 03:11:00,50.4,33.4,29.71,North,0,5.4,5.4,52,0.00,,,0.00,VWS V14.01,2013-04-08 10:11:00,
2013-04-08 03:12:00,50.5,33.6,29.71,ESE,112,2.7,5.4,52,0.00,,,0.00,VWS V14.01,2013-04-08 10:12:00,
2013-04-08 03:13:00,50.5,33.1,29.71,NE,45,3.1,3.6,51,0.00,,,0.00,VWS V14.01,2013-04-08 10:13:00,
2013-04-08 03:14:00,50.5,33.1,29.71,NNE,22,2.7,4.9,51,0.00,,,0.00,VWS V14.01,2013-04-08 10:14:00,
2013-04-08 03:15:00,50.5,33.1,29.71,South,180,3.1,3.6,51,0.00,,,0.00,VWS V14.01,2013-04-08 10:15:00,
2013-04-08 03:16:00,50.4,32.9,29.71,ESE,112,6.3,6.3,51,0.00,,,0.00,VWS V14.01,2013-04-08 10:16:00,
2013-04-08 03:17:00,50.4,32.9,29.71,SSE,158,4.9,6.3,51,0.00,,,0.00,VWS V14.01,2013-04-08 10:17:00,
2013-04-08 03:18:00,50.4,32.9,29.71,NE,45,3.6,5.8,51,0.00,,,0.00,VWS V14.01,2013-04-08 10:18:00,
2013-04-08 03:19:00,50.4,32.9,29.71,ESE,112,5.4,7.2,51,0.00,,,0.00,VWS V14.01,2013-04-08 10:19:00,
2013-04-08 03:20:00,50.4,32.9,29.71,ENE,68,2.7,2.7,51,0.00,,,0.00,VWS V14.01,2013-04-08 10:20:00,
2013-04-08 03:21:00,50.4,32.9,29.71,North,0,3.1,4.0,51,0.00,,,0.00,VWS V14.01,2013-04-08 10:21:00,
2013-04-08 03:22:00,50.4,32.9,29.71,WSW,248,2.2,4.0,51,0.00,,,0.00,VWS V14.01,2013-04-08 10:22:00,
2013-04-08 03:23:00,50.4,32.9,29.71,ENE,68,4.0,4.0,51,0.00,,,0.00,VWS V14.01,2013-04-08 10:23:00,
2013-04-08 03:24:00,50.4,32.9,29.71,NE,45,3.6,5.8,51,0.00,,,0.00,VWS V14.01,2013-04-08 10:24:00,
2013-04-08 03:25:00,50.4,32.9,29.71,North,0,0.0,3.6,51,0.00,,,0.00,VWS V14.01,2013-04-08 10:25:00,
2013-04-08 03:26:00,50.4,32.9,29.71,South,180,4.9,4.9,51,0.00,,,0.00,VWS V14.01,2013-04-08 10:26:00,
2013-04-08 03:27:00,50.2,32.8,29.71,ESE,112,2.7,4.9,51,0.00,,,0.00,VWS V14.01,2013-04-08 10:27:00,
2013-04-08 03:28:00,50.2,32.8,29.71,SSW,202,3.1,4.0,51,0.00,,,0.00,VWS V14.01,2013-04-08 10:28:00,
2013-04-08 03:29:00,50.2,32.8,29.71,North,0,3.6,3.6,51,0.00,,,0.00,VWS V14.01,2013-04-08 10:29:00,
2013-04-08 03:30:00,50.2,32.8,29.71,NNE,22,3.1,4.0,51,0.00,,,0.00,VWS V14.01,2013-04-08 10:30:00,
2013-04-08 03:31:00,50.2,32.8,29.71,ENE,68,2.7,2.7,51,0.00,,,0.00,VWS V14.01,2013-04-08 10:31:00,
2013-04-08 03:32:00,50.2,32.8,29.71,NE,45,0.0,4.0,51,0.00,,,0.00,VWS V14.01,2013-04-08 10:32:00,
2013-04-08 03:33:00,50.2,32.8,29.71,NNE,22,0.0,0.0,51,0.00,,,0.00,VWS V14.01,2013-04-08 10:33:00,
2013-04-08 03:34:00,50.2,32.8,29.71,NNE,22,2.7,2.7,51,0.00,,,0.00,VWS V14.01,2013-04-08 10:34:00,
2013-04-08 03:35:00,50.2,32.8,29.71,NNE,22,2.2,3.1,51,0.00,,,0.00,VWS V14.01,2013-04-08 10:35:00,
2013-04-08 03:36:00,50.2,32.8,29.71,NNE,22,2.7,3.1,51,0.00,,,0.00,VWS V14.01,2013-04-08 10:36:00,
2013-04-08 03:37:00,50.2,32.8,29.71,SSE,158,3.6,4.5,51,0.00,,,0.00,VWS V14.01,2013-04-08 10:37:00,
2013-04-08 03:38:00,50.2,32.8,29.71,ENE,68,5.4,5.8,51,0.00,,,0.00,VWS V14.01,2013-04-08 10:38:00,
2013-04-08 03:39:00,50.2,32.8,29.71,NNE,22,3.6,6.3,51,0.00,,,0.00,VWS V14.01,2013-04-08 10:39:00,
2013-04-08 03:40:00,50.2,32.8,29.71,NNE,22,2.7,3.6,51,0.00,,,0.00,VWS V14.01,2013-04-08 10:40:00,
2013-04-08 03:41:00,50.2,32.3,29.71,ENE,68,0.0,2.7,50,0.00,,,0.00,VWS V14.01,2013-04-08 10:41:00,
2013-04-08 03:42:00,50.2,32.3,29.71,ENE,68,3.1,4.0,50,0.00,,,0.00,VWS V14.01,2013-04-08 10:42:00,
2013-04-08 03:43:00,50.2,32.3,29.71,NNE,22,3.1,4.0,50,0.00,,,0.00,VWS V14.01,2013-04-08 10:43:00,
2013-04-08 03:44:00,50.2,32.3,29.71,East,90,3.6,3.6,50,0.00,,,0.00,VWS V14.01,2013-04-08 10:44:00,
2013-04-08 03:45:00,50.2,32.3,29.71,SSW,202,3.6,3.6,50,0.00,,,0.00,VWS V14.01,2013-04-08 10:45:00,
2013-04-08 03:46:00,50.2,32.3,29.71,South,180,3.1,4.9,50,0.00,,,0.00,VWS V14.01,2013-04-08 10:46:00,
2013-04-08 03:47:00,50.0,32.1,29.71,WNW,292,3.1,3.1,50,0.00,,,0.00,VWS V14.01,2013-04-08 10:47:00,
2013-04-08 03:48:00,50.0,32.1,29.71,SSE,158,2.2,3.1,50,0.00,,,0.00,VWS V14.01,2013-04-08 10:48:00,
2013-04-08 03:49:00,50.0,32.1,29.71,SSE,158,4.0,7.6,50,0.00,,,0.00,VWS V14.01,2013-04-08 10:49:00,
2013-04-08 03:50:00,50.0,32.1,29.71,SSW,202,4.0,8.1,50,0.00,,,0.00,VWS V14.01,2013-04-08 10:50:00,
2013-04-08 03:51:00,50.0,32.1,29.71,ESE,112,5.4,7.2,50,0.00,,,0.00,VWS V14.01,2013-04-08 10:51:00,
2013-04-08 03:52:00,50.2,32.3,29.71,SE,135,6.3,8.7,50,0.00,,,0.00,VWS V14.01,2013-04-08 10:52:00,
2013-04-08 03:53:00,50.2,31.8,29.71,SSE,158,2.2,8.7,49,0.00,,,0.00,VWS V14.01,2013-04-08 10:53:00,
2013-04-08 03:55:00,50.2,31.8,29.71,SSW,202,2.7,4.9,49,0.00,,,0.00,VWS V14.01,2013-04-08 10:55:00,
2013-04-08 03:56:00,50.2,31.8,29.71,ENE,68,3.1,3.1,49,0.00,,,0.00,VWS V14.01,2013-04-08 10:56:00,
2013-04-08 03:57:00,50.2,32.3,29.71,SSE,158,8.7,8.7,50,0.00,,,0.00,VWS V14.01,2013-04-08 10:57:00,
2013-04-08 03:58:00,50.2,32.3,29.71,WSW,248,8.3,8.7,50,0.00,,,0.00,VWS V14.01,2013-04-08 10:58:00,
2013-04-08 03:59:00,50.2,31.8,29.71,ESE,112,5.8,8.3,49,0.00,,,0.00,VWS V14.01,2013-04-08 10:59:00,
2013-04-08 04:00:00,50.2,31.8,29.71,ENE,68,6.3,8.7,49,0.00,,,0.00,VWS V14.01,2013-04-08 11:00:00,
2013-04-08 04:01:00,50.4,31.9,29.71,NNW,338,3.6,6.3,49,0.00,,,0.00,VWS V14.01,2013-04-08 11:01:00,
2013-04-08 04:02:00,50.4,31.9,29.71,NNE,22,3.1,3.6,49,0.00,,,0.00,VWS V14.01,2013-04-08 11:02:00,
2013-04-08 04:03:00,50.4,31.9,29.71,NNE,22,3.1,3.6,49,0.00,,,0.00,VWS V14.01,2013-04-08 11:03:00,
2013-04-08 04:04:00,50.4,31.9,29.71,ESE,112,5.8,5.8,49,0.00,,,0.00,VWS V14.01,2013-04-08 11:04:00,
2013-04-08 04:05:00,50.4,31.9,29.74,ENE,68,5.8,7.6,49,0.00,,,0.00,VWS V14.01,2013-04-08 11:05:00,
2013-04-08 04:06:00,50.5,32.1,29.74,South,180,4.9,8.7,49,0.00,,,0.00,VWS V14.01,2013-04-08 11:06:00,
2013-04-08 04:07:00,50.5,32.1,29.74,South,180,3.6,6.3,49,0.00,,,0.00,VWS V14.01,2013-04-08 11:07:00,
2013-04-08 04:08:00,50.4,31.9,29.74,SE,135,2.7,4.9,49,0.00,,,0.00,VWS V14.01,2013-04-08 11:08:00,
2013-04-08 04:09:00,50.4,31.9,29.74,East,90,2.2,3.1,49,0.00,,,0.00,VWS V14.01,2013-04-08 11:09:00,
2013-04-08 04:10:00,50.4,31.9,29.74,WSW,248,2.7,4.5,49,0.00,,,0.00,VWS V14.01,2013-04-08 11:10:00,
2013-04-08 04:11:00,50.4,31.9,29.74,NNW,338,2.2,4.9,49,0.00,,,0.00,VWS V14.01,2013-04-08 11:11:00,
2013-04-08 04:12:00,50.4,31.9,29.74,SSE,158,2.7,2.7,49,0.00,,,0.00,VWS V14.01,2013-04-08 11:12:00,
2013-04-08 04:13:00,50.4,31.9,29.74,ENE,68,6.3,7.6,49,0.00,,,0.00,VWS V14.01,2013-04-08 11:13:00,
2013-04-08 04:14:00,50.4,31.9,29.74,East,90,3.1,8.1,49,0.00,,,0.00,VWS V14.01,2013-04-08 11:14:00,
2013-04-08 04:15:00,50.4,31.9,29.74,SSW,202,4.0,4.9,49,0.00,,,0.00,VWS V14.01,2013-04-08 11:15:00,
2013-04-08 04:16:00,50.4,31.9,29.74,NNE,22,2.2,4.0,49,0.00,,,0.00,VWS V14.01,2013-04-08 11:16:00,
2013-04-08 04:17:00,50.4,31.9,29.74,ESE,112,4.9,4.9,49,0.00,,,0.00,VWS V14.01,2013-04-08 11:17:00,
2013-04-08 04:18:00,50.4,31.9,29.74,South,180,3.1,3.1,49,0.00,,,0.00,VWS V14.01,2013-04-08 11:18:00,
2013-04-08 04:19:00,50.4,31.9,29.74,SSE,158,3.6,3.6,49,0.00,,,0.00,VWS V14.01,2013-04-08 11:19:00,
2013-04-08 04:20:00,50.4,31.9,29.74,ESE,112,2.7,5.8,49,0.00,,,0.00,VWS V14.01,2013-04-08 11:20:00,
2013-04-08 04:21:00,50.4,31.9,29.74,NE,45,6.7,11.0,49,0.00,,,0.00,VWS V14.01,2013-04-08 11:21:00,
2013-04-08 04:22:00,50.5,31.6,29.74,SSW,202,8.3,10.5,48,0.00,,,0.00,VWS V14.01,2013-04-08 11:22:00,
2013-04-08 04:23:00,50.5,31.6,29.74,SSE,158,10.1,10.5,48,0.00,,,0.00,VWS V14.01,2013-04-08 11:23:00,
2013-04-08 04:24:00,50.5,31.6,29.74,SSE,158,10.1,10.5,48,0.00,,,0.00,VWS V14.01,2013-04-08 11:24:00,
2013-04-08 04:25:00,50.5,31.6,29.74,SSW,202,4.9,10.1,48,0.00,,,0.00,VWS V14.01,2013-04-08 11:25:00,
2013-04-08 04:26:00,50.5,31.6,29.74,SSW,202,7.6,7.6,48,0.00,,,0.00,VWS V14.01,2013-04-08 11:26:00,
2013-04-08 04:27:00,50.5,31.6,29.74,SE,135,6.3,7.6,48,0.00,,,0.00,VWS V14.01,2013-04-08 11:27:00,
2013-04-08 04:28:00,50.5,31.6,29.74,ESE,112,5.8,7.6,48,0.00,,,0.00,VWS V14.01,2013-04-08 11:28:00,
2013-04-08 04:29:00,50.4,31.9,29.74,ENE,68,8.1,8.1,49,0.00,,,0.00,VWS V14.01,2013-04-08 11:29:00,
2013-04-08 04:30:00,50.4,31.9,29.74,ENE,68,3.1,8.1,49,0.00,,,0.00,VWS V14.01,2013-04-08 11:30:00,
2013-04-08 04:31:00,50.4,31.9,29.74,SE,135,4.0,5.4,49,0.00,,,0.00,VWS V14.01,2013-04-08 11:31:00,
2013-04-08 04:32:00,50.4,31.9,29.74,ESE,112,3.6,5.4,49,0.00,,,0.00,VWS V14.01,2013-04-08 11:32:00,
2013-04-08 04:33:00,50.4,31.9,29.74,WSW,248,2.7,4.9,49,0.00,,,0.00,VWS V14.01,2013-04-08 11:33:00,
2013-04-08 04:34:00,50.4,31.9,29.74,SSW,202,3.6,6.3,49,0.00,,,0.00,VWS V14.01,2013-04-08 11:34:00,
2013-04-08 04:35:00,50.4,31.9,29.74,SSW,202,3.6,6.3,49,0.00,,,0.00,VWS V14.01,2013-04-08 11:35:00,
2013-04-08 04:36:00,50.4,31.9,29.74,ENE,68,2.7,6.3,49,0.00,,,0.00,VWS V14.01,2013-04-08 11:36:00,
2013-04-08 04:37:00,50.4,31.9,29.74,East,90,4.9,4.9,49,0.00,,,0.00,VWS V14.01,2013-04-08 11:37:00,
2013-04-08 04:38:00,50.4,31.4,29.74,ESE,112,4.9,6.3,48,0.00,,,0.00,VWS V14.01,2013-04-08 11:38:00,
2013-04-08 04:39:00,50.4,31.4,29.74,NNE,22,5.8,11.9,48,0.00,,,0.00,VWS V14.01,2013-04-08 11:39:00,
2013-04-08 04:40:00,50.4,31.4,29.74,NNE,22,5.8,11.9,48,0.00,,,0.00,VWS V14.01,2013-04-08 11:40:00,
2013-04-08 04:41:00,50.4,31.4,29.74,East,90,3.6,8.1,48,0.00,,,0.00,VWS V14.01,2013-04-08 11:41:00,
2013-04-08 04:42:00,50.4,31.4,29.74,South,180,3.1,5.4,48,0.00,,,0.00,VWS V14.01,2013-04-08 11:42:00,
2013-04-08 04:43:00,50.4,31.4,29.74,North,0,3.1,4.5,48,0.00,,,0.00,VWS V14.01,2013-04-08 11:43:00,
2013-04-08 04:44:00,50.4,31.4,29.74,SE,135,4.0,4.0,48,0.00,,,0.00,VWS V14.01,2013-04-08 11:44:00,
2013-04-08 04:45:00,50.4,31.4,29.74,SE,135,4.0,4.0,48,0.00,,,0.00,VWS V14.01,2013-04-08 11:45:00,
2013-04-08 04:46:00,50.4,31.4,29.74,ESE,112,8.3,8.3,48,0.00,,,0.00,VWS V14.01,2013-04-08 11:46:00,
2013-04-08 04:47:00,50.4,31.4,29.74,SSE,158,8.7,8.7,48,0.00,,,0.00,VWS V14.01,2013-04-08 11:47:00,
2013-04-08 04:48:00,50.2,31.3,29.74,South,180,8.3,8.7,48,0.00,,,0.00,VWS V14.01,2013-04-08 11:48:00,
2013-04-08 04:49:00,50.2,30.8,29.74,NNE,22,5.4,8.3,47,0.00,,,0.00,VWS V14.01,2013-04-08 11:49:00,
2013-04-08 04:50:00,50.4,30.9,29.74,SSW,202,4.9,6.7,47,0.00,,,0.00,VWS V14.01,2013-04-08 11:50:00,
2013-04-08 04:51:00,50.4,30.9,29.74,NW,315,6.3,6.7,47,0.00,,,0.00,VWS V14.01,2013-04-08 11:51:00,
2013-04-08 04:52:00,50.4,30.9,29.74,SSE,158,7.6,7.6,47,0.00,,,0.00,VWS V14.01,2013-04-08 11:52:00,
2013-04-08 04:53:00,50.4,30.9,29.74,SE,135,9.6,11.0,47,0.00,,,0.00,VWS V14.01,2013-04-08 11:53:00,
2013-04-08 04:54:00,50.2,30.8,29.74,WNW,292,8.3,9.6,47,0.00,,,0.00,VWS V14.01,2013-04-08 11:54:00,
2013-04-08 04:55:00,50.2,30.2,29.74,East,90,4.0,8.7,46,0.00,,,0.00,VWS V14.01,2013-04-08 11:55:00,
2013-04-08 04:56:00,50.2,30.2,29.74,East,90,4.0,8.7,46,0.00,,,0.00,VWS V14.01,2013-04-08 11:56:00,
2013-04-08 04:57:00,50.2,30.2,29.74,NNW,338,3.6,4.0,46,0.00,,,0.00,VWS V14.01,2013-04-08 11:57:00,
2013-04-08 04:58:00,50.2,30.2,29.74,SSW,202,5.4,6.3,46,0.00,,,0.00,VWS V14.01,2013-04-08 11:58:00,
2013-04-08 04:59:00,50.2,30.2,29.74,SSE,158,3.1,5.4,46,0.00,,,0.00,VWS V14.01,2013-04-08 11:59:00,
2013-04-08 05:00:00,50.2,30.2,29.74,SSE,158,8.1,9.6,46,0.00,,,0.00,VWS V14.01,2013-04-08 12:00:00,
2013-04-08 05:01:00,50.2,30.2,29.74,SSE,158,8.1,9.6,46,0.00,,,0.00,VWS V14.01,2013-04-08 12:01:00,
2013-04-08 05:02:00,50.4,30.4,29.74,ESE,112,7.2,10.5,46,0.00,,,0.00,VWS V14.01,2013-04-08 12:02:00,
2013-04-08 05:03:00,50.4,29.8,29.74,ENE,68,10.1,10.1,45,0.00,,,0.00,VWS V14.01,2013-04-08 12:03:00,
2013-04-08 05:04:00,50.4,29.8,29.74,ENE,68,10.1,10.1,45,0.00,,,0.00,VWS V14.01,2013-04-08 12:04:00,
2013-04-08 05:05:00,50.4,29.8,29.74,East,90,9.6,9.6,45,0.00,,,0.00,VWS V14.01,2013-04-08 12:05:00,
2013-04-08 05:06:00,50.4,29.8,29.74,East,90,9.6,11.4,45,0.00,,,0.00,VWS V14.01,2013-04-08 12:06:00,
2013-04-08 05:07:00,50.4,30.4,29.74,SSE,158,4.0,9.6,46,0.00,,,0.00,VWS V14.01,2013-04-08 12:07:00,
2013-04-08 05:08:00,50.4,30.4,29.74,ENE,68,6.3,7.2,46,0.00,,,0.00,VWS V14.01,2013-04-08 12:08:00,
2013-04-08 05:09:00,50.4,30.4,29.74,ESE,112,3.6,6.3,46,0.00,,,0.00,VWS V14.01,2013-04-08 12:09:00,
2013-04-08 05:10:00,50.4,30.4,29.74,SSW,202,5.8,5.8,46,0.00,,,0.00,VWS V14.01,2013-04-08 12:10:00,
2013-04-08 05:11:00,50.2,29.7,29.74,SSE,158,7.2,7.6,45,0.00,,,0.00,VWS V14.01,2013-04-08 12:11:00,
2013-04-08 05:12:00,50.2,29.7,29.74,SSE,158,7.2,7.6,45,0.00,,,0.00,VWS V14.01,2013-04-08 12:12:00,
2013-04-08 05:13:00,50.4,29.8,29.74,ENE,68,8.3,10.5,45,0.00,,,0.00,VWS V14.01,2013-04-08 12:13:00,
2013-04-08 05:14:00,50.4,29.8,29.74,WSW,248,6.3,8.3,45,0.00,,,0.00,VWS V14.01,2013-04-08 12:14:00,
2013-04-08 05:15:00,50.4,29.8,29.74,NE,45,2.7,6.3,45,0.00,,,0.00,VWS V14.01,2013-04-08 12:15:00,
2013-04-08 05:16:00,50.2,29.7,29.74,ESE,112,8.1,8.7,45,0.00,,,0.00,VWS V14.01,2013-04-08 12:16:00,
2013-04-08 05:17:00,50.2,29.1,29.74,South,180,3.1,6.3,44,0.00,,,0.00,VWS V14.01,2013-04-08 12:17:00,
2013-04-08 05:18:00,50.2,29.1,29.74,South,180,3.1,6.3,44,0.00,,,0.00,VWS V14.01,2013-04-08 12:18:00,
2013-04-08 05:19:00,50.2,29.1,29.74,ENE,68,5.4,5.4,44,0.00,,,0.00,VWS V14.01,2013-04-08 12:19:00,
2013-04-08 05:20:00,50.2,29.1,29.74,WNW,292,7.6,12.8,44,0.00,,,0.00,VWS V14.01,2013-04-08 12:20:00,
2013-04-08 05:21:00,50.2,29.1,29.76,WNW,292,5.4,7.6,44,0.00,,,0.00,VWS V14.01,2013-04-08 12:21:00,
2013-04-08 05:22:00,50.2,29.1,29.76,WSW,248,5.4,5.8,44,0.00,,,0.00,VWS V14.01,2013-04-08 12:22:00,
2013-04-08 05:23:00,50.2,29.1,29.76,WSW,248,5.8,6.3,44,0.00,,,0.00,VWS V14.01,2013-04-08 12:23:00,
2013-04-08 05:24:00,50.2,29.1,29.76,NNW,338,2.7,5.8,44,0.00,,,0.00,VWS V14.01,2013-04-08 12:24:00,
2013-04-08 05:25:00,50.2,29.1,29.76,NNE,22,3.1,6.3,44,0.00,,,0.00,VWS V14.01,2013-04-08 12:25:00,
2013-04-08 05:26:00,50.2,29.1,29.76,North,0,5.4,5.4,44,0.00,,,0.00,VWS V14.01,2013-04-08 12:26:00,
2013-04-08 05:27:00,50.2,29.1,29.76,SSW,202,2.7,6.3,44,0.00,,,0.00,VWS V14.01,2013-04-08 12:27:00,
2013-04-08 05:28:00,50.2,29.1,29.76,East,90,3.1,3.1,44,0.00,,,0.00,VWS V14.01,2013-04-08 12:28:00,
2013-04-08 05:29:00,50.2,29.1,29.76,East,90,3.1,4.9,44,0.00,,,0.00,VWS V14.01,2013-04-08 12:29:00,
2013-04-08 05:30:00,50.2,29.1,29.76,SSW,202,5.4,5.8,44,0.00,,,0.00,VWS V14.01,2013-04-08 12:30:00,
2013-04-08 05:31:00,50.2,29.1,29.76,ENE,68,3.6,7.6,44,0.00,,,0.00,VWS V14.01,2013-04-08 12:31:00,
2013-04-08 05:32:00,50.2,29.1,29.76,SW,225,5.4,7.6,44,0.00,,,0.00,VWS V14.01,2013-04-08 12:32:00,
2013-04-08 05:33:00,50.2,29.1,29.76,ESE,112,3.6,8.1,44,0.00,,,0.00,VWS V14.01,2013-04-08 12:33:00,
2013-04-08 05:34:00,50.2,29.1,29.76,ESE,112,3.6,8.1,44,0.00,,,0.00,VWS V14.01,2013-04-08 12:34:00,
2013-04-08 05:35:00,50.2,29.1,29.76,SW,225,4.5,5.8,44,0.00,,,0.00,VWS V14.01,2013-04-08 12:35:00,
2013-04-08 05:36:00,50.2,29.1,29.74,ENE,68,7.2,7.2,44,0.00,,,0.00,VWS V14.01,2013-04-08 12:36:00,
2013-04-08 05:37:00,50.2,29.1,29.74,South,180,3.6,7.2,44,0.00,,,0.00,VWS V14.01,2013-04-08 12:37:00,
2013-04-08 05:38:00,50.2,29.1,29.74,ESE,112,5.4,5.8,44,0.00,,,0.00,VWS V14.01,2013-04-08 12:38:00,
2013-04-08 05:39:00,50.2,29.1,29.74,ESE,112,3.6,8.1,44,0.00,,,0.00,VWS V14.01,2013-04-08 12:39:00,
2013-04-08 05:40:00,50.2,29.1,29.74,ESE,112,3.6,8.1,44,0.00,,,0.00,VWS V14.01,2013-04-08 12:40:00,
2013-04-08 05:41:00,50.2,29.1,29.74,SE,135,3.1,7.6,44,0.00,,,0.00,VWS V14.01,2013-04-08 12:41:00,
2013-04-08 05:42:00,50.2,29.1,29.74,SE,135,8.3,8.3,44,0.00,,,0.00,VWS V14.01,2013-04-08 12:42:00,
2013-04-08 05:43:00,50.2,29.1,29.74,WSW,248,3.6,8.3,44,0.00,,,0.00,VWS V14.01,2013-04-08 12:43:00,
2013-04-08 05:44:00,50.2,29.1,29.74,West,270,5.4,5.4,44,0.00,,,0.00,VWS V14.01,2013-04-08 12:44:00,
2013-04-08 05:45:00,50.2,29.1,29.74,West,270,5.4,5.4,44,0.00,,,0.00,VWS V14.01,2013-04-08 12:45:00,
2013-04-08 05:46:00,50.2,29.1,29.74,South,180,4.0,7.6,44,0.00,,,0.00,VWS V14.01,2013-04-08 12:46:00,
2013-04-08 05:47:00,50.2,28.6,29.74,SSE,158,7.2,8.1,43,0.00,,,0.00,VWS V14.01,2013-04-08 12:47:00,
2013-04-08 05:48:00,50.0,28.4,29.74,ESE,112,8.7,8.7,43,0.00,,,0.00,VWS V14.01,2013-04-08 12:48:00,
2013-04-08 05:49:00,50.2,28.6,29.74,SSE,158,8.7,8.7,43,0.00,,,0.00,VWS V14.01,2013-04-08 12:49:00,
2013-04-08 05:50:00,50.2,28.6,29.76,WSW,248,4.5,8.1,43,0.00,,,0.00,VWS V14.01,2013-04-08 12:50:00,
2013-04-08 05:51:00,50.2,28.6,29.76,WSW,248,4.5,8.1,43,0.00,,,0.00,VWS V14.01,2013-04-08 12:51:00,
2013-04-08 05:52:00,50.2,28.6,29.76,West,270,3.1,4.5,43,0.00,,,0.00,VWS V14.01,2013-04-08 12:52:00,
2013-04-08 05:53:00,50.2,28.6,29.76,SSE,158,6.7,6.7,43,0.00,,,0.00,VWS V14.01,2013-04-08 12:53:00,
2013-04-08 05:54:00,50.2,28.6,29.76,ESE,112,6.3,9.6,43,0.00,,,0.00,VWS V14.01,2013-04-08 12:54:00,
2013-04-08 05:55:00,50.2,28.6,29.76,NNW,338,2.7,4.9,43,0.00,,,0.00,VWS V14.01,2013-04-08 12:55:00,
2013-04-08 05:56:00,50.2,28.6,29.76,NNW,338,2.7,4.9,43,0.00,,,0.00,VWS V14.01,2013-04-08 12:56:00,
2013-04-08 05:57:00,50.0,28.4,29.76,SSE,158,2.2,3.6,43,0.00,,,0.00,VWS V14.01,2013-04-08 12:57:00,
2013-04-08 05:58:00,50.0,28.4,29.76,SSW,202,4.9,7.6,43,0.00,,,0.00,VWS V14.01,2013-04-08 12:58:00,
2013-04-08 05:59:00,50.0,28.4,29.76,SSW,202,2.7,4.9,43,0.00,,,0.00,VWS V14.01,2013-04-08 12:59:00,
2013-04-08 06:00:00,50.0,28.4,29.76,ENE,68,2.2,2.2,43,0.00,,,0.00,VWS V14.01,2013-04-08 13:00:00,
2013-04-08 06:01:00,50.0,28.4,29.76,SE,135,0.0,4.0,43,0.00,,,0.00,VWS V14.01,2013-04-08 13:01:00,
2013-04-08 06:02:00,50.0,28.4,29.76,SSE,158,4.0,4.0,43,0.00,,,0.00,VWS V14.01,2013-04-08 13:02:00,
2013-04-08 06:03:00,50.0,28.4,29.76,ENE,68,2.7,5.4,43,0.00,,,0.00,VWS V14.01,2013-04-08 13:03:00,
2013-04-08 06:04:00,50.0,28.4,29.76,SSE,158,5.4,8.1,43,0.00,,,0.00,VWS V14.01,2013-04-08 13:04:00,
2013-04-08 06:05:00,50.0,28.4,29.76,North,0,3.1,7.2,43,0.00,,,0.00,VWS V14.01,2013-04-08 13:05:00,
2013-04-08 06:06:00,50.0,28.4,29.76,SSE,158,7.6,7.6,43,0.00,,,0.00,VWS V14.01,2013-04-08 13:06:00,
2013-04-08 06:07:00,50.0,28.4,29.76,South,180,4.9,7.6,43,0.00,,,0.00,VWS V14.01,2013-04-08 13:07:00,
2013-04-08 06:08:00,50.0,28.4,29.76,SSE,158,2.7,4.9,43,0.00,,,0.00,VWS V14.01,2013-04-08 13:08:00,
2013-04-08 06:09:00,50.0,28.4,29.76,West,270,10.5,10.5,43,0.00,,,0.00,VWS V14.01,2013-04-08 13:09:00,
2013-04-08 06:10:00,50.0,28.4,29.76,ESE,112,6.3,10.5,43,0.00,,,0.00,VWS V14.01,2013-04-08 13:10:00,
2013-04-08 06:11:00,50.0,28.4,29.76,WNW,292,3.6,6.3,43,0.00,,,0.00,VWS V14.01,2013-04-08 13:11:00,
2013-04-08 06:12:00,50.0,28.4,29.76,WNW,292,3.6,6.3,43,0.00,,,0.00,VWS V14.01,2013-04-08 13:12:00,
2013-04-08 06:13:00,50.0,28.4,29.76,ENE,68,3.1,7.2,43,0.00,,,0.00,VWS V14.01,2013-04-08 13:13:00,
2013-04-08 06:14:00,50.2,28.6,29.76,West,270,4.9,5.4,43,0.00,,,0.00,VWS V14.01,2013-04-08 13:14:00,
2013-04-08 06:15:00,50.0,27.8,29.76,SW,225,2.7,4.9,42,0.00,,,0.00,VWS V14.01,2013-04-08 13:15:00,
2013-04-08 06:16:00,50.0,27.8,29.76,SSE,158,3.1,7.6,42,0.00,,,0.00,VWS V14.01,2013-04-08 13:16:00,
2013-04-08 06:17:00,50.0,27.8,29.76,SSE,158,3.1,7.6,42,0.00,,,0.00,VWS V14.01,2013-04-08 13:17:00,
2013-04-08 06:18:00,50.2,28.0,29.76,NNW,338,7.2,7.2,42,0.00,,,0.00,VWS V14.01,2013-04-08 13:18:00,
2013-04-08 06:19:00,50.2,28.0,29.76,ESE,112,5.4,8.1,42,0.00,,,0.00,VWS V14.01,2013-04-08 13:19:00,
2013-04-08 06:20:00,50.2,28.0,29.76,West,270,5.8,7.6,42,0.00,,,0.00,VWS V14.01,2013-04-08 13:20:00,
2013-04-08 06:21:00,50.2,28.0,29.76,SE,135,7.6,8.1,42,0.00,,,0.00,VWS V14.01,2013-04-08 13:21:00,
2013-04-08 06:22:00,50.2,28.0,29.76,ENE,68,2.7,8.3,42,0.00,,,0.00,VWS V14.01,2013-04-08 13:22:00,
2013-04-08 06:23:00,50.2,28.0,29.76,ENE,68,2.7,8.3,42,0.00,,,0.00,VWS V14.01,2013-04-08 13:23:00,
2013-04-08 06:24:00,50.2,28.0,29.76,ENE,68,2.7,2.7,42,0.00,,,0.00,VWS V14.01,2013-04-08 13:24:00,
2013-04-08 06:25:00,50.2,28.0,29.76,ENE,68,3.1,4.0,42,0.00,,,0.00,VWS V14.01,2013-04-08 13:25:00,
2013-04-08 06:26:00,50.2,28.0,29.76,East,90,3.1,7.2,42,0.00,,,0.00,VWS V14.01,2013-04-08 13:26:00,
2013-04-08 06:27:00,50.0,27.8,29.76,SE,135,3.6,3.6,42,0.00,,,0.00,VWS V14.01,2013-04-08 13:27:00,
2013-04-08 06:28:00,50.2,28.0,29.76,SSW,202,3.1,5.4,42,0.00,,,0.00,VWS V14.01,2013-04-08 13:28:00,
2013-04-08 06:29:00,50.0,28.4,29.76,SSE,158,7.6,7.6,43,0.00,,,0.00,VWS V14.01,2013-04-08 13:29:00,
2013-04-08 06:30:00,50.2,28.6,29.76,East,90,4.9,7.6,43,0.00,,,0.00,VWS V14.01,2013-04-08 13:30:00,
2013-04-08 06:31:00,50.2,28.6,29.76,SSW,202,8.1,8.1,43,0.00,,,0.00,VWS V14.01,2013-04-08 13:31:00,
2013-04-08 06:32:00,50.2,28.6,29.76,South,180,4.0,8.1,43,0.00,,,0.00,VWS V14.01,2013-04-08 13:32:00,
2013-04-08 06:33:00,50.2,28.0,29.76,East,90,2.7,5.8,42,0.00,,,0.00,VWS V14.01,2013-04-08 13:33:00,
2013-04-08 06:34:00,50.2,28.0,29.76,ENE,68,3.1,5.8,42,0.00,,,0.00,VWS V14.01,2013-04-08 13:34:00,
2013-04-08 06:35:00,50.2,28.0,29.76,NNW,338,3.6,6.3,42,0.00,,,0.00,VWS V14.01,2013-04-08 13:35:00,
2013-04-08 06:36:00,50.2,28.0,29.76,ENE,68,4.9,4.9,42,0.00,,,0.00,VWS V14.01,2013-04-08 13:36:00,
2013-04-08 06:37:00,50.2,28.0,29.76,ESE,112,6.3,6.3,42,0.00,,,0.00,VWS V14.01,2013-04-08 13:37:00,
2013-04-08 06:38:00,50.2,28.0,29.76,SSE,158,3.6,4.0,42,0.00,,,0.00,VWS V14.01,2013-04-08 13:38:00,
2013-04-08 06:39:00,50.2,28.0,29.76,SSE,158,3.6,4.0,42,0.00,,,0.00,VWS V14.01,2013-04-08 13:39:00,
2013-04-08 06:40:00,50.2,28.0,29.76,East,90,3.6,6.3,42,0.00,,,0.00,VWS V14.01,2013-04-08 13:40:00,
2013-04-08 06:41:00,50.2,28.0,29.76,SSW,202,3.6,4.0,42,0.00,,,0.00,VWS V14.01,2013-04-08 13:41:00,
2013-04-08 06:42:00,50.0,27.8,29.76,ESE,112,5.8,6.3,42,0.00,,,0.00,VWS V14.01,2013-04-08 13:42:00,
2013-04-08 06:43:00,50.2,28.0,29.76,SSE,158,6.3,7.6,42,0.00,,,0.00,VWS V14.01,2013-04-08 13:43:00,
2013-04-08 06:44:00,50.2,28.0,29.76,SSE,158,6.3,7.6,42,0.00,,,0.00,VWS V14.01,2013-04-08 13:44:00,
2013-04-08 06:45:00,50.2,28.0,29.76,East,90,4.9,7.2,42,0.00,,,0.00,VWS V14.01,2013-04-08 13:45:00,
2013-04-08 06:46:00,50.0,27.8,29.76,ENE,68,3.1,7.2,42,0.00,,,0.00,VWS V14.01,2013-04-08 13:46:00,
2013-04-08 06:47:00,50.0,27.8,29.76,ENE,68,3.1,3.1,42,0.00,,,0.00,VWS V14.01,2013-04-08 13:47:00,
2013-04-08 06:48:00,50.2,28.0,29.76,SSE,158,5.8,8.7,42,0.00,,,0.00,VWS V14.01,2013-04-08 13:48:00,
2013-04-08 06:49:00,50.2,28.0,29.76,SSE,158,5.8,8.7,42,0.00,,,0.00,VWS V14.01,2013-04-08 13:49:00,
2013-04-08 06:50:00,50.2,28.0,29.76,SSE,158,7.6,9.6,42,0.00,,,0.00,VWS V14.01,2013-04-08 13:50:00,
2013-04-08 06:51:00,50.2,28.0,29.76,SW,225,4.0,8.7,42,0.00,,,0.00,VWS V14.01,2013-04-08 13:51:00,
2013-04-08 06:52:00,50.2,28.0,29.76,WSW,248,3.1,4.0,42,0.00,,,0.00,VWS V14.01,2013-04-08 13:52:00,
2013-04-08 06:53:00,50.2,28.0,29.76,SSE,158,6.3,8.3,42,0.00,,,0.00,VWS V14.01,2013-04-08 13:53:00,
2013-04-08 06:54:00,50.2,28.0,29.76,SSE,158,6.3,8.3,42,0.00,,,0.00,VWS V14.01,2013-04-08 13:54:00,
2013-04-08 06:55:00,50.2,28.0,29.76,SSW,202,6.7,6.7,42,0.00,,,0.00,VWS V14.01,2013-04-08 13:55:00,
2013-04-08 06:56:00,50.2,28.0,29.76,ENE,68,3.6,6.7,42,0.00,,,0.00,VWS V14.01,2013-04-08 13:56:00,
2013-04-08 06:57:00,50.2,28.0,29.76,SSE,158,7.6,7.6,42,0.00,,,0.00,VWS V14.01,2013-04-08 13:57:00,
2013-04-08 06:58:00,50.2,28.0,29.76,SSE,158,4.5,8.1,42,0.00,,,0.00,VWS V14.01,2013-04-08 13:58:00,
2013-04-08 06:59:00,50.2,28.0,29.76,NNW,338,0.0,4.5,42,0.00,,,0.00,VWS V14.01,2013-04-08 13:59:00,
2013-04-08 07:00:00,50.0,27.8,29.76,South,180,7.2,7.2,42,0.00,,,0.00,VWS V14.01,2013-04-08 14:00:00,
2013-04-08 07:01:00,50.2,28.0,29.76,WNW,292,5.4,8.3,42,0.00,,,0.00,VWS V14.01,2013-04-08 14:01:00,
2013-04-08 07:02:00,50.2,28.0,29.76,SSW,202,2.7,5.4,42,0.00,,,0.00,VWS V14.01,2013-04-08 14:02:00,
2013-04-08 07:03:00,50.0,27.8,29.76,NE,45,2.7,4.9,42,0.00,,,0.00,VWS V14.01,2013-04-08 14:03:00,
2013-04-08 07:04:00,50.0,27.8,29.76,NE,45,2.7,4.9,42,0.00,,,0.00,VWS V14.01,2013-04-08 14:04:00,
2013-04-08 07:05:00,50.2,28.0,29.79,NNE,22,4.9,4.9,42,0.00,,,0.00,VWS V14.01,2013-04-08 14:05:00,
2013-04-08 07:06:00,50.2,28.0,29.79,NNE,22,3.1,4.9,42,0.00,,,0.00,VWS V14.01,2013-04-08 14:06:00,
2013-04-08 07:07:00,50.2,28.0,29.79,SSW,202,4.0,4.0,42,0.00,,,0.00,VWS V14.01,2013-04-08 14:07:00,
2013-04-08 07:08:00,50.2,28.0,29.79,SE,135,4.0,7.6,42,0.00,,,0.00,VWS V14.01,2013-04-08 14:08:00,
2013-04-08 07:09:00,50.2,28.0,29.79,SSE,158,7.6,7.6,42,0.00,,,0.00,VWS V14.01,2013-04-08 14:09:00,
2013-04-08 07:10:00,50.2,28.0,29.79,WSW,248,2.7,7.6,42,0.00,,,0.00,VWS V14.01,2013-04-08 14:10:00,
2013-04-08 07:11:00,50.0,27.8,29.79,SSE,158,6.3,8.7,42,0.00,,,0.00,VWS V14.01,2013-04-08 14:11:00,
2013-04-08 07:12:00,50.0,27.8,29.79,SSE,158,8.1,8.1,42,0.00,,,0.00,VWS V14.01,2013-04-08 14:12:00,
2013-04-08 07:13:00,50.0,27.8,29.79,WSW,248,5.4,8.1,42,0.00,,,0.00,VWS V14.01,2013-04-08 14:13:00,
2013-04-08 07:14:00,50.0,27.8,29.79,ESE,112,5.8,5.8,42,0.00,,,0.00,VWS V14.01,2013-04-08 14:14:00,
2013-04-08 07:15:00,50.2,28.0,29.79,ENE,68,4.9,5.8,42,0.00,,,0.00,VWS V14.01,2013-04-08 14:15:00,
2013-04-08 07:16:00,50.2,28.0,29.79,ESE,112,3.6,4.9,42,0.00,,,0.00,VWS V14.01,2013-04-08 14:16:00,
2013-04-08 07:17:00,50.0,27.8,29.79,ESE,112,3.1,3.6,42,0.00,,,0.00,VWS V14.01,2013-04-08 14:17:00,
2013-04-08 07:18:00,50.0,27.8,29.79,ESE,112,6.7,6.7,42,0.00,,,0.00,VWS V14.01,2013-04-08 14:18:00,
2013-04-08 07:19:00,50.0,27.8,29.79,South,180,6.3,6.7,42,0.00,,,0.00,VWS V14.01,2013-04-08 14:19:00,
2013-04-08 07:20:00,50.0,27.8,29.79,ENE,68,8.7,8.7,42,0.00,,,0.00,VWS V14.01,2013-04-08 14:20:00,
2013-04-08 07:21:00,50.0,27.8,29.79,South,180,2.7,8.7,42,0.00,,,0.00,VWS V14.01,2013-04-08 14:21:00,
2013-04-08 07:22:00,50.2,28.0,29.79,NW,315,3.1,4.0,42,0.00,,,0.00,VWS V14.01,2013-04-08 14:22:00,
2013-04-08 07:23:00,50.2,28.0,29.79,WSW,248,3.6,4.0,42,0.00,,,0.00,VWS V14.01,2013-04-08 14:23:00,
2013-04-08 07:24:00,50.2,28.0,29.79,SSE,158,8.1,8.1,42,0.00,,,0.00,VWS V14.01,2013-04-08 14:24:00,
2013-04-08 07:25:00,50.2,28.0,29.79,SSE,158,8.1,8.1,42,0.00,,,0.00,VWS V14.01,2013-04-08 14:25:00,
2013-04-08 07:26:00,50.4,28.2,29.79,SSW,202,7.2,8.1,42,0.00,,,0.00,VWS V14.01,2013-04-08 14:26:00,
2013-04-08 07:27:00,50.2,28.0,29.79,SSW,202,8.1,8.1,42,0.00,,,0.00,VWS V14.01,2013-04-08 14:27:00,
2013-04-08 07:28:00,50.2,28.0,29.79,ENE,68,4.0,8.1,42,0.00,,,0.00,VWS V14.01,2013-04-08 14:28:00,
2013-04-08 07:29:00,50.2,28.0,29.79,North,0,2.2,4.0,42,0.00,,,0.00,VWS V14.01,2013-04-08 14:29:00,
2013-04-08 07:30:00,50.2,28.0,29.79,ENE,68,3.6,3.6,42,0.00,,,0.00,VWS V14.01,2013-04-08 14:30:00,
2013-04-08 07:31:00,50.2,28.0,29.79,ENE,68,4.0,4.9,42,0.00,,,0.00,VWS V14.01,2013-04-08 14:31:00,
2013-04-08 07:32:00,50.2,28.0,29.79,NE,45,4.0,4.0,42,0.00,,,0.00,VWS V14.01,2013-04-08 14:32:00,
2013-04-08 07:33:00,50.2,28.0,29.79,SSE,158,4.0,6.7,42,0.00,,,0.00,VWS V14.01,2013-04-08 14:33:00,
2013-04-08 07:34:00,50.2,27.4,29.79,SSE,158,4.0,4.0,41,0.00,,,0.00,VWS V14.01,2013-04-08 14:34:00,
2013-04-08 07:35:00,50.2,27.4,29.79,ESE,112,3.6,4.9,41,0.00,,,0.00,VWS V14.01,2013-04-08 14:35:00,
2013-04-08 07:36:00,50.2,27.4,29.79,North,0,4.5,4.5,41,0.00,,,0.00,VWS V14.01,2013-04-08 14:36:00,
2013-04-08 07:37:00,50.2,27.4,29.79,ESE,112,4.0,4.5,41,0.00,,,0.00,VWS V14.01,2013-04-08 14:37:00,
2013-04-08 07:38:00,50.4,28.2,29.79,WNW,292,2.7,4.9,42,0.00,,,0.00,VWS V14.01,2013-04-08 14:38:00,
2013-04-08 07:39:00,50.4,28.2,29.79,ENE,68,4.9,4.9,42,0.00,,,0.00,VWS V14.01,2013-04-08 14:39:00,
2013-04-08 07:40:00,50.5,28.3,29.79,North,0,3.6,5.8,42,0.00,,,0.00,VWS V14.01,2013-04-08 14:40:00,
2013-04-08 07:41:00,50.4,27.6,29.79,West,270,8.1,8.1,41,0.00,,,0.00,VWS V14.01,2013-04-08 14:41:00,
2013-04-08 07:42:00,50.4,27.6,29.79,SE,135,4.0,8.1,41,0.00,,,0.00,VWS V14.01,2013-04-08 14:42:00,
2013-04-08 07:43:00,50.4,27.6,29.79,ESE,112,3.1,4.5,41,0.00,,,0.00,VWS V14.01,2013-04-08 14:43:00,
2013-04-08 07:44:00,50.4,27.6,29.79,SSE,158,2.2,4.0,41,0.00,,,0.00,VWS V14.01,2013-04-08 14:44:00,
2013-04-08 07:45:00,50.4,27.6,29.79,ENE,68,3.6,3.6,41,0.00,,,0.00,VWS V14.01,2013-04-08 14:45:00,
2013-04-08 07:46:00,50.5,27.7,29.79,East,90,2.7,5.8,41,0.00,,,0.00,VWS V14.01,2013-04-08 14:46:00,
2013-04-08 07:47:00,50.5,27.7,29.79,ESE,112,4.0,4.9,41,0.00,,,0.00,VWS V14.01,2013-04-08 14:47:00,
2013-04-08 07:48:00,50.5,27.7,29.79,SSW,202,4.5,4.5,41,0.00,,,0.00,VWS V14.01,2013-04-08 14:48:00,
2013-04-08 07:49:00,50.5,27.7,29.79,NNE,22,3.6,4.9,41,0.00,,,0.00,VWS V14.01,2013-04-08 14:49:00,
2013-04-08 07:50:00,50.5,27.7,29.79,NNE,22,3.1,5.4,41,0.00,,,0.00,VWS V14.01,2013-04-08 14:50:00,
2013-04-08 07:51:00,50.7,27.9,29.79,ENE,68,3.1,5.8,41,0.00,,,0.00,VWS V14.01,2013-04-08 14:51:00,
2013-04-08 07:52:00,50.7,27.9,29.79,ESE,112,4.9,4.9,41,0.00,,,0.00,VWS V14.01,2013-04-08 14:52:00,
2013-04-08 07:53:00,50.7,27.3,29.79,SSE,158,4.0,6.3,40,0.00,,,0.00,VWS V14.01,2013-04-08 14:53:00,
2013-04-08 07:54:00,50.7,27.3,29.79,NNE,22,4.0,5.4,40,0.00,,,0.00,VWS V14.01,2013-04-08 14:54:00,
2013-04-08 07:55:00,50.7,27.3,29.79,NNE,22,4.0,4.0,40,0.00,,,0.00,VWS V14.01,2013-04-08 14:55:00,
2013-04-08 07:56:00,50.9,27.5,29.79,East,90,3.1,4.0,40,0.00,,,0.00,VWS V14.01,2013-04-08 14:56:00,
2013-04-08 07:57:00,50.7,27.3,29.79,NNW,338,4.9,4.9,40,0.00,,,0.00,VWS V14.01,2013-04-08 14:57:00,
2013-04-08 07:58:00,50.7,27.3,29.79,SSW,202,3.6,4.9,40,0.00,,,0.00,VWS V14.01,2013-04-08 14:58:00,
2013-04-08 08:00:00,50.7,27.3,29.79,SSE,158,6.7,6.7,40,0.00,,,0.00,VWS V14.01,2013-04-08 15:00:00,
2013-04-08 08:01:00,50.7,27.3,29.79,ENE,68,4.0,6.7,40,0.00,,,0.00,VWS V14.01,2013-04-08 15:01:00,
2013-04-08 08:02:00,50.9,27.5,29.79,ENE,68,2.7,3.1,40,0.00,,,0.00,VWS V14.01,2013-04-08 15:02:00,
2013-04-08 08:03:00,50.9,27.5,29.79,South,180,8.7,8.7,40,0.00,,,0.00,VWS V14.01,2013-04-08 15:03:00,
2013-04-08 08:04:00,50.9,27.5,29.79,SSW,202,4.0,8.7,40,0.00,,,0.00,VWS V14.01,2013-04-08 15:04:00,
2013-04-08 08:05:00,50.9,27.5,29.82,East,90,3.1,4.0,40,0.00,,,0.00,VWS V14.01,2013-04-08 15:05:00,
2013-04-08 08:06:00,50.9,27.5,29.82,ESE,112,2.7,4.0,40,0.00,,,0.00,VWS V14.01,2013-04-08 15:06:00,
2013-04-08 08:07:00,50.9,27.5,29.82,SSW,202,3.1,4.0,40,0.00,,,0.00,VWS V14.01,2013-04-08 15:07:00,
2013-04-08 08:08:00,50.9,27.5,29.82,ESE,112,2.7,4.0,40,0.00,,,0.00,VWS V14.01,2013-04-08 15:08:00,
2013-04-08 08:09:00,50.9,27.5,29.82,NE,45,2.7,3.1,40,0.00,,,0.00,VWS V14.01,2013-04-08 15:09:00,
2013-04-08 08:10:00,50.9,27.5,29.82,West,270,3.1,3.6,40,0.00,,,0.00,VWS V14.01,2013-04-08 15:10:00,
2013-04-08 08:11:00,50.9,27.5,29.82,SSE,158,7.6,8.1,40,0.00,,,0.00,VWS V14.01,2013-04-08 15:11:00,
2013-04-08 08:12:00,50.9,27.5,29.82,West,270,4.0,7.6,40,0.00,,,0.00,VWS V14.01,2013-04-08 15:12:00,
2013-04-08 08:13:00,50.9,27.5,29.82,WNW,292,4.9,4.9,40,0.00,,,0.00,VWS V14.01,2013-04-08 15:13:00,
2013-04-08 08:14:00,50.9,27.5,29.82,SSE,158,8.3,8.3,40,0.00,,,0.00,VWS V14.01,2013-04-08 15:14:00,
2013-04-08 08:15:00,50.9,27.5,29.82,ESE,112,3.1,8.3,40,0.00,,,0.00,VWS V14.01,2013-04-08 15:15:00,
2013-04-08 08:16:00,50.9,27.5,29.82,WNW,292,4.0,4.0,40,0.00,,,0.00,VWS V14.01,2013-04-08 15:16:00,
2013-04-08 08:17:00,51.1,27.6,29.82,ESE,112,8.1,8.1,40,0.00,,,0.00,VWS V14.01,2013-04-08 15:17:00,
2013-04-08 08:18:00,51.1,27.6,29.82,NE,45,5.8,8.1,40,0.00,,,0.00,VWS V14.01,2013-04-08 15:18:00,
2013-04-08 08:19:00,51.1,27.6,29.82,ESE,112,4.0,5.8,40,0.00,,,0.00,VWS V14.01,2013-04-08 15:19:00,
2013-04-08 08:20:00,51.1,27.6,29.82,South,180,7.2,7.6,40,0.00,,,0.00,VWS V14.01,2013-04-08 15:20:00,
2013-04-08 08:21:00,50.9,27.5,29.82,SSE,158,3.6,7.2,40,0.00,,,0.00,VWS V14.01,2013-04-08 15:21:00,
2013-04-08 08:22:00,51.1,27.6,29.82,East,90,5.8,5.8,40,0.00,,,0.00,VWS V14.01,2013-04-08 15:22:00,
2013-04-08 08:23:00,51.1,27.6,29.82,ENE,68,4.0,5.8,40,0.00,,,0.00,VWS V14.01,2013-04-08 15:23:00,
2013-04-08 08:24:00,51.1,27.6,29.82,ESE,112,6.3,6.3,40,0.00,,,0.00,VWS V14.01,2013-04-08 15:24:00,
2013-04-08 08:25:00,51.1,27.6,29.82,ESE,112,2.7,6.3,40,0.00,,,0.00,VWS V14.01,2013-04-08 15:25:00,
2013-04-08 08:26:00,51.1,27.6,29.82,ENE,68,4.0,5.8,40,0.00,,,0.00,VWS V14.01,2013-04-08 15:26:00,
2013-04-08 08:27:00,51.1,27.6,29.82,ESE,112,8.1,8.1,40,0.00,,,0.00,VWS V14.01,2013-04-08 15:27:00,
2013-04-08 08:28:00,51.1,27.6,29.82,SSE,158,3.1,4.0,40,0.00,,,0.00,VWS V14.01,2013-04-08 15:28:00,
2013-04-08 08:29:00,51.1,27.6,29.82,ESE,112,4.5,4.5,40,0.00,,,0.00,VWS V14.01,2013-04-08 15:29:00,
2013-04-08 08:30:00,51.1,27.6,29.82,SSE,158,3.6,4.5,40,0.00,,,0.00,VWS V14.01,2013-04-08 15:30:00,
2013-04-08 08:31:00,51.3,27.8,29.82,NE,45,4.9,5.8,40,0.00,,,0.00,VWS V14.01,2013-04-08 15:31:00,
2013-04-08 08:32:00,51.3,27.8,29.82,SSE,158,6.3,6.3,40,0.00,,,0.00,VWS V14.01,2013-04-08 15:32:00,
2013-04-08 08:33:00,51.3,27.8,29.82,WSW,248,2.7,6.3,40,0.00,,,0.00,VWS V14.01,2013-04-08 15:33:00,
2013-04-08 08:34:00,51.3,27.8,29.82,ENE,68,4.0,4.0,40,0.00,,,0.00,VWS V14.01,2013-04-08 15:34:00,
2013-04-08 08:35:00,51.4,27.9,29.82,NNE,22,3.6,4.0,40,0.00,,,0.00,VWS V14.01,2013-04-08 15:35:00,
2013-04-08 08:36:00,51.4,27.9,29.82,East,90,5.8,7.2,40,0.00,,,0.00,VWS V14.01,2013-04-08 15:36:00,
2013-04-08 08:37:00,51.4,27.9,29.82,SSE,158,4.0,10.5,40,0.00,,,0.00,VWS V14.01,2013-04-08 15:37:00,
2013-04-08 08:38:00,51.4,27.9,29.82,SSW,202,7.6,8.1,40,0.00,,,0.00,VWS V14.01,2013-04-08 15:38:00,
2013-04-08 08:39:00,51.3,27.8,29.82,WNW,292,4.0,6.3,40,0.00,,,0.00,VWS V14.01,2013-04-08 15:39:00,
2013-04-08 08:40:00,51.3,27.8,29.82,ESE,112,2.7,6.3,40,0.00,,,0.00,VWS V14.01,2013-04-08 15:40:00,
2013-04-08 08:41:00,51.3,27.8,29.82,South,180,3.1,4.0,40,0.00,,,0.00,VWS V14.01,2013-04-08 15:41:00,
2013-04-08 08:42:00,51.3,27.8,29.82,South,180,2.7,4.9,40,0.00,,,0.00,VWS V14.01,2013-04-08 15:42:00,
2013-04-08 08:43:00,51.4,27.9,29.82,ESE,112,4.9,4.9,40,0.00,,,0.00,VWS V14.01,2013-04-08 15:43:00,
2013-04-08 08:44:00,51.6,28.1,29.82,ENE,68,3.1,5.4,40,0.00,,,0.00,VWS V14.01,2013-04-08 15:44:00,
2013-04-08 08:45:00,51.6,28.1,29.82,ESE,112,3.6,5.4,40,0.00,,,0.00,VWS V14.01,2013-04-08 15:45:00,
2013-04-08 08:46:00,51.6,28.1,29.82,ENE,68,5.8,6.3,40,0.00,,,0.00,VWS V14.01,2013-04-08 15:46:00,
2013-04-08 08:47:00,51.6,27.5,29.82,SSE,158,3.6,5.8,39,0.00,,,0.00,VWS V14.01,2013-04-08 15:47:00,
2013-04-08 08:48:00,51.6,27.5,29.82,ESE,112,5.4,6.3,39,0.00,,,0.00,VWS V14.01,2013-04-08 15:48:00,
2013-04-08 08:49:00,51.6,27.5,29.82,North,0,6.3,7.6,39,0.00,,,0.00,VWS V14.01,2013-04-08 15:49:00,
2013-04-08 08:50:00,51.8,27.6,29.82,South,180,3.1,7.2,39,0.00,,,0.00,VWS V14.01,2013-04-08 15:50:00,
2013-04-08 08:51:00,51.8,27.6,29.82,SE,135,5.8,5.8,39,0.00,,,0.00,VWS V14.01,2013-04-08 15:51:00,
2013-04-08 08:52:00,51.8,27.6,29.82,SE,135,3.6,7.2,39,0.00,,,0.00,VWS V14.01,2013-04-08 15:52:00,
2013-04-08 08:53:00,51.6,27.5,29.82,ESE,112,5.8,7.6,39,0.00,,,0.00,VWS V14.01,2013-04-08 15:53:00,
2013-04-08 08:54:00,51.6,27.5,29.82,ESE,112,4.0,5.8,39,0.00,,,0.00,VWS V14.01,2013-04-08 15:54:00,
2013-04-08 08:55:00,51.8,27.6,29.82,SE,135,2.7,4.9,39,0.00,,,0.00,VWS V14.01,2013-04-08 15:55:00,
2013-04-08 08:56:00,51.8,27.6,29.82,North,0,3.1,6.3,39,0.00,,,0.00,VWS V14.01,2013-04-08 15:56:00,
2013-04-08 08:57:00,52.0,27.8,29.82,NW,315,2.2,8.1,39,0.00,,,0.00,VWS V14.01,2013-04-08 15:57:00,
2013-04-08 08:58:00,52.0,27.8,29.82,SSE,158,5.8,5.8,39,0.00,,,0.00,VWS V14.01,2013-04-08 15:58:00,
2013-04-08 08:59:00,52.0,27.8,29.82,ESE,112,2.7,8.3,39,0.00,,,0.00,VWS V14.01,2013-04-08 15:59:00,
2013-04-08 09:00:00,52.0,27.8,29.82,NE,45,4.0,4.0,39,0.00,,,0.00,VWS V14.01,2013-04-08 16:00:00,
2013-04-08 09:01:00,52.0,27.8,29.82,SSW,202,3.6,9.6,39,0.00,,,0.00,VWS V14.01,2013-04-08 16:01:00,
2013-04-08 09:02:00,52.2,28.0,29.82,NE,45,3.6,5.4,39,0.00,,,0.00,VWS V14.01,2013-04-08 16:02:00,
2013-04-08 09:03:00,52.2,28.0,29.82,NNE,22,4.9,8.3,39,0.00,,,0.00,VWS V14.01,2013-04-08 16:03:00,
2013-04-08 09:04:00,52.2,28.0,29.82,SSE,158,8.7,8.7,39,0.00,,,0.00,VWS V14.01,2013-04-08 16:04:00,
2013-04-08 09:05:00,52.2,28.0,29.82,ESE,112,6.3,9.6,39,0.00,,,0.00,VWS V14.01,2013-04-08 16:05:00,
2013-04-08 09:06:00,52.2,28.0,29.82,ESE,112,6.3,9.6,39,0.00,,,0.00,VWS V14.01,2013-04-08 16:06:00,
2013-04-08 09:07:00,52.2,28.0,29.82,SSE,158,2.7,6.3,39,0.00,,,0.00,VWS V14.01,2013-04-08 16:07:00,
2013-04-08 09:08:00,52.2,28.0,29.82,SSW,202,3.1,4.9,39,0.00,,,0.00,VWS V14.01,2013-04-08 16:08:00,
2013-04-08 09:09:00,52.0,27.8,29.82,South,180,8.7,8.7,39,0.00,,,0.00,VWS V14.01,2013-04-08 16:09:00,
2013-04-08 09:10:00,52.0,27.8,29.82,ENE,68,3.6,4.5,39,0.00,,,0.00,VWS V14.01,2013-04-08 16:10:00,
2013-04-08 09:11:00,52.0,27.8,29.82,ENE,68,3.6,4.5,39,0.00,,,0.00,VWS V14.01,2013-04-08 16:11:00,
2013-04-08 09:12:00,52.2,28.0,29.82,NNE,22,4.0,8.1,39,0.00,,,0.00,VWS V14.01,2013-04-08 16:12:00,
2013-04-08 09:13:00,52.2,28.0,29.82,SSW,202,5.4,5.4,39,0.00,,,0.00,VWS V14.01,2013-04-08 16:13:00,
2013-04-08 09:14:00,52.2,28.0,29.82,South,180,8.1,8.1,39,0.00,,,0.00,VWS V14.01,2013-04-08 16:14:00,
2013-04-08 09:15:00,52.0,27.8,29.82,SSE,158,4.9,8.1,39,0.00,,,0.00,VWS V14.01,2013-04-08 16:15:00,
2013-04-08 09:16:00,52.0,27.8,29.82,ENE,68,5.4,5.4,39,0.00,,,0.00,VWS V14.01,2013-04-08 16:16:00,
2013-04-08 09:17:00,52.2,28.0,29.82,ENE,68,8.1,8.1,39,0.00,,,0.00,VWS V14.01,2013-04-08 16:17:00,
2013-04-08 09:18:00,52.2,28.0,29.82,SSE,158,6.3,8.1,39,0.00,,,0.00,VWS V14.01,2013-04-08 16:18:00,
2013-04-08 09:19:00,52.2,28.0,29.82,SE,135,7.6,9.6,39,0.00,,,0.00,VWS V14.01,2013-04-08 16:19:00,
2013-04-08 09:20:00,52.2,28.0,29.82,NNE,22,4.9,7.6,39,0.00,,,0.00,VWS V14.01,2013-04-08 16:20:00,
2013-04-08 09:21:00,52.2,28.0,29.82,NNE,22,4.0,4.9,39,0.00,,,0.00,VWS V14.01,2013-04-08 16:21:00,
2013-04-08 09:22:00,52.3,28.1,29.82,SE,135,6.3,6.3,39,0.00,,,0.00,VWS V14.01,2013-04-08 16:22:00,
2013-04-08 09:23:00,52.3,28.1,29.82,ESE,112,2.7,7.6,39,0.00,,,0.00,VWS V14.01,2013-04-08 16:23:00,
2013-04-08 09:24:00,52.3,28.1,29.82,SSE,158,4.5,5.8,39,0.00,,,0.00,VWS V14.01,2013-04-08 16:24:00,
2013-04-08 09:25:00,52.3,27.5,29.82,ENE,68,4.0,6.3,38,0.00,,,0.00,VWS V14.01,2013-04-08 16:25:00,
2013-04-08 09:26:00,52.3,27.5,29.82,NNE,22,4.9,6.3,38,0.00,,,0.00,VWS V14.01,2013-04-08 16:26:00,
2013-04-08 09:27:00,52.5,28.3,29.82,NE,45,4.9,7.2,39,0.00,,,0.00,VWS V14.01,2013-04-08 16:27:00,
2013-04-08 09:28:00,52.5,28.3,29.82,NE,45,4.9,7.2,39,0.00,,,0.00,VWS V14.01,2013-04-08 16:28:00,
2013-04-08 09:29:00,52.5,27.7,29.82,NNW,338,4.0,6.7,38,0.00,,,0.00,VWS V14.01,2013-04-08 16:29:00,
2013-04-08 09:30:00,52.5,27.7,29.82,East,90,2.7,4.9,38,0.00,,,0.00,VWS V14.01,2013-04-08 16:30:00,
2013-04-08 09:31:00,52.7,27.8,29.82,NNE,22,3.6,7.2,38,0.00,,,0.00,VWS V14.01,2013-04-08 16:31:00,
2013-04-08 09:32:00,52.9,28.0,29.82,NNE,22,3.6,5.4,38,0.00,,,0.00,VWS V14.01,2013-04-08 16:32:00,
2013-04-08 09:33:00,52.9,28.0,29.82,NNE,22,3.6,5.4,38,0.00,,,0.00,VWS V14.01,2013-04-08 16:33:00,
2013-04-08 09:34:00,52.9,28.0,29.82,NE,45,4.0,5.8,38,0.00,,,0.00,VWS V14.01,2013-04-08 16:34:00,
2013-04-08 09:35:00,52.9,28.0,29.82,ESE,112,3.6,4.0,38,0.00,,,0.00,VWS V14.01,2013-04-08 16:35:00,
2013-04-08 09:36:00,53.1,28.1,29.82,ESE,112,2.7,6.3,38,0.00,,,0.00,VWS V14.01,2013-04-08 16:36:00,
2013-04-08 09:37:00,53.2,28.3,29.82,SSE,158,4.0,7.6,38,0.00,,,0.00,VWS V14.01,2013-04-08 16:37:00,
2013-04-08 09:38:00,53.2,28.3,29.82,SSE,158,4.0,7.6,38,0.00,,,0.00,VWS V14.01,2013-04-08 16:38:00,
2013-04-08 09:39:00,53.4,28.5,29.82,ESE,112,6.3,8.1,38,0.00,,,0.00,VWS V14.01,2013-04-08 16:39:00,
2013-04-08 09:40:00,54.0,29.0,29.82,ESE,112,7.6,8.1,38,0.00,,,0.00,VWS V14.01,2013-04-08 16:40:00,
2013-04-08 09:41:00,54.0,29.0,29.82,North,0,5.4,7.6,38,0.00,,,0.00,VWS V14.01,2013-04-08 16:41:00,
2013-04-08 09:42:00,54.7,29.6,29.82,WSW,248,5.4,5.4,38,0.00,,,0.00,VWS V14.01,2013-04-08 16:42:00,
2013-04-08 09:43:00,54.7,29.6,29.82,WSW,248,5.4,5.4,38,0.00,,,0.00,VWS V14.01,2013-04-08 16:43:00,
2013-04-08 09:44:00,55.2,30.1,29.82,NNE,22,2.7,5.4,38,0.00,,,0.00,VWS V14.01,2013-04-08 16:44:00,
2013-04-08 09:45:00,55.4,29.6,29.82,SSE,158,8.1,8.1,37,0.00,,,0.00,VWS V14.01,2013-04-08 16:45:00,
2013-04-08 09:46:00,55.4,29.6,29.82,SE,135,5.4,8.1,37,0.00,,,0.00,VWS V14.01,2013-04-08 16:46:00,
2013-04-08 09:47:00,55.6,29.7,29.82,South,180,8.3,8.3,37,0.00,,,0.00,VWS V14.01,2013-04-08 16:47:00,
2013-04-08 09:48:00,55.6,29.7,29.82,SSE,158,4.0,5.4,37,0.00,,,0.00,VWS V14.01,2013-04-08 16:48:00,
2013-04-08 09:49:00,55.8,29.9,29.82,SSW,202,6.3,8.3,37,0.00,,,0.00,VWS V14.01,2013-04-08 16:49:00,
2013-04-08 09:50:00,55.6,29.7,29.82,SSE,158,4.9,7.2,37,0.00,,,0.00,VWS V14.01,2013-04-08 16:50:00,
2013-04-08 09:51:00,55.4,29.6,29.82,SSW,202,3.6,6.3,37,0.00,,,0.00,VWS V14.01,2013-04-08 16:51:00,
2013-04-08 09:52:00,55.2,29.4,29.82,ENE,68,5.8,6.3,37,0.00,,,0.00,VWS V14.01,2013-04-08 16:52:00,
2013-04-08 09:53:00,55.2,29.4,29.82,SSE,158,3.6,3.6,37,0.00,,,0.00,VWS V14.01,2013-04-08 16:53:00,
2013-04-08 09:54:00,55.0,29.3,29.82,NNW,338,8.1,8.1,37,0.00,,,0.00,VWS V14.01,2013-04-08 16:54:00,
2013-04-08 09:55:00,55.0,29.3,29.82,NNW,338,4.9,8.1,37,0.00,,,0.00,VWS V14.01,2013-04-08 16:55:00,
2013-04-08 09:56:00,55.2,29.4,29.82,ENE,68,5.8,5.8,37,0.00,,,0.00,VWS V14.01,2013-04-08 16:56:00,
2013-04-08 09:57:00,55.0,29.3,29.82,East,90,2.7,7.2,37,0.00,,,0.00,VWS V14.01,2013-04-08 16:57:00,
2013-04-08 09:58:00,55.0,29.3,29.82,East,90,2.7,5.8,37,0.00,,,0.00,VWS V14.01,2013-04-08 16:58:00,
2013-04-08 09:59:00,55.0,29.3,29.82,East,90,2.7,5.8,37,0.00,,,0.00,VWS V14.01,2013-04-08 16:59:00,
2013-04-08 10:00:00,55.0,29.3,29.82,WSW,248,3.1,4.5,37,0.00,,,0.00,VWS V14.01,2013-04-08 17:00:00,
2013-04-08 10:01:00,55.0,29.3,29.82,NNE,22,3.6,3.6,37,0.00,,,0.00,VWS V14.01,2013-04-08 17:01:00,
2013-04-08 10:02:00,55.2,29.4,29.82,SSW,202,6.3,6.3,37,0.00,,,0.00,VWS V14.01,2013-04-08 17:02:00,
2013-04-08 10:03:00,55.0,29.3,29.82,SSW,202,4.0,8.3,37,0.00,,,0.00,VWS V14.01,2013-04-08 17:03:00,
2013-04-08 10:04:00,55.0,29.3,29.82,SSW,202,4.0,8.3,37,0.00,,,0.00,VWS V14.01,2013-04-08 17:04:00,
2013-04-08 10:05:00,55.0,28.6,29.82,ESE,112,7.6,7.6,36,0.00,,,0.00,VWS V14.01,2013-04-08 17:05:00,
2013-04-08 10:06:00,55.0,28.6,29.82,ENE,68,5.4,7.6,36,0.00,,,0.00,VWS V14.01,2013-04-08 17:06:00,
2013-04-08 10:07:00,54.9,28.4,29.82,ENE,68,4.0,7.6,36,0.00,,,0.00,VWS V14.01,2013-04-08 17:07:00,
2013-04-08 10:08:00,54.9,28.4,29.82,South,180,6.7,9.6,36,0.00,,,0.00,VWS V14.01,2013-04-08 17:08:00,
2013-04-08 10:09:00,54.9,28.4,29.82,South,180,6.7,9.6,36,0.00,,,0.00,VWS V14.01,2013-04-08 17:09:00,
2013-04-08 10:10:00,54.9,28.4,29.82,ESE,112,5.8,7.6,36,0.00,,,0.00,VWS V14.01,2013-04-08 17:10:00,
2013-04-08 10:11:00,54.9,28.4,29.82,NE,45,5.4,8.3,36,0.00,,,0.00,VWS V14.01,2013-04-08 17:11:00,
2013-04-08 10:12:00,54.9,28.4,29.82,ENE,68,5.8,8.7,36,0.00,,,0.00,VWS V14.01,2013-04-08 17:12:00,
2013-04-08 10:13:00,54.9,28.4,29.82,SE,135,3.6,5.8,36,0.00,,,0.00,VWS V14.01,2013-04-08 17:13:00,
2013-04-08 10:14:00,54.9,28.4,29.82,ESE,112,6.3,6.3,36,0.00,,,0.00,VWS V14.01,2013-04-08 17:14:00,
2013-04-08 10:15:00,54.9,28.4,29.82,ESE,112,6.3,6.3,36,0.00,,,0.00,VWS V14.01,2013-04-08 17:15:00,
2013-04-08 10:16:00,55.0,28.6,29.82,NNE,22,4.9,8.7,36,0.00,,,0.00,VWS V14.01,2013-04-08 17:16:00,
2013-04-08 10:17:00,55.0,28.6,29.82,WNW,292,3.1,5.4,36,0.00,,,0.00,VWS V14.01,2013-04-08 17:17:00,
2013-04-08 10:18:00,55.0,28.6,29.82,ENE,68,4.0,5.4,36,0.00,,,0.00,VWS V14.01,2013-04-08 17:18:00,
2013-04-08 10:19:00,55.0,28.6,29.82,ENE,68,4.0,6.7,36,0.00,,,0.00,VWS V14.01,2013-04-08 17:19:00,
2013-04-08 10:20:00,55.0,28.6,29.82,ENE,68,4.0,6.7,36,0.00,,,0.00,VWS V14.01,2013-04-08 17:20:00,
2013-04-08 10:21:00,55.0,28.6,29.82,SSE,158,4.9,6.3,36,0.00,,,0.00,VWS V14.01,2013-04-08 17:21:00,
2013-04-08 10:22:00,55.0,28.6,29.82,ESE,112,8.3,8.3,36,0.00,,,0.00,VWS V14.01,2013-04-08 17:22:00,
2013-04-08 10:23:00,55.2,28.8,29.82,ESE,112,5.4,9.6,36,0.00,,,0.00,VWS V14.01,2013-04-08 17:23:00,
2013-04-08 10:24:00,55.2,28.8,29.82,SSE,158,6.3,6.3,36,0.00,,,0.00,VWS V14.01,2013-04-08 17:24:00,
2013-04-08 10:25:00,55.2,28.8,29.82,SSE,158,2.7,5.4,36,0.00,,,0.00,VWS V14.01,2013-04-08 17:25:00,
2013-04-08 10:26:00,55.2,28.8,29.82,SSE,158,3.6,6.3,36,0.00,,,0.00,VWS V14.01,2013-04-08 17:26:00,
2013-04-08 10:27:00,55.4,28.9,29.82,SSW,202,4.0,11.9,36,0.00,,,0.00,VWS V14.01,2013-04-08 17:27:00,
2013-04-08 10:28:00,55.4,28.9,29.82,NNW,338,3.1,5.8,36,0.00,,,0.00,VWS V14.01,2013-04-08 17:28:00,
2013-04-08 10:29:00,55.6,29.1,29.82,NNW,338,3.1,3.1,36,0.00,,,0.00,VWS V14.01,2013-04-08 17:29:00,
2013-04-08 10:30:00,55.6,29.1,29.82,NE,45,4.0,8.3,36,0.00,,,0.00,VWS V14.01,2013-04-08 17:30:00,
2013-04-08 10:31:00,55.8,28.5,29.82,SW,225,6.7,8.3,35,0.00,,,0.00,VWS V14.01,2013-04-08 17:31:00,
2013-04-08 10:32:00,55.8,28.5,29.82,SE,135,8.1,8.1,35,0.00,,,0.00,VWS V14.01,2013-04-08 17:32:00,
2013-04-08 10:33:00,55.8,28.5,29.82,SE,135,5.8,8.7,35,0.00,,,0.00,VWS V14.01,2013-04-08 17:33:00,
2013-04-08 10:34:00,55.9,28.0,29.82,NNW,338,3.6,5.8,34,0.00,,,0.00,VWS V14.01,2013-04-08 17:34:00,
2013-04-08 10:35:00,55.9,28.0,29.82,SSE,158,9.6,11.9,34,0.00,,,0.00,VWS V14.01,2013-04-08 17:35:00,
2013-04-08 10:36:00,55.9,28.0,29.82,SSE,158,9.6,11.9,34,0.00,,,0.00,VWS V14.01,2013-04-08 17:36:00,
2013-04-08 10:37:00,56.1,28.2,29.82,ESE,112,5.8,9.6,34,0.00,,,0.00,VWS V14.01,2013-04-08 17:37:00,
2013-04-08 10:38:00,56.3,28.3,29.82,ESE,112,6.3,10.1,34,0.00,,,0.00,VWS V14.01,2013-04-08 17:38:00,
2013-04-08 10:39:00,56.3,28.3,29.82,SE,135,10.5,10.5,34,0.00,,,0.00,VWS V14.01,2013-04-08 17:39:00,
2013-04-08 10:40:00,56.3,27.6,29.82,SSE,158,5.8,10.5,33,0.00,,,0.00,VWS V14.01,2013-04-08 17:40:00,
2013-04-08 10:41:00,56.5,27.8,29.82,ESE,112,3.1,10.5,33,0.00,,,0.00,VWS V14.01,2013-04-08 17:41:00,
2013-04-08 10:42:00,56.5,27.8,29.82,SSE,158,5.4,10.5,33,0.00,,,0.00,VWS V14.01,2013-04-08 17:42:00,
2013-04-08 10:43:00,56.5,27.8,29.82,SE,135,8.1,8.1,33,0.00,,,0.00,VWS V14.01,2013-04-08 17:43:00,
2013-04-08 10:44:00,56.5,27.8,29.82,ESE,112,13.6,13.6,33,0.00,,,0.00,VWS V14.01,2013-04-08 17:44:00,
2013-04-08 10:45:00,56.5,27.8,29.82,SSE,158,8.7,13.6,33,0.00,,,0.00,VWS V14.01,2013-04-08 17:45:00,
2013-04-08 10:46:00,56.7,27.2,29.82,SSE,158,4.0,11.0,32,0.00,,,0.00,VWS V14.01,2013-04-08 17:46:00,
2013-04-08 10:47:00,56.7,27.2,29.82,SSE,158,4.0,11.0,32,0.00,,,0.00,VWS V14.01,2013-04-08 17:47:00,
2013-04-08 10:48:00,56.7,27.2,29.82,ESE,112,6.3,8.7,32,0.00,,,0.00,VWS V14.01,2013-04-08 17:48:00,
2013-04-08 10:49:00,56.7,26.4,29.82,NNE,22,4.9,8.3,31,0.00,,,0.00,VWS V14.01,2013-04-08 17:49:00,
2013-04-08 10:50:00,56.8,26.5,29.82,SSE,158,3.1,6.3,31,0.00,,,0.00,VWS V14.01,2013-04-08 17:50:00,
2013-04-08 10:51:00,56.8,26.5,29.82,East,90,5.4,5.4,31,0.00,,,0.00,VWS V14.01,2013-04-08 17:51:00,
2013-04-08 10:52:00,56.8,26.5,29.82,East,90,3.6,7.6,31,0.00,,,0.00,VWS V14.01,2013-04-08 17:52:00,
2013-04-08 10:53:00,56.8,26.5,29.82,ESE,112,4.0,5.8,31,0.00,,,0.00,VWS V14.01,2013-04-08 17:53:00,
2013-04-08 10:54:00,57.0,26.7,29.82,SSE,158,10.5,10.5,31,0.00,,,0.00,VWS V14.01,2013-04-08 17:54:00,
2013-04-08 10:55:00,57.0,26.7,29.82,SSE,158,3.1,10.5,31,0.00,,,0.00,VWS V14.01,2013-04-08 17:55:00,
2013-04-08 10:56:00,57.0,26.7,29.82,SSW,202,10.1,10.1,31,0.00,,,0.00,VWS V14.01,2013-04-08 17:56:00,
2013-04-08 10:57:00,57.0,26.7,29.82,WSW,248,4.0,5.4,31,0.00,,,0.00,VWS V14.01,2013-04-08 17:57:00,
2013-04-08 10:58:00,57.0,26.7,29.82,South,180,7.6,7.6,31,0.00,,,0.00,VWS V14.01,2013-04-08 17:58:00,
2013-04-08 10:59:00,57.2,26.1,29.82,SSE,158,10.1,12.8,30,0.00,,,0.00,VWS V14.01,2013-04-08 17:59:00,
2013-04-08 11:00:00,57.2,26.1,29.82,SSE,158,12.3,12.3,30,0.00,,,0.00,VWS V14.01,2013-04-08 18:00:00,
2013-04-08 11:01:00,57.2,26.1,29.82,ESE,112,13.2,13.2,30,0.00,,,0.00,VWS V14.01,2013-04-08 18:01:00,
2013-04-08 11:02:00,57.4,26.2,29.82,ESE,112,8.7,8.7,30,0.00,,,0.00,VWS V14.01,2013-04-08 18:02:00,
2013-04-08 11:03:00,57.4,26.2,29.82,ESE,112,8.7,8.7,30,0.00,,,0.00,VWS V14.01,2013-04-08 18:03:00,
2013-04-08 11:04:00,57.4,26.2,29.82,SSE,158,4.0,8.7,30,0.00,,,0.00,VWS V14.01,2013-04-08 18:04:00,
2013-04-08 11:05:00,57.4,26.2,29.82,SSE,158,8.1,8.1,30,0.00,,,0.00,VWS V14.01,2013-04-08 18:05:00,
2013-04-08 11:06:00,57.4,26.2,29.85,South,180,9.6,9.6,30,0.00,,,0.00,VWS V14.01,2013-04-08 18:06:00,
2013-04-08 11:07:00,57.4,26.2,29.85,ESE,112,8.1,8.1,30,0.00,,,0.00,VWS V14.01,2013-04-08 18:07:00,
2013-04-08 11:08:00,57.4,26.2,29.85,SSE,158,5.4,8.3,30,0.00,,,0.00,VWS V14.01,2013-04-08 18:08:00,
2013-04-08 11:09:00,57.4,26.2,29.85,ESE,112,4.0,8.1,30,0.00,,,0.00,VWS V14.01,2013-04-08 18:09:00,
2013-04-08 11:10:00,57.4,26.2,29.85,ENE,68,7.6,10.1,30,0.00,,,0.00,VWS V14.01,2013-04-08 18:10:00,
2013-04-08 11:11:00,57.6,26.4,29.85,ESE,112,4.0,7.6,30,0.00,,,0.00,VWS V14.01,2013-04-08 18:11:00,
2013-04-08 11:12:00,57.6,26.4,29.85,SSW,202,3.6,4.9,30,0.00,,,0.00,VWS V14.01,2013-04-08 18:12:00,
2013-04-08 11:13:00,57.6,26.4,29.85,NNW,338,4.9,6.3,30,0.00,,,0.00,VWS V14.01,2013-04-08 18:13:00,
2013-04-08 11:14:00,57.6,26.4,29.85,SSE,158,5.4,6.3,30,0.00,,,0.00,VWS V14.01,2013-04-08 18:14:00,
2013-04-08 11:15:00,57.6,26.4,29.85,SSE,158,4.9,10.1,30,0.00,,,0.00,VWS V14.01,2013-04-08 18:15:00,
2013-04-08 11:16:00,57.7,26.5,29.85,ESE,112,5.4,5.4,30,0.00,,,0.00,VWS V14.01,2013-04-08 18:16:00,
2013-04-08 11:17:00,57.7,26.5,29.85,SSE,158,8.3,10.5,30,0.00,,,0.00,VWS V14.01,2013-04-08 18:17:00,
2013-04-08 11:18:00,57.7,26.5,29.85,ENE,68,3.1,6.7,30,0.00,,,0.00,VWS V14.01,2013-04-08 18:18:00,
2013-04-08 11:19:00,57.9,26.7,29.85,East,90,3.6,6.7,30,0.00,,,0.00,VWS V14.01,2013-04-08 18:19:00,
2013-04-08 11:20:00,57.9,26.7,29.85,SSE,158,5.4,8.7,30,0.00,,,0.00,VWS V14.01,2013-04-08 18:20:00,
2013-04-08 11:21:00,57.9,26.7,29.85,SSE,158,4.0,5.8,30,0.00,,,0.00,VWS V14.01,2013-04-08 18:21:00,
2013-04-08 11:22:00,57.9,26.7,29.85,WSW,248,3.6,5.4,30,0.00,,,0.00,VWS V14.01,2013-04-08 18:22:00,
2013-04-08 11:23:00,58.5,27.2,29.85,ENE,68,5.8,6.3,30,0.00,,,0.00,VWS V14.01,2013-04-08 18:23:00,
2013-04-08 11:24:00,58.5,27.2,29.85,ENE,68,5.8,6.3,30,0.00,,,0.00,VWS V14.01,2013-04-08 18:24:00,
2013-04-08 11:25:00,58.6,26.5,29.85,NNE,22,5.8,8.1,29,0.00,,,0.00,VWS V14.01,2013-04-08 18:25:00,
2013-04-08 11:26:00,58.8,26.7,29.85,SE,135,7.6,7.6,29,0.00,,,0.00,VWS V14.01,2013-04-08 18:26:00,
2013-04-08 11:27:00,59.2,27.0,29.85,NNE,22,3.1,8.1,29,0.00,,,0.00,VWS V14.01,2013-04-08 18:27:00,
2013-04-08 11:28:00,59.5,27.3,29.85,SE,135,10.1,10.1,29,0.00,,,0.00,VWS V14.01,2013-04-08 18:28:00,
2013-04-08 11:29:00,59.9,27.6,29.85,ESE,112,5.4,8.1,29,0.00,,,0.00,VWS V14.01,2013-04-08 18:29:00,
2013-04-08 11:30:00,59.9,27.6,29.85,NNE,22,5.4,8.1,29,0.00,,,0.00,VWS V14.01,2013-04-08 18:30:00,
2013-04-08 11:31:00,60.1,26.9,29.85,SE,135,2.7,9.6,28,0.00,,,0.00,VWS V14.01,2013-04-08 18:31:00,
2013-04-08 11:32:00,60.3,27.0,29.85,South,180,3.1,3.6,28,0.00,,,0.00,VWS V14.01,2013-04-08 18:32:00,
2013-04-08 11:33:00,61.0,27.7,29.85,SSW,202,4.0,4.5,28,0.00,,,0.00,VWS V14.01,2013-04-08 18:33:00,
2013-04-08 11:34:00,61.2,27.8,29.85,SSW,202,6.3,6.3,28,0.00,,,0.00,VWS V14.01,2013-04-08 18:34:00,
2013-04-08 11:35:00,61.2,27.8,29.85,SSW,202,6.3,6.3,28,0.00,,,0.00,VWS V14.01,2013-04-08 18:35:00,
2013-04-08 11:36:00,61.3,28.0,29.85,SE,135,3.6,6.3,28,0.00,,,0.00,VWS V14.01,2013-04-08 18:36:00,
2013-04-08 11:37:00,61.5,28.1,29.85,NE,45,2.7,3.6,28,0.00,,,0.00,VWS V14.01,2013-04-08 18:37:00,
2013-04-08 11:38:00,61.5,27.2,29.85,SW,225,5.8,6.3,27,0.00,,,0.00,VWS V14.01,2013-04-08 18:38:00,
2013-04-08 11:39:00,61.9,27.6,29.85,SSE,158,6.3,10.1,27,0.00,,,0.00,VWS V14.01,2013-04-08 18:39:00,
2013-04-08 11:40:00,61.9,27.6,29.85,SSE,158,6.3,10.1,27,0.00,,,0.00,VWS V14.01,2013-04-08 18:40:00,
2013-04-08 11:41:00,61.9,27.6,29.85,SSE,158,4.0,6.3,27,0.00,,,0.00,VWS V14.01,2013-04-08 18:41:00,
2013-04-08 11:42:00,61.9,27.6,29.85,SSW,202,2.7,7.6,27,0.00,,,0.00,VWS V14.01,2013-04-08 18:42:00,
2013-04-08 11:43:00,62.2,27.9,29.85,NNE,22,6.7,7.6,27,0.00,,,0.00,VWS V14.01,2013-04-08 18:43:00,
2013-04-08 11:44:00,62.1,27.7,29.85,SSE,158,4.9,6.7,27,0.00,,,0.00,VWS V14.01,2013-04-08 18:44:00,
2013-04-08 11:45:00,61.9,27.6,29.85,SE,135,4.0,10.1,27,0.00,,,0.00,VWS V14.01,2013-04-08 18:45:00,
2013-04-08 11:46:00,61.9,27.6,29.85,SE,135,4.0,10.1,27,0.00,,,0.00,VWS V14.01,2013-04-08 18:46:00,
2013-04-08 11:47:00,61.9,27.6,29.85,ESE,112,6.3,6.3,27,0.00,,,0.00,VWS V14.01,2013-04-08 18:47:00,
2013-04-08 11:48:00,61.9,27.6,29.85,ESE,112,8.3,8.3,27,0.00,,,0.00,VWS V14.01,2013-04-08 18:48:00,
2013-04-08 11:49:00,61.7,27.4,29.85,East,90,3.6,10.5,27,0.00,,,0.00,VWS V14.01,2013-04-08 18:49:00,
2013-04-08 11:50:00,61.3,27.1,29.85,ESE,112,9.6,9.6,27,0.00,,,0.00,VWS V14.01,2013-04-08 18:50:00,
2013-04-08 11:51:00,61.3,27.1,29.85,ESE,112,9.6,9.6,27,0.00,,,0.00,VWS V14.01,2013-04-08 18:51:00,
2013-04-08 11:52:00,61.0,26.8,29.85,ENE,68,4.0,10.5,27,0.00,,,0.00,VWS V14.01,2013-04-08 18:52:00,
2013-04-08 11:53:00,61.7,27.4,29.85,ESE,112,8.3,8.3,27,0.00,,,0.00,VWS V14.01,2013-04-08 18:53:00,
2013-04-08 11:54:00,61.9,27.6,29.85,SSW,202,5.4,8.3,27,0.00,,,0.00,VWS V14.01,2013-04-08 18:54:00,
2013-04-08 11:55:00,62.1,27.7,29.85,SSW,202,7.2,8.1,27,0.00,,,0.00,VWS V14.01,2013-04-08 18:55:00,
2013-04-08 11:56:00,62.1,27.7,29.85,SSE,158,7.6,9.6,27,0.00,,,0.00,VWS V14.01,2013-04-08 18:56:00,
2013-04-08 11:57:00,62.1,27.7,29.85,SSE,158,4.0,8.7,27,0.00,,,0.00,VWS V14.01,2013-04-08 18:57:00,
2013-04-08 11:58:00,62.1,27.7,29.85,NNW,338,7.6,7.6,27,0.00,,,0.00,VWS V14.01,2013-04-08 18:58:00,
2013-04-08 11:59:00,62.2,27.9,29.85,SE,135,2.7,7.6,27,0.00,,,0.00,VWS V14.01,2013-04-08 18:59:00,
2013-04-08 12:00:00,62.6,28.2,29.85,SSE,158,2.7,5.4,27,0.00,,,0.00,VWS V14.01,2013-04-08 19:00:00,
2013-04-08 12:01:00,63.3,27.9,29.85,SW,225,4.0,4.0,26,0.00,,,0.00,VWS V14.01,2013-04-08 19:01:00,
2013-04-08 12:02:00,63.3,27.9,29.85,East,90,4.9,4.9,26,0.00,,,0.00,VWS V14.01,2013-04-08 19:02:00,
2013-04-08 12:03:00,63.3,27.9,29.85,ENE,68,3.6,5.8,26,0.00,,,0.00,VWS V14.01,2013-04-08 19:03:00,
2013-04-08 12:04:00,63.5,28.0,29.85,ENE,68,3.6,3.6,26,0.00,,,0.00,VWS V14.01,2013-04-08 19:04:00,
2013-04-08 12:05:00,63.1,27.7,29.85,SSE,158,7.6,8.1,26,0.00,,,0.00,VWS V14.01,2013-04-08 19:05:00,
2013-04-08 12:06:00,63.1,27.7,29.85,WSW,248,5.4,7.6,26,0.00,,,0.00,VWS V14.01,2013-04-08 19:06:00,
2013-04-08 12:07:00,63.0,27.6,29.85,SSE,158,5.8,6.3,26,0.00,,,0.00,VWS V14.01,2013-04-08 19:07:00,
2013-04-08 12:08:00,63.1,27.7,29.85,SSE,158,4.0,8.1,26,0.00,,,0.00,VWS V14.01,2013-04-08 19:08:00,
2013-04-08 12:09:00,63.1,27.7,29.85,ESE,112,5.8,5.8,26,0.00,,,0.00,VWS V14.01,2013-04-08 19:09:00,
2013-04-08 12:10:00,63.3,27.9,29.85,SSE,158,5.4,5.8,26,0.00,,,0.00,VWS V14.01,2013-04-08 19:10:00,
2013-04-08 12:11:00,63.5,28.0,29.85,SSE,158,6.3,6.3,26,0.00,,,0.00,VWS V14.01,2013-04-08 19:11:00,
2013-04-08 12:12:00,63.7,28.2,29.85,ENE,68,3.6,6.3,26,0.00,,,0.00,VWS V14.01,2013-04-08 19:12:00,
2013-04-08 12:13:00,63.7,28.2,29.85,ESE,112,11.0,11.0,26,0.00,,,0.00,VWS V14.01,2013-04-08 19:13:00,
2013-04-08 12:14:00,63.0,27.6,29.85,South,180,3.6,11.0,26,0.00,,,0.00,VWS V14.01,2013-04-08 19:14:00,
2013-04-08 12:15:00,63.1,27.7,29.85,ESE,112,2.7,5.4,26,0.00,,,0.00,VWS V14.01,2013-04-08 19:15:00,
2013-04-08 12:16:00,63.5,28.0,29.85,SSE,158,4.0,5.4,26,0.00,,,0.00,VWS V14.01,2013-04-08 19:16:00,
2013-04-08 12:17:00,63.9,28.3,29.85,East,90,6.3,6.3,26,0.00,,,0.00,VWS V14.01,2013-04-08 19:17:00,
2013-04-08 12:18:00,63.7,28.2,29.85,ESE,112,3.6,6.3,26,0.00,,,0.00,VWS V14.01,2013-04-08 19:18:00,
2013-04-08 12:19:00,64.0,28.5,29.85,SE,135,4.0,7.2,26,0.00,,,0.00,VWS V14.01,2013-04-08 19:19:00,
2013-04-08 12:20:00,64.0,28.5,29.85,SSE,158,4.9,7.6,26,0.00,,,0.00,VWS V14.01,2013-04-08 19:20:00,
2013-04-08 12:21:00,64.0,28.5,29.85,SSW,202,4.5,8.7,26,0.00,,,0.00,VWS V14.01,2013-04-08 19:21:00,
2013-04-08 12:22:00,63.7,28.2,29.85,NW,315,3.6,7.6,26,0.00,,,0.00,VWS V14.01,2013-04-08 19:22:00,
2013-04-08 12:23:00,63.9,29.3,29.85,ENE,68,4.0,4.0,27,0.00,,,0.00,VWS V14.01,2013-04-08 19:23:00,
2013-04-08 12:24:00,64.2,29.6,29.85,ESE,112,3.6,5.4,27,0.00,,,0.00,VWS V14.01,2013-04-08 19:24:00,
2013-04-08 12:25:00,64.4,28.8,29.85,ENE,68,2.7,4.9,26,0.00,,,0.00,VWS V14.01,2013-04-08 19:25:00,
2013-04-08 12:26:00,64.6,29.0,29.85,SSW,202,4.0,4.0,26,0.00,,,0.00,VWS V14.01,2013-04-08 19:26:00,
2013-04-08 12:27:00,64.4,28.8,29.85,WNW,292,4.9,4.9,26,0.00,,,0.00,VWS V14.01,2013-04-08 19:27:00,
2013-04-08 12:29:00,64.4,28.8,29.85,SSW,202,3.6,4.9,26,0.00,,,0.00,VWS V14.01,2013-04-08 19:29:00,
2013-04-08 12:30:00,64.9,29.3,29.85,NNE,22,2.7,5.8,26,0.00,,,0.00,VWS V14.01,2013-04-08 19:30:00,
2013-04-08 12:31:00,64.8,29.1,29.85,South,180,4.9,4.9,26,0.00,,,0.00,VWS V14.01,2013-04-08 19:31:00,
2013-04-08 12:32:00,64.9,29.3,29.85,ESE,112,8.1,8.1,26,0.00,,,0.00,VWS V14.01,2013-04-08 19:32:00,
2013-04-08 12:33:00,64.4,28.8,29.85,SSE,158,5.8,8.1,26,0.00,,,0.00,VWS V14.01,2013-04-08 19:33:00,
2013-04-08 12:34:00,63.5,29.0,29.85,South,180,9.2,9.2,27,0.00,,,0.00,VWS V14.01,2013-04-08 19:34:00,
2013-04-08 12:35:00,63.5,29.0,29.85,East,90,7.6,10.5,27,0.00,,,0.00,VWS V14.01,2013-04-08 19:35:00,
2013-04-08 12:36:00,63.5,29.0,29.85,ESE,112,4.9,7.6,27,0.00,,,0.00,VWS V14.01,2013-04-08 19:36:00,
2013-04-08 12:37:00,63.5,29.0,29.85,SW,225,4.0,4.9,27,0.00,,,0.00,VWS V14.01,2013-04-08 19:37:00,
2013-04-08 12:38:00,63.7,29.1,29.85,NNE,22,5.8,5.8,27,0.00,,,0.00,VWS V14.01,2013-04-08 19:38:00,
2013-04-08 12:39:00,64.2,29.6,29.85,SSW,202,7.6,7.6,27,0.00,,,0.00,VWS V14.01,2013-04-08 19:39:00,
2013-04-08 12:40:00,64.4,28.8,29.85,SSW,202,8.1,8.1,26,0.00,,,0.00,VWS V14.01,2013-04-08 19:40:00,
2013-04-08 12:41:00,64.2,29.6,29.85,South,180,2.7,8.1,27,0.00,,,0.00,VWS V14.01,2013-04-08 19:41:00,
2013-04-08 12:42:00,64.4,28.8,29.85,SE,135,0.0,4.0,26,0.00,,,0.00,VWS V14.01,2013-04-08 19:42:00,
2013-04-08 12:43:00,64.6,29.0,29.85,NNE,22,4.0,6.3,26,0.00,,,0.00,VWS V14.01,2013-04-08 19:43:00,
2013-04-08 12:44:00,64.6,29.0,29.85,NNE,22,3.6,4.5,26,0.00,,,0.00,VWS V14.01,2013-04-08 19:44:00,
2013-04-08 12:45:00,64.8,29.1,29.85,ENE,68,3.1,4.0,26,0.00,,,0.00,VWS V14.01,2013-04-08 19:45:00,
2013-04-08 12:46:00,64.8,29.1,29.85,ESE,112,8.3,8.3,26,0.00,,,0.00,VWS V14.01,2013-04-08 19:46:00,
2013-04-08 12:47:00,64.6,29.0,29.85,SSE,158,6.3,10.1,26,0.00,,,0.00,VWS V14.01,2013-04-08 19:47:00,
2013-04-08 12:48:00,64.8,29.1,29.85,SSE,158,4.0,6.3,26,0.00,,,0.00,VWS V14.01,2013-04-08 19:48:00,
2013-04-08 12:49:00,64.8,29.1,29.85,ESE,112,5.8,5.8,26,0.00,,,0.00,VWS V14.01,2013-04-08 19:49:00,
2013-04-08 12:51:00,64.6,29.0,29.85,South,180,3.6,5.8,26,0.00,,,0.00,VWS V14.01,2013-04-08 19:51:00,
2013-04-08 12:52:00,64.6,29.0,29.85,ENE,68,3.6,7.2,26,0.00,,,0.00,VWS V14.01,2013-04-08 19:52:00,
2013-04-08 12:53:00,64.8,29.1,29.85,ESE,112,6.3,6.3,26,0.00,,,0.00,VWS V14.01,2013-04-08 19:53:00,
2013-04-08 12:54:00,64.8,29.1,29.85,NNW,338,7.6,8.1,26,0.00,,,0.00,VWS V14.01,2013-04-08 19:54:00,
2013-04-08 12:55:00,64.4,28.8,29.85,NNE,22,4.9,7.6,26,0.00,,,0.00,VWS V14.01,2013-04-08 19:55:00,
2013-04-08 12:56:00,64.4,28.8,29.85,ESE,112,2.7,5.8,26,0.00,,,0.00,VWS V14.01,2013-04-08 19:56:00,
2013-04-08 12:57:00,64.8,29.1,29.85,SSE,158,5.8,7.2,26,0.00,,,0.00,VWS V14.01,2013-04-08 19:57:00,
2013-04-08 12:58:00,64.8,29.1,29.85,SW,225,2.7,4.0,26,0.00,,,0.00,VWS V14.01,2013-04-08 19:58:00,
2013-04-08 12:59:00,64.8,29.1,29.85,ESE,112,3.6,4.0,26,0.00,,,0.00,VWS V14.01,2013-04-08 19:59:00,
2013-04-08 13:00:00,64.9,29.3,29.85,NE,45,2.7,8.3,26,0.00,,,0.00,VWS V14.01,2013-04-08 20:00:00,
2013-04-08 13:01:00,64.8,29.1,29.85,WSW,248,4.5,4.5,26,0.00,,,0.00,VWS V14.01,2013-04-08 20:01:00,
2013-04-08 13:02:00,64.9,29.3,29.85,ESE,112,3.1,4.5,26,0.00,,,0.00,VWS V14.01,2013-04-08 20:02:00,
2013-04-08 13:03:00,64.9,29.3,29.85,ENE,68,5.4,6.3,26,0.00,,,0.00,VWS V14.01,2013-04-08 20:03:00,
2013-04-08 13:04:00,64.8,29.1,29.85,NNW,338,2.7,6.3,26,0.00,,,0.00,VWS V14.01,2013-04-08 20:04:00,
2013-04-08 13:05:00,65.1,29.4,29.85,NNE,22,0.0,4.0,26,0.00,,,0.00,VWS V14.01,2013-04-08 20:05:00,
2013-04-08 13:06:00,65.7,29.9,29.85,ESE,112,4.0,4.0,26,0.00,,,0.00,VWS V14.01,2013-04-08 20:06:00,
2013-04-08 13:07:00,65.7,29.9,29.85,South,180,2.7,4.5,26,0.00,,,0.00,VWS V14.01,2013-04-08 20:07:00,
2013-04-08 13:08:00,65.7,30.8,29.85,ESE,112,5.8,7.6,27,0.00,,,0.00,VWS V14.01,2013-04-08 20:08:00,
2013-04-08 13:09:00,65.7,30.8,29.85,NNW,338,4.9,5.8,27,0.00,,,0.00,VWS V14.01,2013-04-08 20:09:00,
2013-04-08 13:10:00,65.7,30.8,29.85,SW,225,5.4,6.7,27,0.00,,,0.00,VWS V14.01,2013-04-08 20:10:00,
2013-04-08 13:11:00,65.7,30.8,29.85,SE,135,5.8,7.2,27,0.00,,,0.00,VWS V14.01,2013-04-08 20:11:00,
2013-04-08 13:12:00,65.7,29.9,29.85,ESE,112,5.8,5.8,26,0.00,,,0.00,VWS V14.01,2013-04-08 20:12:00,
2013-04-08 13:13:00,65.8,30.0,29.85,ENE,68,3.1,5.8,26,0.00,,,0.00,VWS V14.01,2013-04-08 20:13:00,
2013-04-08 13:14:00,65.7,29.9,29.85,ESE,112,3.6,3.6,26,0.00,,,0.00,VWS V14.01,2013-04-08 20:14:00,
2013-04-08 13:15:00,66.0,30.2,29.85,ESE,112,3.6,3.6,26,0.00,,,0.00,VWS V14.01,2013-04-08 20:15:00,
2013-04-08 13:16:00,66.0,30.2,29.85,NNE,22,5.4,5.4,26,0.00,,,0.00,VWS V14.01,2013-04-08 20:16:00,
2013-04-08 13:17:00,65.7,29.9,29.85,NE,45,6.3,6.3,26,0.00,,,0.00,VWS V14.01,2013-04-08 20:17:00,
2013-04-08 13:18:00,65.7,29.9,29.85,SSW,202,3.1,6.3,26,0.00,,,0.00,VWS V14.01,2013-04-08 20:18:00,
2013-04-08 13:19:00,65.7,29.9,29.85,ESE,112,4.0,4.0,26,0.00,,,0.00,VWS V14.01,2013-04-08 20:19:00,
2013-04-08 13:20:00,65.5,29.7,29.85,ENE,68,3.6,5.4,26,0.00,,,0.00,VWS V14.01,2013-04-08 20:20:00,
2013-04-08 13:21:00,65.5,29.7,29.85,NNE,22,3.6,5.4,26,0.00,,,0.00,VWS V14.01,2013-04-08 20:21:00,
2013-04-08 13:22:00,65.3,29.6,29.85,NW,315,2.2,3.6,26,0.00,,,0.00,VWS V14.01,2013-04-08 20:22:00,
2013-04-08 13:23:00,65.3,29.6,29.85,SSW,202,3.1,3.6,26,0.00,,,0.00,VWS V14.01,2013-04-08 20:23:00,
2013-04-08 13:24:00,66.2,30.3,29.85,WNW,292,3.6,4.0,26,0.00,,,0.00,VWS V14.01,2013-04-08 20:24:00,
2013-04-08 13:25:00,66.2,30.3,29.85,SSW,202,4.9,7.2,26,0.00,,,0.00,VWS V14.01,2013-04-08 20:25:00,
2013-04-08 13:26:00,66.6,30.6,29.85,SSE,158,5.8,6.7,26,0.00,,,0.00,VWS V14.01,2013-04-08 20:26:00,
2013-04-08 13:27:00,65.5,29.7,29.85,SSW,202,3.1,7.6,26,0.00,,,0.00,VWS V14.01,2013-04-08 20:27:00,
2013-04-08 13:28:00,65.8,30.0,29.85,NNW,338,5.4,5.4,26,0.00,,,0.00,VWS V14.01,2013-04-08 20:28:00,
2013-04-08 13:29:00,66.0,30.2,29.85,ENE,68,3.1,5.4,26,0.00,,,0.00,VWS V14.01,2013-04-08 20:29:00,
2013-04-08 13:30:00,66.4,30.5,29.85,East,90,3.1,3.6,26,0.00,,,0.00,VWS V14.01,2013-04-08 20:30:00,
2013-04-08 13:31:00,66.4,30.5,29.85,ENE,68,3.6,5.4,26,0.00,,,0.00,VWS V14.01,2013-04-08 20:31:00,
2013-04-08 13:32:00,66.6,30.6,29.85,North,0,3.1,4.0,26,0.00,,,0.00,VWS V14.01,2013-04-08 20:32:00,
2013-04-08 13:33:00,66.7,30.8,29.85,SW,225,6.3,6.3,26,0.00,,,0.00,VWS V14.01,2013-04-08 20:33:00,
2013-04-08 13:34:00,66.9,31.0,29.85,West,270,2.7,6.3,26,0.00,,,0.00,VWS V14.01,2013-04-08 20:34:00,
2013-04-08 13:35:00,67.1,31.1,29.85,South,180,3.1,5.4,26,0.00,,,0.00,VWS V14.01,2013-04-08 20:35:00,
2013-04-08 13:36:00,67.1,31.1,29.85,East,90,5.4,5.4,26,0.00,,,0.00,VWS V14.01,2013-04-08 20:36:00,
2013-04-08 13:37:00,67.1,31.1,29.85,SE,135,4.5,5.4,26,0.00,,,0.00,VWS V14.01,2013-04-08 20:37:00,
2013-04-08 13:38:00,66.9,31.0,29.85,SSE,158,4.0,5.4,26,0.00,,,0.00,VWS V14.01,2013-04-08 20:38:00,
2013-04-08 13:39:00,66.9,31.0,29.85,ESE,112,5.4,5.4,26,0.00,,,0.00,VWS V14.01,2013-04-08 20:39:00,
2013-04-08 13:40:00,66.9,31.0,29.85,ESE,112,5.4,5.4,26,0.00,,,0.00,VWS V14.01,2013-04-08 20:40:00,
2013-04-08 13:41:00,66.7,30.8,29.85,East,90,6.3,8.7,26,0.00,,,0.00,VWS V14.01,2013-04-08 20:41:00,
2013-04-08 13:42:00,66.7,30.8,29.85,SSW,202,4.9,6.3,26,0.00,,,0.00,VWS V14.01,2013-04-08 20:42:00,
2013-04-08 13:43:00,66.9,31.0,29.85,SSW,202,8.1,8.1,26,0.00,,,0.00,VWS V14.01,2013-04-08 20:43:00,
2013-04-08 13:44:00,66.7,30.8,29.85,ESE,112,3.1,8.1,26,0.00,,,0.00,VWS V14.01,2013-04-08 20:44:00,
2013-04-08 13:45:00,66.6,30.6,29.85,SSW,202,6.7,7.2,26,0.00,,,0.00,VWS V14.01,2013-04-08 20:45:00,
2013-04-08 13:46:00,66.7,30.8,29.85,ESE,112,2.7,4.9,26,0.00,,,0.00,VWS V14.01,2013-04-08 20:46:00,
2013-04-08 13:47:00,66.7,30.8,29.85,North,0,3.6,4.9,26,0.00,,,0.00,VWS V14.01,2013-04-08 20:47:00,
2013-04-08 13:48:00,66.7,30.8,29.85,NNW,338,4.5,5.4,26,0.00,,,0.00,VWS V14.01,2013-04-08 20:48:00,
2013-04-08 13:49:00,67.1,31.1,29.85,ESE,112,3.6,4.5,26,0.00,,,0.00,VWS V14.01,2013-04-08 20:49:00,
2013-04-08 13:50:00,67.3,31.2,29.85,SE,135,3.1,4.9,26,0.00,,,0.00,VWS V14.01,2013-04-08 20:50:00,
2013-04-08 13:51:00,67.3,31.2,29.85,ENE,68,3.6,3.6,26,0.00,,,0.00,VWS V14.01,2013-04-08 20:51:00,
2013-04-08 13:52:00,67.3,31.2,29.85,ENE,68,3.6,3.6,26,0.00,,,0.00,VWS V14.01,2013-04-08 20:52:00,
2013-04-08 13:53:00,67.6,31.6,29.85,SE,135,2.7,3.6,26,0.00,,,0.00,VWS V14.01,2013-04-08 20:53:00,
2013-04-08 13:54:00,67.8,31.7,29.85,South,180,3.6,4.9,26,0.00,,,0.00,VWS V14.01,2013-04-08 20:54:00,
2013-04-08 13:55:00,68.0,30.9,29.85,NNE,22,2.7,5.4,25,0.00,,,0.00,VWS V14.01,2013-04-08 20:55:00,
2013-04-08 13:56:00,68.0,30.9,29.85,East,90,3.1,5.4,25,0.00,,,0.00,VWS V14.01,2013-04-08 20:56:00,
2013-04-08 13:57:00,67.8,30.7,29.85,ESE,112,4.9,4.9,25,0.00,,,0.00,VWS V14.01,2013-04-08 20:57:00,
2013-04-08 13:58:00,68.2,31.0,29.85,SSE,158,8.3,8.3,25,0.00,,,0.00,VWS V14.01,2013-04-08 20:58:00,
2013-04-08 13:59:00,68.0,30.9,29.85,East,90,5.8,8.3,25,0.00,,,0.00,VWS V14.01,2013-04-08 20:59:00,
2013-04-08 14:00:00,68.0,30.9,29.85,SSE,158,5.8,5.8,25,0.00,,,0.00,VWS V14.01,2013-04-08 21:00:00,
2013-04-08 14:01:00,67.8,31.7,29.85,ESE,112,4.0,5.8,26,0.00,,,0.00,VWS V14.01,2013-04-08 21:01:00,
2013-04-08 14:02:00,67.8,31.7,29.85,East,90,3.1,3.1,26,0.00,,,0.00,VWS V14.01,2013-04-08 21:02:00,
2013-04-08 14:03:00,67.8,31.7,29.85,SE,135,3.1,5.4,26,0.00,,,0.00,VWS V14.01,2013-04-08 21:03:00,
2013-04-08 14:04:00,68.0,30.9,29.85,WSW,248,3.1,5.8,25,0.00,,,0.00,VWS V14.01,2013-04-08 21:04:00,
2013-04-08 14:05:00,67.8,31.7,29.85,WSW,248,4.0,6.3,26,0.00,,,0.00,VWS V14.01,2013-04-08 21:05:00,
2013-04-08 14:06:00,68.2,31.0,29.85,SE,135,4.9,4.9,25,0.00,,,0.00,VWS V14.01,2013-04-08 21:06:00,
2013-04-08 14:07:00,68.5,31.4,29.85,SSE,158,4.9,4.9,25,0.00,,,0.00,VWS V14.01,2013-04-08 21:07:00,
2013-04-08 14:08:00,68.5,31.4,29.85,ESE,112,3.1,4.9,25,0.00,,,0.00,VWS V14.01,2013-04-08 21:08:00,
2013-04-08 14:09:00,68.7,31.5,29.85,NNE,22,3.1,4.9,25,0.00,,,0.00,VWS V14.01,2013-04-08 21:09:00,
2013-04-08 14:10:00,68.7,31.5,29.85,ESE,112,4.9,4.9,25,0.00,,,0.00,VWS V14.01,2013-04-08 21:10:00,
2013-04-08 14:11:00,68.5,31.4,29.85,SSW,202,4.5,4.9,25,0.00,,,0.00,VWS V14.01,2013-04-08 21:11:00,
2013-04-08 14:12:00,68.7,31.5,29.85,ENE,68,4.9,6.3,25,0.00,,,0.00,VWS V14.01,2013-04-08 21:12:00,
2013-04-08 14:13:00,68.7,31.5,29.85,ENE,68,4.9,6.3,25,0.00,,,0.00,VWS V14.01,2013-04-08 21:13:00,
2013-04-08 14:14:00,68.2,31.0,29.85,ENE,68,4.0,4.9,25,0.00,,,0.00,VWS V14.01,2013-04-08 21:14:00,
2013-04-08 14:15:00,68.9,31.7,29.85,ENE,68,3.6,4.0,25,0.00,,,0.00,VWS V14.01,2013-04-08 21:15:00,
2013-04-08 14:16:00,68.9,31.7,29.85,NE,45,5.8,5.8,25,0.00,,,0.00,VWS V14.01,2013-04-08 21:16:00,
2013-04-08 14:17:00,68.4,31.2,29.85,ESE,112,5.4,7.6,25,0.00,,,0.00,VWS V14.01,2013-04-08 21:17:00,
2013-04-08 14:18:00,68.4,31.2,29.85,ESE,112,5.4,7.6,25,0.00,,,0.00,VWS V14.01,2013-04-08 21:18:00,
2013-04-08 14:19:00,68.0,30.9,29.85,ENE,68,4.5,6.7,25,0.00,,,0.00,VWS V14.01,2013-04-08 21:19:00,
2013-04-08 14:20:00,68.0,30.9,29.85,ESE,112,5.8,5.8,25,0.00,,,0.00,VWS V14.01,2013-04-08 21:20:00,
2013-04-08 14:21:00,67.8,30.7,29.85,SE,135,4.0,6.3,25,0.00,,,0.00,VWS V14.01,2013-04-08 21:21:00,
2013-04-08 14:22:00,68.2,31.0,29.85,SSE,158,7.2,7.2,25,0.00,,,0.00,VWS V14.01,2013-04-08 21:22:00,
2013-04-08 14:23:00,68.7,31.5,29.85,ENE,68,2.7,3.6,25,0.00,,,0.00,VWS V14.01,2013-04-08 21:23:00,
2013-04-08 14:24:00,68.7,31.5,29.85,ENE,68,2.7,3.6,25,0.00,,,0.00,VWS V14.01,2013-04-08 21:24:00,
2013-04-08 14:25:00,68.7,31.5,29.85,NE,45,3.1,6.3,25,0.00,,,0.00,VWS V14.01,2013-04-08 21:25:00,
2013-04-08 14:26:00,69.1,31.8,29.85,SSE,158,3.1,3.6,25,0.00,,,0.00,VWS V14.01,2013-04-08 21:26:00,
2013-04-08 14:27:00,69.1,31.8,29.85,ENE,68,3.6,4.9,25,0.00,,,0.00,VWS V14.01,2013-04-08 21:27:00,
2013-04-08 14:28:00,69.3,32.9,29.85,SSE,158,3.1,7.6,26,0.00,,,0.00,VWS V14.01,2013-04-08 21:28:00,
2013-04-08 14:29:00,69.3,32.9,29.85,SSE,158,3.1,7.6,26,0.00,,,0.00,VWS V14.01,2013-04-08 21:29:00,
2013-04-08 14:30:00,69.1,32.8,29.85,SSE,158,2.7,3.1,26,0.00,,,0.00,VWS V14.01,2013-04-08 21:30:00,
2013-04-08 14:31:00,68.9,32.6,29.85,SSW,202,3.1,3.1,26,0.00,,,0.00,VWS V14.01,2013-04-08 21:31:00,
2013-04-08 14:32:00,68.9,32.6,29.85,SSW,202,2.2,3.6,26,0.00,,,0.00,VWS V14.01,2013-04-08 21:32:00,
2013-04-08 14:33:00,68.5,32.3,29.85,ENE,68,5.4,5.4,26,0.00,,,0.00,VWS V14.01,2013-04-08 21:33:00,
2013-04-08 14:34:00,68.9,32.6,29.85,NNE,22,3.1,3.6,26,0.00,,,0.00,VWS V14.01,2013-04-08 21:34:00,
2013-04-08 14:35:00,68.9,32.6,29.85,NNE,22,2.7,3.6,26,0.00,,,0.00,VWS V14.01,2013-04-08 21:35:00,
2013-04-08 14:36:00,69.1,32.8,29.85,ESE,112,0.0,4.0,26,0.00,,,0.00,VWS V14.01,2013-04-08 21:36:00,
2013-04-08 14:37:00,69.3,33.9,29.85,SSE,158,2.2,2.7,27,0.00,,,0.00,VWS V14.01,2013-04-08 21:37:00,
2013-04-08 14:38:00,68.9,33.6,29.85,ESE,112,2.7,3.6,27,0.00,,,0.00,VWS V14.01,2013-04-08 21:38:00,
2013-04-08 14:39:00,69.4,34.0,29.85,SSE,158,3.1,3.1,27,0.00,,,0.00,VWS V14.01,2013-04-08 21:39:00,
2013-04-08 14:40:00,69.4,34.0,29.85,South,180,3.6,3.6,27,0.00,,,0.00,VWS V14.01,2013-04-08 21:40:00,
2013-04-08 14:41:00,69.3,33.9,29.85,SSE,158,6.3,6.3,27,0.00,,,0.00,VWS V14.01,2013-04-08 21:41:00,
2013-04-08 14:42:00,69.1,33.7,29.85,North,0,2.7,6.3,27,0.00,,,0.00,VWS V14.01,2013-04-08 21:42:00,
2013-04-08 14:43:00,68.9,33.6,29.85,East,90,4.0,4.0,27,0.00,,,0.00,VWS V14.01,2013-04-08 21:43:00,
2013-04-08 14:44:00,68.9,33.6,29.85,SSW,202,2.7,4.0,27,0.00,,,0.00,VWS V14.01,2013-04-08 21:44:00,
2013-04-08 14:45:00,68.9,33.6,29.85,SSW,202,2.7,4.0,27,0.00,,,0.00,VWS V14.01,2013-04-08 21:45:00,
2013-04-08 14:46:00,68.7,33.4,29.85,NNW,338,3.1,7.6,27,0.00,,,0.00,VWS V14.01,2013-04-08 21:46:00,
2013-04-08 14:47:00,68.5,33.3,29.85,ESE,112,4.0,4.0,27,0.00,,,0.00,VWS V14.01,2013-04-08 21:47:00,
2013-04-08 14:48:00,68.0,32.8,29.85,NW,315,0.0,4.0,27,0.00,,,0.00,VWS V14.01,2013-04-08 21:48:00,
2013-04-08 14:49:00,67.8,33.5,29.85,SSW,202,4.0,4.0,28,0.00,,,0.00,VWS V14.01,2013-04-08 21:49:00,
2013-04-08 14:50:00,67.8,33.5,29.85,SSW,202,5.4,5.4,28,0.00,,,0.00,VWS V14.01,2013-04-08 21:50:00,
2013-04-08 14:51:00,68.2,33.9,29.85,West,270,2.7,7.2,28,0.00,,,0.00,VWS V14.01,2013-04-08 21:51:00,
2013-04-08 14:52:00,67.8,33.5,29.85,SSE,158,3.1,3.1,28,0.00,,,0.00,VWS V14.01,2013-04-08 21:52:00,
2013-04-08 14:53:00,67.8,33.5,29.85,SSE,158,3.1,3.1,28,0.00,,,0.00,VWS V14.01,2013-04-08 21:53:00,
2013-04-08 14:54:00,67.5,33.2,29.85,East,90,4.0,6.3,28,0.00,,,0.00,VWS V14.01,2013-04-08 21:54:00,
2013-04-08 14:55:00,67.1,32.9,29.85,SSW,202,2.7,3.6,28,0.00,,,0.00,VWS V14.01,2013-04-08 21:55:00,
2013-04-08 14:56:00,67.1,32.9,29.85,SSW,202,2.2,3.6,28,0.00,,,0.00,VWS V14.01,2013-04-08 21:56:00,
2013-04-08 14:57:00,67.1,32.9,29.85,ENE,68,2.7,3.6,28,0.00,,,0.00,VWS V14.01,2013-04-08 21:57:00,
2013-04-08 14:58:00,67.1,32.9,29.85,ESE,112,2.2,3.6,28,0.00,,,0.00,VWS V14.01,2013-04-08 21:58:00,
2013-04-08 14:59:00,66.9,32.8,29.85,SSW,202,4.0,4.0,28,0.00,,,0.00,VWS V14.01,2013-04-08 21:59:00,
2013-04-08 15:00:00,66.9,32.8,29.85,ESE,112,2.2,5.8,28,0.00,,,0.00,VWS V14.01,2013-04-08 22:00:00,
2013-04-08 15:01:00,66.9,32.8,29.85,ESE,112,2.2,5.8,28,0.00,,,0.00,VWS V14.01,2013-04-08 22:01:00,
2013-04-08 15:02:00,66.2,33.0,29.85,SSE,158,2.2,4.0,29,0.00,,,0.00,VWS V14.01,2013-04-08 22:02:00,
2013-04-08 15:04:00,66.0,32.9,29.85,ENE,68,3.1,3.1,29,0.00,,,0.00,VWS V14.01,2013-04-08 22:04:00,
2013-04-08 15:05:00,65.8,32.7,29.85,ENE,68,3.6,6.7,29,0.00,,,0.00,VWS V14.01,2013-04-08 22:05:00,
2013-04-08 15:06:00,65.8,32.7,29.85,ENE,68,3.6,6.7,29,0.00,,,0.00,VWS V14.01,2013-04-08 22:06:00,
2013-04-08 15:07:00,65.3,32.3,29.85,NNE,22,3.6,3.6,29,0.00,,,0.00,VWS V14.01,2013-04-08 22:07:00,
2013-04-08 15:08:00,65.5,32.4,29.85,SW,225,4.0,4.9,29,0.00,,,0.00,VWS V14.01,2013-04-08 22:08:00,
2013-04-08 15:09:00,65.5,32.4,29.85,North,0,2.2,4.0,29,0.00,,,0.00,VWS V14.01,2013-04-08 22:09:00,
2013-04-08 15:10:00,66.0,33.7,29.85,SE,135,3.1,4.0,30,0.00,,,0.00,VWS V14.01,2013-04-08 22:10:00,
2013-04-08 15:11:00,65.8,33.6,29.85,NE,45,5.4,5.4,30,0.00,,,0.00,VWS V14.01,2013-04-08 22:11:00,
2013-04-08 15:12:00,65.8,33.6,29.85,NE,45,5.4,5.4,30,0.00,,,0.00,VWS V14.01,2013-04-08 22:12:00,
2013-04-08 15:13:00,66.0,33.7,29.85,WNW,292,0.0,5.4,30,0.00,,,0.00,VWS V14.01,2013-04-08 22:13:00,
2013-04-08 15:14:00,66.4,34.0,29.85,SSE,158,6.3,6.3,30,0.00,,,0.00,VWS V14.01,2013-04-08 22:14:00,
2013-04-08 15:15:00,66.4,34.0,29.85,NE,45,5.4,6.3,30,0.00,,,0.00,VWS V14.01,2013-04-08 22:15:00,
2013-04-08 15:16:00,66.4,34.0,29.85,NE,45,2.7,4.9,30,0.00,,,0.00,VWS V14.01,2013-04-08 22:16:00,
2013-04-08 15:17:00,66.4,34.0,29.85,NE,45,2.7,4.9,30,0.00,,,0.00,VWS V14.01,2013-04-08 22:17:00,
2013-04-08 15:18:00,66.6,34.2,29.85,NW,315,2.7,2.7,30,0.00,,,0.00,VWS V14.01,2013-04-08 22:18:00,
2013-04-08 15:19:00,66.6,34.2,29.85,SE,135,2.7,2.7,30,0.00,,,0.00,VWS V14.01,2013-04-08 22:19:00,
2013-04-08 15:20:00,67.1,34.7,29.85,WSW,248,2.7,2.7,30,0.00,,,0.00,VWS V14.01,2013-04-08 22:20:00,
2013-04-08 15:21:00,67.8,35.3,29.85,South,180,3.6,3.6,30,0.00,,,0.00,VWS V14.01,2013-04-08 22:21:00,
2013-04-08 15:22:00,67.8,35.3,29.85,South,180,3.6,3.6,30,0.00,,,0.00,VWS V14.01,2013-04-08 22:22:00,
2013-04-08 15:23:00,68.0,34.6,29.85,East,90,2.2,4.0,29,0.00,,,0.00,VWS V14.01,2013-04-08 22:23:00,
2013-04-08 15:24:00,68.2,34.7,29.85,SSW,202,8.3,8.3,29,0.00,,,0.00,VWS V14.01,2013-04-08 22:24:00,
2013-04-08 15:25:00,68.0,34.6,29.85,SSE,158,3.6,8.3,29,0.00,,,0.00,VWS V14.01,2013-04-08 22:25:00,
2013-04-08 15:26:00,67.5,34.1,29.85,ESE,112,2.2,6.3,29,0.00,,,0.00,VWS V14.01,2013-04-08 22:26:00,
2013-04-08 15:28:00,67.5,34.1,29.85,NE,45,4.0,6.3,29,0.00,,,0.00,VWS V14.01,2013-04-08 22:28:00,
2013-04-08 15:29:00,67.5,34.1,29.85,ESE,112,2.7,4.0,29,0.00,,,0.00,VWS V14.01,2013-04-08 22:29:00,
2013-04-08 15:30:00,67.5,34.1,29.85,SSW,202,6.7,6.7,29,0.00,,,0.00,VWS V14.01,2013-04-08 22:30:00,
2013-04-08 15:31:00,67.3,34.0,29.85,SSW,202,5.8,8.1,29,0.00,,,0.00,VWS V14.01,2013-04-08 22:31:00,
2013-04-08 15:32:00,67.1,34.7,29.85,SSW,202,3.6,3.6,30,0.00,,,0.00,VWS V14.01,2013-04-08 22:32:00,
2013-04-08 15:33:00,67.1,34.7,29.85,SSW,202,4.0,4.0,30,0.00,,,0.00,VWS V14.01,2013-04-08 22:33:00,
2013-04-08 15:34:00,67.5,35.0,29.85,South,180,7.6,7.6,30,0.00,,,0.00,VWS V14.01,2013-04-08 22:34:00,
2013-04-08 15:35:00,67.5,35.0,29.85,WNW,292,2.7,7.6,30,0.00,,,0.00,VWS V14.01,2013-04-08 22:35:00,
2013-04-08 15:36:00,67.5,35.0,29.85,NNE,22,4.0,4.0,30,0.00,,,0.00,VWS V14.01,2013-04-08 22:36:00,
2013-04-08 15:37:00,67.1,34.7,29.85,SE,135,4.9,4.9,30,0.00,,,0.00,VWS V14.01,2013-04-08 22:37:00,
2013-04-08 15:38:00,67.1,34.7,29.85,SE,135,4.9,4.9,30,0.00,,,0.00,VWS V14.01,2013-04-08 22:38:00,
2013-04-08 15:39:00,66.9,34.5,29.85,SE,135,4.0,6.3,30,0.00,,,0.00,VWS V14.01,2013-04-08 22:39:00,
2013-04-08 15:40:00,66.9,34.5,29.85,ESE,112,3.6,5.4,30,0.00,,,0.00,VWS V14.01,2013-04-08 22:40:00,
2013-04-08 15:41:00,67.3,34.8,29.85,SE,135,4.9,4.9,30,0.00,,,0.00,VWS V14.01,2013-04-08 22:41:00,
2013-04-08 15:42:00,67.5,35.0,29.85,SSW,202,7.2,7.2,30,0.00,,,0.00,VWS V14.01,2013-04-08 22:42:00,
2013-04-08 15:43:00,67.5,35.0,29.85,ENE,68,3.6,4.9,30,0.00,,,0.00,VWS V14.01,2013-04-08 22:43:00,
2013-04-08 15:44:00,66.7,34.3,29.85,NNE,22,3.1,7.6,30,0.00,,,0.00,VWS V14.01,2013-04-08 22:44:00,
2013-04-08 15:45:00,66.7,34.3,29.85,NNE,22,3.1,3.1,30,0.00,,,0.00,VWS V14.01,2013-04-08 22:45:00,
2013-04-08 15:46:00,66.9,34.5,29.85,ESE,112,3.6,3.6,30,0.00,,,0.00,VWS V14.01,2013-04-08 22:46:00,
2013-04-08 15:47:00,67.5,35.0,29.85,ENE,68,4.9,4.9,30,0.00,,,0.00,VWS V14.01,2013-04-08 22:47:00,
2013-04-08 15:48:00,67.3,34.8,29.85,ESE,112,2.7,4.0,30,0.00,,,0.00,VWS V14.01,2013-04-08 22:48:00,
2013-04-08 15:49:00,67.3,34.8,29.85,ESE,112,2.7,4.9,30,0.00,,,0.00,VWS V14.01,2013-04-08 22:49:00,
2013-04-08 15:50:00,67.3,34.8,29.85,NNE,22,4.5,4.5,30,0.00,,,0.00,VWS V14.01,2013-04-08 22:50:00,
2013-04-08 15:51:00,67.5,35.0,29.85,SE,135,4.9,4.9,30,0.00,,,0.00,VWS V14.01,2013-04-08 22:51:00,
2013-04-08 15:52:00,67.5,35.0,29.85,SSW,202,4.9,4.9,30,0.00,,,0.00,VWS V14.01,2013-04-08 22:52:00,
2013-04-08 15:53:00,66.6,34.2,29.85,SSE,158,4.9,10.1,30,0.00,,,0.00,VWS V14.01,2013-04-08 22:53:00,
2013-04-08 15:54:00,66.6,34.2,29.85,SSE,158,8.1,10.1,30,0.00,,,0.00,VWS V14.01,2013-04-08 22:54:00,
2013-04-08 15:55:00,66.4,34.0,29.85,South,180,3.1,8.1,30,0.00,,,0.00,VWS V14.01,2013-04-08 22:55:00,
2013-04-08 15:56:00,66.6,34.2,29.85,SSE,158,8.7,8.7,30,0.00,,,0.00,VWS V14.01,2013-04-08 22:56:00,
2013-04-08 15:57:00,66.4,34.9,29.85,ENE,68,8.3,8.7,31,0.00,,,0.00,VWS V14.01,2013-04-08 22:57:00,
2013-04-08 15:58:00,66.7,35.2,29.85,SSE,158,4.0,5.4,31,0.00,,,0.00,VWS V14.01,2013-04-08 22:58:00,
2013-04-08 15:59:00,66.7,35.2,29.85,SSE,158,4.0,5.4,31,0.00,,,0.00,VWS V14.01,2013-04-08 22:59:00,
2013-04-08 16:00:00,66.6,34.2,29.85,SSE,158,2.7,6.7,30,0.00,,,0.00,VWS V14.01,2013-04-08 23:00:00,
2013-04-08 16:01:00,66.6,35.0,29.85,ENE,68,3.6,5.4,31,0.00,,,0.00,VWS V14.01,2013-04-08 23:01:00,
2013-04-08 16:02:00,66.0,34.5,29.85,NNE,22,4.0,5.4,31,0.00,,,0.00,VWS V14.01,2013-04-08 23:02:00,
2013-04-08 16:03:00,66.2,34.7,29.85,ESE,112,7.2,7.2,31,0.00,,,0.00,VWS V14.01,2013-04-08 23:03:00,
2013-04-08 16:04:00,66.4,34.9,29.85,NNW,338,3.1,4.9,31,0.00,,,0.00,VWS V14.01,2013-04-08 23:04:00,
2013-04-08 16:05:00,66.4,34.9,29.85,NNW,338,3.1,4.9,31,0.00,,,0.00,VWS V14.01,2013-04-08 23:05:00,
2013-04-08 16:06:00,66.2,34.7,29.85,ESE,112,2.2,4.0,31,0.00,,,0.00,VWS V14.01,2013-04-08 23:06:00,
2013-04-08 16:07:00,66.2,34.7,29.85,NNE,22,4.9,5.4,31,0.00,,,0.00,VWS V14.01,2013-04-08 23:07:00,
2013-04-08 16:08:00,66.2,34.7,29.85,SE,135,3.1,6.7,31,0.00,,,0.00,VWS V14.01,2013-04-08 23:08:00,
2013-04-08 16:09:00,66.0,34.5,29.85,ESE,112,7.2,7.6,31,0.00,,,0.00,VWS V14.01,2013-04-08 23:09:00,
2013-04-08 16:10:00,66.0,34.5,29.85,SE,135,3.6,5.4,31,0.00,,,0.00,VWS V14.01,2013-04-08 23:10:00,
2013-04-08 16:11:00,66.0,34.5,29.85,NNE,22,3.6,7.6,31,0.00,,,0.00,VWS V14.01,2013-04-08 23:11:00,
2013-04-08 16:12:00,65.5,34.1,29.85,NE,45,5.4,5.4,31,0.00,,,0.00,VWS V14.01,2013-04-08 23:12:00,
2013-04-08 16:13:00,65.7,35.0,29.85,NE,45,2.7,5.4,32,0.00,,,0.00,VWS V14.01,2013-04-08 23:13:00,
2013-04-08 16:14:00,65.7,35.0,29.85,SSW,202,5.4,5.4,32,0.00,,,0.00,VWS V14.01,2013-04-08 23:14:00,
2013-04-08 16:15:00,65.5,34.9,29.85,ESE,112,8.1,8.3,32,0.00,,,0.00,VWS V14.01,2013-04-08 23:15:00,
2013-04-08 16:16:00,65.5,34.9,29.85,South,180,2.7,8.3,32,0.00,,,0.00,VWS V14.01,2013-04-08 23:16:00,
2013-04-08 16:17:00,65.5,34.9,29.85,SSW,202,3.1,3.1,32,0.00,,,0.00,VWS V14.01,2013-04-08 23:17:00,
2013-04-08 16:18:00,65.5,34.9,29.85,ENE,68,5.4,6.3,32,0.00,,,0.00,VWS V14.01,2013-04-08 23:18:00,
2013-04-08 16:19:00,65.7,35.0,29.85,NNW,338,3.1,5.4,32,0.00,,,0.00,VWS V14.01,2013-04-08 23:19:00,
2013-04-08 16:20:00,66.0,35.3,29.85,ENE,68,4.9,4.9,32,0.00,,,0.00,VWS V14.01,2013-04-08 23:20:00,
2013-04-08 16:21:00,66.0,35.3,29.85,ENE,68,4.9,4.9,32,0.00,,,0.00,VWS V14.01,2013-04-08 23:21:00,
2013-04-08 16:22:00,65.8,35.2,29.85,SSE,158,3.1,4.9,32,0.00,,,0.00,VWS V14.01,2013-04-08 23:22:00,
2013-04-08 16:23:00,65.7,35.0,29.85,SSE,158,3.6,6.3,32,0.00,,,0.00,VWS V14.01,2013-04-08 23:23:00,
2013-04-08 16:24:00,65.5,34.9,29.85,ENE,68,3.6,6.3,32,0.00,,,0.00,VWS V14.01,2013-04-08 23:24:00,
2013-04-08 16:25:00,65.7,35.0,29.85,ESE,112,8.3,8.3,32,0.00,,,0.00,VWS V14.01,2013-04-08 23:25:00,
2013-04-08 16:26:00,65.7,35.0,29.85,ESE,112,8.3,8.3,32,0.00,,,0.00,VWS V14.01,2013-04-08 23:26:00,
2013-04-08 16:27:00,65.7,35.0,29.85,NNE,22,7.2,8.3,32,0.00,,,0.00,VWS V14.01,2013-04-08 23:27:00,
2013-04-08 16:28:00,65.5,34.9,29.85,SSE,158,3.1,7.2,32,0.00,,,0.00,VWS V14.01,2013-04-08 23:28:00,
2013-04-08 16:29:00,65.3,34.7,29.85,ENE,68,5.8,6.3,32,0.00,,,0.00,VWS V14.01,2013-04-08 23:29:00,
2013-04-08 16:30:00,65.3,34.7,29.85,NNE,22,3.6,3.6,32,0.00,,,0.00,VWS V14.01,2013-04-08 23:30:00,
2013-04-08 16:31:00,65.3,34.7,29.85,NNE,22,3.6,6.7,32,0.00,,,0.00,VWS V14.01,2013-04-08 23:31:00,
2013-04-08 16:32:00,65.3,34.7,29.85,NNE,22,3.6,5.4,32,0.00,,,0.00,VWS V14.01,2013-04-08 23:32:00,
2013-04-08 16:33:00,65.3,34.7,29.85,SSE,158,5.4,5.4,32,0.00,,,0.00,VWS V14.01,2013-04-08 23:33:00,
2013-04-08 16:34:00,65.5,34.9,29.85,WNW,292,5.8,5.8,32,0.00,,,0.00,VWS V14.01,2013-04-08 23:34:00,
2013-04-08 16:35:00,65.7,34.2,29.85,SSE,158,4.9,4.9,31,0.00,,,0.00,VWS V14.01,2013-04-08 23:35:00,
2013-04-08 16:36:00,65.7,34.2,29.85,ESE,112,3.6,5.4,31,0.00,,,0.00,VWS V14.01,2013-04-08 23:36:00,
2013-04-08 16:37:00,65.7,34.2,29.85,NE,45,4.0,4.9,31,0.00,,,0.00,VWS V14.01,2013-04-08 23:37:00,
2013-04-08 16:38:00,65.7,35.0,29.85,WNW,292,3.1,4.0,32,0.00,,,0.00,VWS V14.01,2013-04-08 23:38:00,
2013-04-08 16:39:00,65.7,35.0,29.85,East,90,3.6,4.9,32,0.00,,,0.00,VWS V14.01,2013-04-08 23:39:00,
2013-04-08 16:40:00,65.7,35.0,29.85,SW,225,3.6,3.6,32,0.00,,,0.00,VWS V14.01,2013-04-08 23:40:00,
2013-04-08 16:41:00,65.7,35.0,29.85,NNE,22,0.0,4.0,32,0.00,,,0.00,VWS V14.01,2013-04-08 23:41:00,
2013-04-08 16:42:00,65.7,35.0,29.85,SSW,202,4.0,4.0,32,0.00,,,0.00,VWS V14.01,2013-04-08 23:42:00,
2013-04-08 16:43:00,65.8,35.2,29.85,SSE,158,3.1,4.0,32,0.00,,,0.00,VWS V14.01,2013-04-08 23:43:00,
2013-04-08 16:44:00,66.2,34.7,29.85,ENE,68,2.7,5.8,31,0.00,,,0.00,VWS V14.01,2013-04-08 23:44:00,
2013-04-08 16:45:00,66.0,34.5,29.85,ESE,112,5.4,5.4,31,0.00,,,0.00,VWS V14.01,2013-04-08 23:45:00,
2013-04-08 16:46:00,65.7,34.2,29.85,NE,45,6.3,7.6,31,0.00,,,0.00,VWS V14.01,2013-04-08 23:46:00,
2013-04-08 16:47:00,65.7,34.2,29.85,South,180,8.7,8.7,31,0.00,,,0.00,VWS V14.01,2013-04-08 23:47:00,
2013-04-08 16:48:00,65.5,34.1,29.85,East,90,3.1,8.7,31,0.00,,,0.00,VWS V14.01,2013-04-08 23:48:00,
2013-04-08 16:49:00,65.5,34.9,29.85,SSW,202,4.0,4.0,32,0.00,,,0.00,VWS V14.01,2013-04-08 23:49:00,
2013-04-08 16:50:00,65.5,34.9,29.85,NNE,22,2.7,4.9,32,0.00,,,0.00,VWS V14.01,2013-04-08 23:50:00,
2013-04-08 16:51:00,65.7,35.0,29.85,ESE,112,4.0,4.0,32,0.00,,,0.00,VWS V14.01,2013-04-08 23:51:00,
2013-04-08 16:52:00,64.9,34.4,29.85,SE,135,3.1,7.2,32,0.00,,,0.00,VWS V14.01,2013-04-08 23:52:00,
2013-04-08 16:53:00,64.8,34.2,29.85,ENE,68,3.1,7.2,32,0.00,,,0.00,VWS V14.01,2013-04-08 23:53:00,
2013-04-08 16:54:00,64.9,34.4,29.85,South,180,4.0,4.0,32,0.00,,,0.00,VWS V14.01,2013-04-08 23:54:00,
2013-04-08 16:55:00,65.3,34.7,29.85,NNE,22,2.2,4.0,32,0.00,,,0.00,VWS V14.01,2013-04-08 23:55:00,
2013-04-08 16:56:00,65.5,34.9,29.85,NE,45,4.9,4.9,32,0.00,,,0.00,VWS V14.01,2013-04-08 23:56:00,
2013-04-08 16:57:00,65.3,34.7,29.85,SE,135,4.0,4.0,32,0.00,,,0.00,VWS V14.01,2013-04-08 23:57:00,
2013-04-08 16:58:00,65.1,34.6,29.85,SE,135,4.0,4.0,32,0.00,,,0.00,VWS V14.01,2013-04-08 23:58:00,
2013-04-08 16:59:00,64.8,34.2,29.85,SE,135,4.0,6.3,32,0.00,,,0.00,VWS V14.01,2013-04-08 23:59:00,
2013-04-08 17:00:00,64.8,34.2,29.85,WNW,292,3.1,4.9,32,0.00,,,0.00,VWS V14.01,2013-04-09 00:00:00,
2013-04-08 17:01:00,64.9,34.4,29.85,NE,45,2.7,4.0,32,0.00,,,0.00,VWS V14.01,2013-04-09 00:01:00,
2013-04-08 17:02:00,65.1,34.6,29.85,South,180,5.8,6.3,32,0.00,,,0.00,VWS V14.01,2013-04-09 00:02:00,
2013-04-08 17:03:00,64.9,34.4,29.85,ESE,112,5.8,8.1,32,0.00,,,0.00,VWS V14.01,2013-04-09 00:03:00,
2013-04-08 17:04:00,65.1,34.6,29.85,ENE,68,2.7,6.3,32,0.00,,,0.00,VWS V14.01,2013-04-09 00:04:00,
2013-04-08 17:05:00,64.8,34.2,29.85,East,90,3.1,4.0,32,0.00,,,0.00,VWS V14.01,2013-04-09 00:05:00,
2013-04-08 17:06:00,64.8,34.2,29.85,SSW,202,5.8,5.8,32,0.00,,,0.00,VWS V14.01,2013-04-09 00:06:00,
2013-04-08 17:07:00,64.6,34.1,29.85,SSE,158,5.8,5.8,32,0.00,,,0.00,VWS V14.01,2013-04-09 00:07:00,
2013-04-08 17:08:00,64.8,34.2,29.85,SSW,202,2.2,5.8,32,0.00,,,0.00,VWS V14.01,2013-04-09 00:08:00,
2013-04-08 17:09:00,64.4,34.7,29.85,ENE,68,4.0,4.0,33,0.00,,,0.00,VWS V14.01,2013-04-09 00:09:00,
2013-04-08 17:10:00,64.4,34.7,29.85,SSE,158,3.6,4.9,33,0.00,,,0.00,VWS V14.01,2013-04-09 00:10:00,
2013-04-08 17:11:00,64.2,34.5,29.85,ESE,112,4.0,5.4,33,0.00,,,0.00,VWS V14.01,2013-04-09 00:11:00,
2013-04-08 17:12:00,64.0,35.1,29.85,SSE,158,5.4,5.4,34,0.00,,,0.00,VWS V14.01,2013-04-09 00:12:00,
2013-04-08 17:13:00,64.0,35.1,29.85,SSE,158,3.6,5.4,34,0.00,,,0.00,VWS V14.01,2013-04-09 00:13:00,
2013-04-08 17:14:00,64.0,35.1,29.85,WNW,292,3.1,4.0,34,0.00,,,0.00,VWS V14.01,2013-04-09 00:14:00,
2013-04-08 17:15:00,64.0,35.1,29.85,ENE,68,2.2,4.0,34,0.00,,,0.00,VWS V14.01,2013-04-09 00:15:00,
2013-04-08 17:16:00,64.2,35.3,29.85,ESE,112,3.1,4.5,34,0.00,,,0.00,VWS V14.01,2013-04-09 00:16:00,
2013-04-08 17:17:00,64.4,35.5,29.85,NNE,22,5.8,5.8,34,0.00,,,0.00,VWS V14.01,2013-04-09 00:17:00,
2013-04-08 17:18:00,64.4,35.5,29.85,NE,45,2.2,6.3,34,0.00,,,0.00,VWS V14.01,2013-04-09 00:18:00,
2013-04-08 17:19:00,64.0,35.1,29.85,North,0,3.1,3.6,34,0.00,,,0.00,VWS V14.01,2013-04-09 00:19:00,
2013-04-08 17:20:00,63.7,34.8,29.85,SSW,202,0.0,3.6,34,0.00,,,0.00,VWS V14.01,2013-04-09 00:20:00,
2013-04-08 17:21:00,63.7,35.5,29.85,WNW,292,2.2,4.0,35,0.00,,,0.00,VWS V14.01,2013-04-09 00:21:00,
2013-04-08 17:22:00,63.7,35.5,29.85,SSE,158,4.9,5.8,35,0.00,,,0.00,VWS V14.01,2013-04-09 00:22:00,
2013-04-08 17:23:00,63.5,35.4,29.85,SSW,202,2.7,4.9,35,0.00,,,0.00,VWS V14.01,2013-04-09 00:23:00,
2013-04-08 17:24:00,63.3,35.2,29.85,NNE,22,4.0,4.9,35,0.00,,,0.00,VWS V14.01,2013-04-09 00:24:00,
2013-04-08 17:25:00,63.1,35.1,29.85,East,90,2.2,2.7,35,0.00,,,0.00,VWS V14.01,2013-04-09 00:25:00,
2013-04-08 17:26:00,63.1,35.1,29.85,ESE,112,2.7,3.6,35,0.00,,,0.00,VWS V14.01,2013-04-09 00:26:00,
2013-04-08 17:27:00,63.0,34.9,29.85,SE,135,5.8,5.8,35,0.00,,,0.00,VWS V14.01,2013-04-09 00:27:00,
2013-04-08 17:28:00,62.4,35.1,29.85,SSW,202,4.9,6.7,36,0.00,,,0.00,VWS V14.01,2013-04-09 00:28:00,
2013-04-08 17:29:00,62.4,35.1,29.85,WSW,248,4.9,5.8,36,0.00,,,0.00,VWS V14.01,2013-04-09 00:29:00,
2013-04-08 17:30:00,62.4,35.1,29.85,NE,45,2.7,3.1,36,0.00,,,0.00,VWS V14.01,2013-04-09 00:30:00,
2013-04-08 17:31:00,62.2,35.0,29.85,SSE,158,2.7,3.1,36,0.00,,,0.00,VWS V14.01,2013-04-09 00:31:00,
2013-04-08 17:32:00,62.2,35.0,29.85,NE,45,3.6,5.4,36,0.00,,,0.00,VWS V14.01,2013-04-09 00:32:00,
2013-04-08 17:33:00,62.2,35.0,29.85,SSE,158,4.0,7.6,36,0.00,,,0.00,VWS V14.01,2013-04-09 00:33:00,
2013-04-08 17:34:00,61.9,34.7,29.85,NW,315,0.0,4.9,36,0.00,,,0.00,VWS V14.01,2013-04-09 00:34:00,
2013-04-08 17:35:00,61.9,34.7,29.85,SSE,158,3.6,4.0,36,0.00,,,0.00,VWS V14.01,2013-04-09 00:35:00,
2013-04-08 17:36:00,61.9,34.7,29.85,NE,45,3.1,4.0,36,0.00,,,0.00,VWS V14.01,2013-04-09 00:36:00,
2013-04-08 17:37:00,61.9,34.7,29.85,WNW,292,4.0,5.4,36,0.00,,,0.00,VWS V14.01,2013-04-09 00:37:00,
2013-04-08 17:38:00,61.7,34.5,29.85,WSW,248,7.2,7.2,36,0.00,,,0.00,VWS V14.01,2013-04-09 00:38:00,
2013-04-08 17:39:00,61.7,34.5,29.85,SSW,202,3.1,7.2,36,0.00,,,0.00,VWS V14.01,2013-04-09 00:39:00,
2013-04-08 17:40:00,61.7,34.5,29.85,SSW,202,4.0,4.0,36,0.00,,,0.00,VWS V14.01,2013-04-09 00:40:00,
2013-04-08 17:41:00,61.7,34.5,29.85,ENE,68,3.6,3.6,36,0.00,,,0.00,VWS V14.01,2013-04-09 00:41:00,
2013-04-08 17:43:00,61.3,34.2,29.85,SSW,202,3.1,5.4,36,0.00,,,0.00,VWS V14.01,2013-04-09 00:43:00,
2013-04-08 17:44:00,61.5,34.3,29.85,SSE,158,2.2,5.4,36,0.00,,,0.00,VWS V14.01,2013-04-09 00:44:00,
2013-04-08 17:45:00,61.5,34.3,29.85,SE,135,3.6,3.6,36,0.00,,,0.00,VWS V14.01,2013-04-09 00:45:00,
2013-04-08 17:46:00,61.5,34.3,29.85,SSW,202,4.0,5.4,36,0.00,,,0.00,VWS V14.01,2013-04-09 00:46:00,
2013-04-08 17:48:00,61.5,35.0,29.85,SSE,158,4.9,4.9,37,0.00,,,0.00,VWS V14.01,2013-04-09 00:48:00,
2013-04-08 17:49:00,61.5,34.3,29.85,West,270,2.7,5.8,36,0.00,,,0.00,VWS V14.01,2013-04-09 00:49:00,
2013-04-08 17:50:00,61.5,34.3,29.85,SSE,158,4.0,5.8,36,0.00,,,0.00,VWS V14.01,2013-04-09 00:50:00,
2013-04-08 17:51:00,61.5,34.3,29.85,NNW,338,2.7,2.7,36,0.00,,,0.00,VWS V14.01,2013-04-09 00:51:00,
2013-04-08 17:52:00,61.5,34.3,29.85,NW,315,4.0,4.0,36,0.00,,,0.00,VWS V14.01,2013-04-09 00:52:00,
2013-04-08 17:53:00,61.5,34.3,29.85,SSE,158,2.7,4.0,36,0.00,,,0.00,VWS V14.01,2013-04-09 00:53:00,
2013-04-08 17:54:00,61.5,34.3,29.85,NE,45,2.7,4.9,36,0.00,,,0.00,VWS V14.01,2013-04-09 00:54:00,
2013-04-08 17:55:00,61.5,34.3,29.85,South,180,2.7,3.1,36,0.00,,,0.00,VWS V14.01,2013-04-09 00:55:00,
2013-04-08 17:56:00,61.5,34.3,29.85,West,270,2.7,3.1,36,0.00,,,0.00,VWS V14.01,2013-04-09 00:56:00,
2013-04-08 17:57:00,61.5,34.3,29.85,South,180,3.1,3.1,36,0.00,,,0.00,VWS V14.01,2013-04-09 00:57:00,
2013-04-08 17:58:00,61.5,34.3,29.85,SSW,202,0.0,5.8,36,0.00,,,0.00,VWS V14.01,2013-04-09 00:58:00,
2013-04-08 17:59:00,61.5,34.3,29.85,NNW,338,4.0,5.8,36,0.00,,,0.00,VWS V14.01,2013-04-09 00:59:00,
2013-04-08 18:00:00,61.5,34.3,29.85,SW,225,7.2,7.2,36,0.00,,,0.00,VWS V14.01,2013-04-09 01:00:00,
2013-04-08 18:01:00,61.3,34.2,29.85,SSW,202,3.1,7.2,36,0.00,,,0.00,VWS V14.01,2013-04-09 01:01:00,
2013-04-08 18:02:00,61.3,34.2,29.85,SW,225,3.1,4.0,36,0.00,,,0.00,VWS V14.01,2013-04-09 01:02:00,
2013-04-08 18:03:00,61.3,34.2,29.85,South,180,2.7,4.0,36,0.00,,,0.00,VWS V14.01,2013-04-09 01:03:00,
2013-04-08 18:04:00,61.3,34.2,29.85,SSW,202,2.7,4.0,36,0.00,,,0.00,VWS V14.01,2013-04-09 01:04:00,
2013-04-08 18:05:00,61.3,34.2,29.85,WSW,248,2.7,4.0,36,0.00,,,0.00,VWS V14.01,2013-04-09 01:05:00,
2013-04-08 18:06:00,61.3,34.2,29.85,SE,135,2.7,2.7,36,0.00,,,0.00,VWS V14.01,2013-04-09 01:06:00,
2013-04-08 18:07:00,61.3,34.2,29.85,SSE,158,2.7,2.7,36,0.00,,,0.00,VWS V14.01,2013-04-09 01:07:00,
2013-04-08 18:08:00,61.5,34.3,29.85,SSE,158,0.0,3.1,36,0.00,,,0.00,VWS V14.01,2013-04-09 01:08:00,
2013-04-08 18:09:00,61.5,34.3,29.85,SSE,158,0.0,3.6,36,0.00,,,0.00,VWS V14.01,2013-04-09 01:09:00,
2013-04-08 18:10:00,61.5,34.3,29.85,SSE,158,2.2,2.2,36,0.00,,,0.00,VWS V14.01,2013-04-09 01:10:00,
2013-04-08 18:11:00,61.7,34.5,29.85,WSW,248,3.1,3.1,36,0.00,,,0.00,VWS V14.01,2013-04-09 01:11:00,
2013-04-08 18:12:00,61.7,34.5,29.85,SE,135,3.6,3.6,36,0.00,,,0.00,VWS V14.01,2013-04-09 01:12:00,
2013-04-08 18:13:00,61.7,34.5,29.85,SW,225,3.1,3.6,36,0.00,,,0.00,VWS V14.01,2013-04-09 01:13:00,
2013-04-08 18:14:00,61.7,34.5,29.85,SSW,202,2.7,4.9,36,0.00,,,0.00,VWS V14.01,2013-04-09 01:14:00,
2013-04-08 18:15:00,61.7,34.5,29.85,SE,135,5.4,5.4,36,0.00,,,0.00,VWS V14.01,2013-04-09 01:15:00,
2013-04-08 18:16:00,61.5,34.3,29.85,South,180,4.9,5.4,36,0.00,,,0.00,VWS V14.01,2013-04-09 01:16:00,
2013-04-08 18:17:00,61.5,34.3,29.85,SE,135,2.2,4.9,36,0.00,,,0.00,VWS V14.01,2013-04-09 01:17:00,
2013-04-08 18:18:00,61.5,34.3,29.85,SSW,202,2.7,3.6,36,0.00,,,0.00,VWS V14.01,2013-04-09 01:18:00,
2013-04-08 18:19:00,61.5,34.3,29.85,SSW,202,8.1,8.1,36,0.00,,,0.00,VWS V14.01,2013-04-09 01:19:00,
2013-04-08 18:20:00,61.5,34.3,29.82,SW,225,2.2,8.1,36,0.00,,,0.00,VWS V14.01,2013-04-09 01:20:00,
2013-04-08 18:21:00,61.5,34.3,29.82,ENE,68,2.7,5.8,36,0.00,,,0.00,VWS V14.01,2013-04-09 01:21:00,
2013-04-08 18:22:00,61.5,34.3,29.82,East,90,2.7,4.9,36,0.00,,,0.00,VWS V14.01,2013-04-09 01:22:00,
2013-04-08 18:23:00,61.5,34.3,29.82,NNE,22,3.1,3.6,36,0.00,,,0.00,VWS V14.01,2013-04-09 01:23:00,
2013-04-08 18:24:00,61.5,34.3,29.82,SE,135,3.1,5.4,36,0.00,,,0.00,VWS V14.01,2013-04-09 01:24:00,
2013-04-08 18:25:00,61.5,34.3,29.82,SSW,202,3.1,4.0,36,0.00,,,0.00,VWS V14.01,2013-04-09 01:25:00,
2013-04-08 18:26:00,61.2,34.0,29.82,ESE,112,3.1,4.9,36,0.00,,,0.00,VWS V14.01,2013-04-09 01:26:00,
2013-04-08 18:27:00,61.2,34.0,29.82,ESE,112,3.1,3.1,36,0.00,,,0.00,VWS V14.01,2013-04-09 01:27:00,
2013-04-08 18:28:00,61.0,33.9,29.82,ENE,68,3.1,5.4,36,0.00,,,0.00,VWS V14.01,2013-04-09 01:28:00,
2013-04-08 18:29:00,61.0,33.9,29.82,NE,45,3.1,4.0,36,0.00,,,0.00,VWS V14.01,2013-04-09 01:29:00,
2013-04-08 18:30:00,61.0,33.9,29.82,SSE,158,3.6,4.0,36,0.00,,,0.00,VWS V14.01,2013-04-09 01:30:00,
2013-04-08 18:31:00,60.8,33.7,29.82,SSW,202,4.9,4.9,36,0.00,,,0.00,VWS V14.01,2013-04-09 01:31:00,
2013-04-08 18:32:00,60.8,33.7,29.82,North,0,3.6,5.8,36,0.00,,,0.00,VWS V14.01,2013-04-09 01:32:00,
2013-04-08 18:33:00,60.6,34.2,29.82,East,90,5.8,7.6,37,0.00,,,0.00,VWS V14.01,2013-04-09 01:33:00,
2013-04-08 18:34:00,60.6,34.2,29.82,ENE,68,3.1,5.8,37,0.00,,,0.00,VWS V14.01,2013-04-09 01:34:00,
2013-04-08 18:35:00,60.4,34.1,29.82,SSE,158,3.6,3.6,37,0.00,,,0.00,VWS V14.01,2013-04-09 01:35:00,
2013-04-08 18:36:00,60.4,34.1,29.82,North,0,2.7,4.9,37,0.00,,,0.00,VWS V14.01,2013-04-09 01:36:00,
2013-04-08 18:37:00,60.3,33.9,29.82,SSW,202,3.6,3.6,37,0.00,,,0.00,VWS V14.01,2013-04-09 01:37:00,
2013-04-08 18:38:00,60.1,33.8,29.82,SSW,202,4.0,5.4,37,0.00,,,0.00,VWS V14.01,2013-04-09 01:38:00,
2013-04-08 18:39:00,60.1,33.8,29.82,SSW,202,3.6,3.6,37,0.00,,,0.00,VWS V14.01,2013-04-09 01:39:00,
2013-04-08 18:40:00,60.1,33.8,29.82,ENE,68,2.2,6.3,37,0.00,,,0.00,VWS V14.01,2013-04-09 01:40:00,
2013-04-08 18:41:00,60.1,33.8,29.82,NNW,338,3.1,4.0,37,0.00,,,0.00,VWS V14.01,2013-04-09 01:41:00,
2013-04-08 18:42:00,59.9,33.6,29.82,ENE,68,3.6,4.9,37,0.00,,,0.00,VWS V14.01,2013-04-09 01:42:00,
2013-04-08 18:43:00,59.9,33.6,29.82,ESE,112,2.7,4.0,37,0.00,,,0.00,VWS V14.01,2013-04-09 01:43:00,
2013-04-08 18:44:00,59.9,33.6,29.82,West,270,3.1,6.3,37,0.00,,,0.00,VWS V14.01,2013-04-09 01:44:00,
2013-04-08 18:45:00,59.9,33.6,29.82,SSW,202,6.3,6.3,37,0.00,,,0.00,VWS V14.01,2013-04-09 01:45:00,
2013-04-08 18:46:00,59.9,33.6,29.82,NE,45,4.9,6.3,37,0.00,,,0.00,VWS V14.01,2013-04-09 01:46:00,
2013-04-08 18:47:00,59.4,33.1,29.82,ESE,112,2.7,4.9,37,0.00,,,0.00,VWS V14.01,2013-04-09 01:47:00,
2013-04-08 18:48:00,59.4,33.1,29.82,SSW,202,4.0,4.0,37,0.00,,,0.00,VWS V14.01,2013-04-09 01:48:00,
2013-04-08 18:49:00,59.2,33.6,29.82,SSW,202,4.5,5.8,38,0.00,,,0.00,VWS V14.01,2013-04-09 01:49:00,
2013-04-08 18:50:00,59.2,33.6,29.85,SW,225,4.9,4.9,38,0.00,,,0.00,VWS V14.01,2013-04-09 01:50:00,
2013-04-08 18:51:00,59.2,33.6,29.85,ENE,68,2.2,4.9,38,0.00,,,0.00,VWS V14.01,2013-04-09 01:51:00,
2013-04-08 18:52:00,59.2,33.6,29.85,NE,45,3.1,4.9,38,0.00,,,0.00,VWS V14.01,2013-04-09 01:52:00,
2013-04-08 18:53:00,59.2,33.6,29.85,SSW,202,3.6,4.0,38,0.00,,,0.00,VWS V14.01,2013-04-09 01:53:00,
2013-04-08 18:54:00,59.0,33.5,29.85,East,90,2.2,4.9,38,0.00,,,0.00,VWS V14.01,2013-04-09 01:54:00,
2013-04-08 18:55:00,59.0,33.5,29.85,ENE,68,3.1,4.9,38,0.00,,,0.00,VWS V14.01,2013-04-09 01:55:00,
2013-04-08 18:56:00,59.0,33.5,29.85,NE,45,0.0,3.1,38,0.00,,,0.00,VWS V14.01,2013-04-09 01:56:00,
2013-04-08 18:57:00,59.0,33.5,29.85,NE,45,0.0,4.0,38,0.00,,,0.00,VWS V14.01,2013-04-09 01:57:00,
2013-04-08 18:58:00,59.0,33.5,29.85,NNW,338,3.1,3.6,38,0.00,,,0.00,VWS V14.01,2013-04-09 01:58:00,
2013-04-08 18:59:00,59.0,33.5,29.85,SSW,202,4.9,4.9,38,0.00,,,0.00,VWS V14.01,2013-04-09 01:59:00,
2013-04-08 19:00:00,59.0,33.5,29.85,SSW,202,4.9,5.8,38,0.00,,,0.00,VWS V14.01,2013-04-09 02:00:00,
2013-04-08 19:01:00,58.8,33.9,29.85,SSE,158,3.1,4.9,39,0.00,,,0.00,VWS V14.01,2013-04-09 02:01:00,
2013-04-08 19:02:00,58.8,33.9,29.85,North,0,2.7,3.6,39,0.00,,,0.00,VWS V14.01,2013-04-09 02:02:00,
2013-04-08 19:03:00,58.8,33.9,29.85,WNW,292,2.7,2.7,39,0.00,,,0.00,VWS V14.01,2013-04-09 02:03:00,
2013-04-08 19:04:00,58.8,33.9,29.85,SSE,158,5.4,5.4,39,0.00,,,0.00,VWS V14.01,2013-04-09 02:04:00,
2013-04-08 19:05:00,58.8,33.9,29.85,SSW,202,4.0,4.0,39,0.00,,,0.00,VWS V14.01,2013-04-09 02:05:00,
2013-04-08 19:06:00,58.8,33.9,29.85,ENE,68,3.6,4.5,39,0.00,,,0.00,VWS V14.01,2013-04-09 02:06:00,
2013-04-08 19:07:00,58.6,33.8,29.85,North,0,2.7,3.6,39,0.00,,,0.00,VWS V14.01,2013-04-09 02:07:00,
2013-04-08 19:08:00,58.6,33.8,29.85,North,0,0.0,2.7,39,0.00,,,0.00,VWS V14.01,2013-04-09 02:08:00,
2013-04-08 19:09:00,58.6,33.8,29.85,NE,45,3.1,3.1,39,0.00,,,0.00,VWS V14.01,2013-04-09 02:09:00,
2013-04-08 19:10:00,58.6,33.8,29.85,NNE,22,3.1,3.1,39,0.00,,,0.00,VWS V14.01,2013-04-09 02:10:00,
2013-04-08 19:11:00,58.6,33.8,29.85,NNE,22,3.1,3.1,39,0.00,,,0.00,VWS V14.01,2013-04-09 02:11:00,
2013-04-08 19:12:00,58.6,33.8,29.85,ENE,68,3.1,3.1,39,0.00,,,0.00,VWS V14.01,2013-04-09 02:12:00,
2013-04-08 19:13:00,58.6,33.8,29.85,ESE,112,3.1,3.1,39,0.00,,,0.00,VWS V14.01,2013-04-09 02:13:00,
2013-04-08 19:14:00,58.6,33.8,29.85,ESE,112,2.7,4.0,39,0.00,,,0.00,VWS V14.01,2013-04-09 02:14:00,
2013-04-08 19:15:00,58.5,33.6,29.85,WNW,292,3.1,7.2,39,0.00,,,0.00,VWS V14.01,2013-04-09 02:15:00,
2013-04-08 19:16:00,58.5,33.6,29.85,WNW,292,3.1,7.2,39,0.00,,,0.00,VWS V14.01,2013-04-09 02:16:00,
2013-04-08 19:17:00,58.5,33.6,29.85,NE,45,2.7,3.1,39,0.00,,,0.00,VWS V14.01,2013-04-09 02:17:00,
2013-04-08 19:18:00,58.5,33.6,29.85,ENE,68,3.6,4.0,39,0.00,,,0.00,VWS V14.01,2013-04-09 02:18:00,
2013-04-08 19:19:00,58.5,33.6,29.85,SSW,202,0.0,4.0,39,0.00,,,0.00,VWS V14.01,2013-04-09 02:19:00,
2013-04-08 19:20:00,58.5,33.6,29.85,ENE,68,4.0,4.0,39,0.00,,,0.00,VWS V14.01,2013-04-09 02:20:00,
2013-04-08 19:21:00,58.5,34.2,29.85,NNE,22,2.7,4.0,40,0.00,,,0.00,VWS V14.01,2013-04-09 02:21:00,
2013-04-08 19:22:00,58.5,34.2,29.85,NNE,22,2.7,4.0,40,0.00,,,0.00,VWS V14.01,2013-04-09 02:22:00,
2013-04-08 19:23:00,58.5,34.2,29.85,ENE,68,0.0,2.7,40,0.00,,,0.00,VWS V14.01,2013-04-09 02:23:00,
2013-04-08 19:24:00,58.5,34.2,29.85,NE,45,0.0,4.0,40,0.00,,,0.00,VWS V14.01,2013-04-09 02:24:00,
2013-04-08 19:25:00,58.5,34.2,29.85,NE,45,0.0,0.0,40,0.00,,,0.00,VWS V14.01,2013-04-09 02:25:00,
2013-04-08 19:26:00,58.5,34.2,29.85,WSW,248,0.0,2.2,40,0.00,,,0.00,VWS V14.01,2013-04-09 02:26:00,
2013-04-08 19:27:00,58.5,34.2,29.85,WSW,248,0.0,2.2,40,0.00,,,0.00,VWS V14.01,2013-04-09 02:27:00,
2013-04-08 19:28:00,58.5,34.2,29.85,ENE,68,3.1,3.1,40,0.00,,,0.00,VWS V14.01,2013-04-09 02:28:00,
2013-04-08 19:29:00,58.5,33.6,29.85,ENE,68,0.0,3.1,39,0.00,,,0.00,VWS V14.01,2013-04-09 02:29:00,
2013-04-08 19:30:00,58.5,33.6,29.85,ENE,68,3.1,3.6,39,0.00,,,0.00,VWS V14.01,2013-04-09 02:30:00,
2013-04-08 19:31:00,58.5,33.6,29.85,NE,45,2.7,2.7,39,0.00,,,0.00,VWS V14.01,2013-04-09 02:31:00,
2013-04-08 19:32:00,58.5,33.6,29.85,NE,45,2.7,2.7,39,0.00,,,0.00,VWS V14.01,2013-04-09 02:32:00,
2013-04-08 19:33:00,58.5,33.6,29.85,SSE,158,2.2,2.7,39,0.00,,,0.00,VWS V14.01,2013-04-09 02:33:00,
2013-04-08 19:34:00,58.3,33.5,29.85,SSE,158,0.0,2.2,39,0.00,,,0.00,VWS V14.01,2013-04-09 02:34:00,
2013-04-08 19:35:00,58.3,33.5,29.85,East,90,0.0,2.2,39,0.00,,,0.00,VWS V14.01,2013-04-09 02:35:00,
2013-04-08 19:36:00,58.5,33.6,29.85,NE,45,2.2,3.1,39,0.00,,,0.00,VWS V14.01,2013-04-09 02:36:00,
2013-04-08 19:37:00,58.3,33.5,29.85,NE,45,0.0,0.0,39,0.00,,,0.00,VWS V14.01,2013-04-09 02:37:00,
2013-04-08 19:38:00,58.3,33.5,29.85,WSW,248,0.0,0.0,39,0.00,,,0.00,VWS V14.01,2013-04-09 02:38:00,
2013-04-08 19:39:00,58.3,33.5,29.85,NNW,338,2.2,3.1,39,0.00,,,0.00,VWS V14.01,2013-04-09 02:39:00,
2013-04-08 19:40:00,58.5,33.6,29.85,NE,45,0.0,2.2,39,0.00,,,0.00,VWS V14.01,2013-04-09 02:40:00,
2013-04-08 19:41:00,58.5,33.6,29.85,ESE,112,3.1,3.1,39,0.00,,,0.00,VWS V14.01,2013-04-09 02:41:00,
2013-04-08 19:42:00,58.3,33.5,29.85,ESE,112,2.7,2.7,39,0.00,,,0.00,VWS V14.01,2013-04-09 02:42:00,
2013-04-08 19:43:00,58.3,33.5,29.85,ESE,112,2.7,2.7,39,0.00,,,0.00,VWS V14.01,2013-04-09 02:43:00,
2013-04-08 19:44:00,58.1,33.3,29.85,ESE,112,0.0,2.7,39,0.00,,,0.00,VWS V14.01,2013-04-09 02:44:00,
2013-04-08 19:45:00,58.1,33.3,29.85,ESE,112,0.0,0.0,39,0.00,,,0.00,VWS V14.01,2013-04-09 02:45:00,
2013-04-08 19:46:00,58.1,33.3,29.85,SE,135,0.0,0.0,39,0.00,,,0.00,VWS V14.01,2013-04-09 02:46:00,
2013-04-08 19:47:00,58.1,33.3,29.85,SE,135,0.0,2.2,39,0.00,,,0.00,VWS V14.01,2013-04-09 02:47:00,
2013-04-08 19:48:00,58.1,33.3,29.85,SSE,158,0.0,0.0,39,0.00,,,0.00,VWS V14.01,2013-04-09 02:48:00,
2013-04-08 19:49:00,58.1,33.3,29.85,SSE,158,0.0,0.0,39,0.00,,,0.00,VWS V14.01,2013-04-09 02:49:00,
2013-04-08 19:50:00,58.1,33.3,29.85,SSE,158,0.0,0.0,39,0.00,,,0.00,VWS V14.01,2013-04-09 02:50:00,
2013-04-08 19:51:00,58.1,33.3,29.85,SSE,158,0.0,0.0,39,0.00,,,0.00,VWS V14.01,2013-04-09 02:51:00,
2013-04-08 19:52:00,57.9,33.1,29.85,SSE,158,0.0,0.0,39,0.00,,,0.00,VWS V14.01,2013-04-09 02:52:00,
2013-04-08 19:53:00,57.9,33.1,29.85,SSE,158,0.0,0.0,39,0.00,,,0.00,VWS V14.01,2013-04-09 02:53:00,
2013-04-08 19:54:00,57.9,33.1,29.85,SSE,158,0.0,0.0,39,0.00,,,0.00,VWS V14.01,2013-04-09 02:54:00,
2013-04-08 19:55:00,58.1,33.3,29.85,SSE,158,0.0,2.2,39,0.00,,,0.00,VWS V14.01,2013-04-09 02:55:00,
2013-04-08 19:56:00,58.1,33.3,29.85,SE,135,0.0,0.0,39,0.00,,,0.00,VWS V14.01,2013-04-09 02:56:00,
2013-04-08 19:57:00,58.1,33.3,29.85,ENE,68,0.0,0.0,39,0.00,,,0.00,VWS V14.01,2013-04-09 02:57:00,
2013-04-08 19:58:00,58.1,33.3,29.85,ENE,68,0.0,0.0,39,0.00,,,0.00,VWS V14.01,2013-04-09 02:58:00,
2013-04-08 19:59:00,58.1,33.3,29.85,ENE,68,0.0,0.0,39,0.00,,,0.00,VWS V14.01,2013-04-09 02:59:00,
2013-04-08 20:00:00,58.1,33.3,29.85,ENE,68,0.0,0.0,39,0.00,,,0.00,VWS V14.01,2013-04-09 03:00:00,
2013-04-08 20:01:00,58.1,33.3,29.85,ESE,112,0.0,2.2,39,0.00,,,0.00,VWS V14.01,2013-04-09 03:01:00,
2013-04-08 20:02:00,58.1,33.3,29.85,SSE,158,0.0,2.2,39,0.00,,,0.00,VWS V14.01,2013-04-09 03:02:00,
2013-04-08 20:03:00,58.1,33.3,29.85,SSE,158,0.0,2.2,39,0.00,,,0.00,VWS V14.01,2013-04-09 03:03:00,
2013-04-08 20:04:00,58.1,33.3,29.85,SSE,158,0.0,2.2,39,0.00,,,0.00,VWS V14.01,2013-04-09 03:04:00,
2013-04-08 20:05:00,58.1,33.3,29.85,SSW,202,2.2,2.2,39,0.00,,,0.00,VWS V14.01,2013-04-09 03:05:00,
2013-04-08 20:06:00,58.1,33.3,29.85,SSE,158,0.0,2.7,39,0.00,,,0.00,VWS V14.01,2013-04-09 03:06:00,
2013-04-08 20:07:00,58.1,33.3,29.85,SSE,158,0.0,0.0,39,0.00,,,0.00,VWS V14.01,2013-04-09 03:07:00,
2013-04-08 20:08:00,58.1,33.3,29.85,SSE,158,0.0,0.0,39,0.00,,,0.00,VWS V14.01,2013-04-09 03:08:00,
2013-04-08 20:09:00,58.1,33.3,29.85,SSE,158,0.0,0.0,39,0.00,,,0.00,VWS V14.01,2013-04-09 03:09:00,
2013-04-08 20:10:00,58.1,33.3,29.85,SSE,158,0.0,0.0,39,0.00,,,0.00,VWS V14.01,2013-04-09 03:10:00,
2013-04-08 20:11:00,58.1,33.3,29.85,SSE,158,0.0,2.2,39,0.00,,,0.00,VWS V14.01,2013-04-09 03:11:00,
2013-04-08 20:12:00,58.1,33.3,29.85,ESE,112,2.7,2.7,39,0.00,,,0.00,VWS V14.01,2013-04-09 03:12:00,
2013-04-08 20:13:00,58.3,33.5,29.85,ESE,112,0.0,2.7,39,0.00,,,0.00,VWS V14.01,2013-04-09 03:13:00,
2013-04-08 20:14:00,58.3,33.5,29.85,ESE,112,0.0,2.7,39,0.00,,,0.00,VWS V14.01,2013-04-09 03:14:00,
2013-04-08 20:15:00,58.3,33.5,29.85,ESE,112,2.7,2.7,39,0.00,,,0.00,VWS V14.01,2013-04-09 03:15:00,
2013-04-08 20:16:00,58.1,33.3,29.85,SE,135,0.0,2.7,39,0.00,,,0.00,VWS V14.01,2013-04-09 03:16:00,
2013-04-08 20:17:00,58.1,33.3,29.85,South,180,0.0,3.1,39,0.00,,,0.00,VWS V14.01,2013-04-09 03:17:00,
2013-04-08 20:18:00,58.1,33.3,29.85,ENE,68,2.7,2.7,39,0.00,,,0.00,VWS V14.01,2013-04-09 03:18:00,
2013-04-08 20:19:00,58.1,33.3,29.85,ENE,68,2.7,2.7,39,0.00,,,0.00,VWS V14.01,2013-04-09 03:19:00,
2013-04-08 20:20:00,58.1,33.3,29.85,SE,135,3.6,3.6,39,0.00,,,0.00,VWS V14.01,2013-04-09 03:20:00,
2013-04-08 20:21:00,58.1,33.3,29.85,ENE,68,0.0,3.6,39,0.00,,,0.00,VWS V14.01,2013-04-09 03:21:00,
2013-04-08 20:22:00,58.1,33.3,29.85,WNW,292,0.0,2.2,39,0.00,,,0.00,VWS V14.01,2013-04-09 03:22:00,
2013-04-08 20:23:00,58.1,33.3,29.85,SE,135,6.3,6.3,39,0.00,,,0.00,VWS V14.01,2013-04-09 03:23:00,
2013-04-08 20:24:00,58.1,33.3,29.85,SE,135,6.3,6.3,39,0.00,,,0.00,VWS V14.01,2013-04-09 03:24:00,
2013-04-08 20:25:00,58.1,33.3,29.85,SE,135,2.2,6.3,39,0.00,,,0.00,VWS V14.01,2013-04-09 03:25:00,
2013-04-08 20:26:00,58.1,33.3,29.85,ENE,68,2.7,5.8,39,0.00,,,0.00,VWS V14.01,2013-04-09 03:26:00,
2013-04-08 20:27:00,58.1,33.3,29.85,SSE,158,3.1,5.4,39,0.00,,,0.00,VWS V14.01,2013-04-09 03:27:00,
2013-04-08 20:28:00,58.1,33.3,29.85,SSE,158,4.9,4.9,39,0.00,,,0.00,VWS V14.01,2013-04-09 03:28:00,
2013-04-08 20:29:00,58.1,33.3,29.85,ENE,68,4.9,8.3,39,0.00,,,0.00,VWS V14.01,2013-04-09 03:29:00,
2013-04-08 20:30:00,58.3,33.5,29.85,SSW,202,8.3,8.3,39,0.00,,,0.00,VWS V14.01,2013-04-09 03:30:00,
2013-04-08 20:31:00,58.3,33.5,29.85,SSE,158,11.0,11.0,39,0.00,,,0.00,VWS V14.01,2013-04-09 03:31:00,
2013-04-08 20:32:00,58.5,33.0,29.85,East,90,9.2,11.0,38,0.00,,,0.00,VWS V14.01,2013-04-09 03:32:00,
2013-04-08 20:33:00,58.6,33.1,29.85,NNE,22,4.0,10.5,38,0.00,,,0.00,VWS V14.01,2013-04-09 03:33:00,
2013-04-08 20:34:00,58.6,33.1,29.85,SSW,202,8.7,8.7,38,0.00,,,0.00,VWS V14.01,2013-04-09 03:34:00,
2013-04-08 20:35:00,58.6,33.1,29.85,SSW,202,8.7,8.7,38,0.00,,,0.00,VWS V14.01,2013-04-09 03:35:00,
2013-04-08 20:36:00,58.8,33.3,29.88,NNE,22,5.4,8.7,38,0.00,,,0.00,VWS V14.01,2013-04-09 03:36:00,
2013-04-08 20:37:00,58.8,33.3,29.88,East,90,5.8,7.2,38,0.00,,,0.00,VWS V14.01,2013-04-09 03:37:00,
2013-04-08 20:38:00,58.8,33.3,29.88,SE,135,8.3,8.3,38,0.00,,,0.00,VWS V14.01,2013-04-09 03:38:00,
2013-04-08 20:39:00,58.8,33.3,29.88,ENE,68,3.6,8.3,38,0.00,,,0.00,VWS V14.01,2013-04-09 03:39:00,
2013-04-08 20:40:00,59.0,32.8,29.88,ENE,68,3.6,8.1,37,0.00,,,0.00,VWS V14.01,2013-04-09 03:40:00,
2013-04-08 20:41:00,59.0,32.8,29.88,SSE,158,5.8,8.1,37,0.00,,,0.00,VWS V14.01,2013-04-09 03:41:00,
2013-04-08 20:42:00,59.0,32.8,29.88,SSW,202,8.3,8.3,37,0.00,,,0.00,VWS V14.01,2013-04-09 03:42:00,
2013-04-08 20:43:00,59.0,32.8,29.88,SSE,158,7.2,8.3,37,0.00,,,0.00,VWS V14.01,2013-04-09 03:43:00,
2013-04-08 20:44:00,59.0,32.8,29.88,SSE,158,4.0,7.2,37,0.00,,,0.00,VWS V14.01,2013-04-09 03:44:00,
2013-04-08 20:45:00,58.8,32.6,29.88,South,180,4.0,4.9,37,0.00,,,0.00,VWS V14.01,2013-04-09 03:45:00,
2013-04-08 20:46:00,58.8,32.6,29.88,South,180,4.0,4.9,37,0.00,,,0.00,VWS V14.01,2013-04-09 03:46:00,
2013-04-08 20:47:00,58.8,33.3,29.88,WSW,248,3.1,6.3,38,0.00,,,0.00,VWS V14.01,2013-04-09 03:47:00,
2013-04-08 20:48:00,58.8,33.3,29.88,SSE,158,3.6,7.2,38,0.00,,,0.00,VWS V14.01,2013-04-09 03:48:00,
2013-04-08 20:49:00,58.8,33.3,29.88,WSW,248,4.0,4.9,38,0.00,,,0.00,VWS V14.01,2013-04-09 03:49:00,
2013-04-08 20:50:00,58.8,33.3,29.88,SSW,202,4.0,6.3,38,0.00,,,0.00,VWS V14.01,2013-04-09 03:50:00,
2013-04-08 20:51:00,58.8,33.3,29.88,SSW,202,4.0,6.3,38,0.00,,,0.00,VWS V14.01,2013-04-09 03:51:00,
2013-04-08 20:52:00,58.8,33.3,29.88,SSW,202,4.0,4.0,38,0.00,,,0.00,VWS V14.01,2013-04-09 03:52:00,
2013-04-08 20:53:00,58.6,33.1,29.88,SSE,158,5.4,5.8,38,0.00,,,0.00,VWS V14.01,2013-04-09 03:53:00,
2013-04-08 20:54:00,58.6,33.1,29.88,SSE,158,7.6,7.6,38,0.00,,,0.00,VWS V14.01,2013-04-09 03:54:00,
2013-04-08 20:55:00,58.6,32.5,29.88,SSE,158,5.4,5.4,37,0.00,,,0.00,VWS V14.01,2013-04-09 03:55:00,
2013-04-08 20:56:00,58.6,32.5,29.88,SSE,158,5.4,5.4,37,0.00,,,0.00,VWS V14.01,2013-04-09 03:56:00,
2013-04-08 20:57:00,58.6,32.5,29.88,SE,135,6.3,6.3,37,0.00,,,0.00,VWS V14.01,2013-04-09 03:57:00,
2013-04-08 20:58:00,58.6,32.5,29.88,East,90,4.0,7.2,37,0.00,,,0.00,VWS V14.01,2013-04-09 03:58:00,
2013-04-08 20:59:00,58.6,32.5,29.88,East,90,3.6,5.8,37,0.00,,,0.00,VWS V14.01,2013-04-09 03:59:00,
2013-04-08 21:00:00,58.8,32.6,29.88,SW,225,3.6,6.3,37,0.00,,,0.00,VWS V14.01,2013-04-09 04:00:00,
2013-04-08 21:01:00,58.8,32.6,29.88,East,90,3.1,6.3,37,0.00,,,0.00,VWS V14.01,2013-04-09 04:01:00,
2013-04-08 21:02:00,58.8,32.6,29.88,ESE,112,5.8,6.7,37,0.00,,,0.00,VWS V14.01,2013-04-09 04:02:00,
2013-04-08 21:03:00,58.8,32.6,29.88,SSW,202,3.6,5.8,37,0.00,,,0.00,VWS V14.01,2013-04-09 04:03:00,
2013-04-08 21:04:00,58.8,32.6,29.88,SSW,202,3.6,3.6,37,0.00,,,0.00,VWS V14.01,2013-04-09 04:04:00,
2013-04-08 21:05:00,58.8,32.6,29.88,ENE,68,4.9,4.9,37,0.00,,,0.00,VWS V14.01,2013-04-09 04:05:00,
2013-04-08 21:06:00,58.8,32.6,29.88,ESE,112,4.0,4.9,37,0.00,,,0.00,VWS V14.01,2013-04-09 04:06:00,
2013-04-08 21:07:00,58.8,32.6,29.88,ENE,68,2.7,4.0,37,0.00,,,0.00,VWS V14.01,2013-04-09 04:07:00,
2013-04-08 21:08:00,58.8,32.6,29.88,West,270,3.1,6.3,37,0.00,,,0.00,VWS V14.01,2013-04-09 04:08:00,
2013-04-08 21:09:00,58.8,32.6,29.88,West,270,3.1,6.3,37,0.00,,,0.00,VWS V14.01,2013-04-09 04:09:00,
2013-04-08 21:10:00,58.8,32.6,29.88,South,180,3.6,4.9,37,0.00,,,0.00,VWS V14.01,2013-04-09 04:10:00,
2013-04-08 21:11:00,58.8,32.6,29.88,South,180,4.9,4.9,37,0.00,,,0.00,VWS V14.01,2013-04-09 04:11:00,
2013-04-08 21:12:00,58.8,32.6,29.88,SSE,158,5.8,6.3,37,0.00,,,0.00,VWS V14.01,2013-04-09 04:12:00,
2013-04-08 21:13:00,58.8,32.6,29.88,SSE,158,6.3,6.3,37,0.00,,,0.00,VWS V14.01,2013-04-09 04:13:00,
2013-04-08 21:14:00,58.8,32.6,29.88,SSE,158,6.3,6.3,37,0.00,,,0.00,VWS V14.01,2013-04-09 04:14:00,
2013-04-08 21:15:00,58.8,32.6,29.88,East,90,3.1,6.3,37,0.00,,,0.00,VWS V14.01,2013-04-09 04:15:00,
2013-04-08 21:16:00,58.8,32.6,29.88,ESE,112,3.1,5.8,37,0.00,,,0.00,VWS V14.01,2013-04-09 04:16:00,
2013-04-08 21:17:00,58.8,32.6,29.88,SE,135,3.1,7.2,37,0.00,,,0.00,VWS V14.01,2013-04-09 04:17:00,
2013-04-08 21:18:00,58.6,32.5,29.88,South,180,5.8,7.6,37,0.00,,,0.00,VWS V14.01,2013-04-09 04:18:00,
2013-04-08 21:19:00,58.8,32.6,29.88,SSW,202,7.6,7.6,37,0.00,,,0.00,VWS V14.01,2013-04-09 04:19:00,
2013-04-08 21:20:00,58.6,32.5,29.88,ENE,68,3.6,7.6,37,0.00,,,0.00,VWS V14.01,2013-04-09 04:20:00,
2013-04-08 21:21:00,58.6,32.5,29.88,SE,135,8.1,8.1,37,0.00,,,0.00,VWS V14.01,2013-04-09 04:21:00,
2013-04-08 21:22:00,58.6,32.5,29.88,WSW,248,0.0,8.1,37,0.00,,,0.00,VWS V14.01,2013-04-09 04:22:00,
2013-04-08 21:23:00,58.6,32.5,29.88,ESE,112,6.3,7.6,37,0.00,,,0.00,VWS V14.01,2013-04-09 04:23:00,
2013-04-08 21:24:00,58.6,33.1,29.88,NNE,22,3.6,3.6,38,0.00,,,0.00,VWS V14.01,2013-04-09 04:24:00,
2013-04-08 21:25:00,58.6,33.1,29.88,NNE,22,3.6,3.6,38,0.00,,,0.00,VWS V14.01,2013-04-09 04:25:00,
2013-04-08 21:26:00,58.6,33.1,29.88,ENE,68,3.6,4.9,38,0.00,,,0.00,VWS V14.01,2013-04-09 04:26:00,
2013-04-08 21:27:00,58.5,33.0,29.88,ESE,112,3.6,3.6,38,0.00,,,0.00,VWS V14.01,2013-04-09 04:27:00,
2013-04-08 21:28:00,58.5,33.6,29.88,SSE,158,4.9,6.3,39,0.00,,,0.00,VWS V14.01,2013-04-09 04:28:00,
2013-04-08 21:29:00,58.3,33.5,29.88,SSE,158,3.6,4.0,39,0.00,,,0.00,VWS V14.01,2013-04-09 04:29:00,
2013-04-08 21:30:00,58.3,33.5,29.88,SSE,158,3.6,4.0,39,0.00,,,0.00,VWS V14.01,2013-04-09 04:30:00,
2013-04-08 21:31:00,58.3,33.5,29.88,ESE,112,3.1,3.6,39,0.00,,,0.00,VWS V14.01,2013-04-09 04:31:00,
2013-04-08 21:32:00,58.1,33.3,29.88,SSW,202,3.6,4.9,39,0.00,,,0.00,VWS V14.01,2013-04-09 04:32:00,
2013-04-08 21:33:00,58.1,33.3,29.88,SW,225,3.1,5.4,39,0.00,,,0.00,VWS V14.01,2013-04-09 04:33:00,
2013-04-08 21:34:00,58.1,33.3,29.88,WSW,248,2.7,3.6,39,0.00,,,0.00,VWS V14.01,2013-04-09 04:34:00,
2013-04-08 21:35:00,57.9,33.1,29.91,SSE,158,3.1,3.6,39,0.00,,,0.00,VWS V14.01,2013-04-09 04:35:00,
2013-04-08 21:36:00,57.9,33.1,29.91,SSE,158,3.1,3.6,39,0.00,,,0.00,VWS V14.01,2013-04-09 04:36:00,
2013-04-08 21:37:00,57.9,33.1,29.91,SSE,158,3.1,3.1,39,0.00,,,0.00,VWS V14.01,2013-04-09 04:37:00,
2013-04-08 21:38:00,57.9,33.1,29.91,SE,135,3.1,3.1,39,0.00,,,0.00,VWS V14.01,2013-04-09 04:38:00,
2013-04-08 21:39:00,58.1,33.3,29.91,South,180,4.9,5.4,39,0.00,,,0.00,VWS V14.01,2013-04-09 04:39:00,
2013-04-08 21:40:00,58.1,32.7,29.91,ENE,68,0.0,0.0,38,0.00,,,0.00,VWS V14.01,2013-04-09 04:40:00,
2013-04-08 21:41:00,58.1,32.7,29.91,ENE,68,0.0,5.4,38,0.00,,,0.00,VWS V14.01,2013-04-09 04:41:00,
2013-04-08 21:42:00,58.1,32.7,29.91,East,90,3.1,3.1,38,0.00,,,0.00,VWS V14.01,2013-04-09 04:42:00,
2013-04-08 21:43:00,58.1,32.7,29.91,ENE,68,3.6,6.3,38,0.00,,,0.00,VWS V14.01,2013-04-09 04:43:00,
2013-04-08 21:44:00,58.1,32.7,29.91,ESE,112,4.0,4.0,38,0.00,,,0.00,VWS V14.01,2013-04-09 04:44:00,
2013-04-08 21:45:00,58.1,32.7,29.91,SSE,158,2.7,2.7,38,0.00,,,0.00,VWS V14.01,2013-04-09 04:45:00,
2013-04-08 21:46:00,58.1,32.7,29.91,ESE,112,2.7,4.0,38,0.00,,,0.00,VWS V14.01,2013-04-09 04:46:00,
2013-04-08 21:47:00,58.1,32.7,29.91,SW,225,0.0,2.7,38,0.00,,,0.00,VWS V14.01,2013-04-09 04:47:00,
2013-04-08 21:48:00,57.9,32.5,29.91,ESE,112,3.1,3.1,38,0.00,,,0.00,VWS V14.01,2013-04-09 04:48:00,
2013-04-08 21:49:00,57.9,32.5,29.91,ESE,112,4.9,5.8,38,0.00,,,0.00,VWS V14.01,2013-04-09 04:49:00,
2013-04-08 21:50:00,57.9,32.5,29.91,NE,45,2.7,4.9,38,0.00,,,0.00,VWS V14.01,2013-04-09 04:50:00,
2013-04-08 21:51:00,57.9,32.5,29.91,ENE,68,3.6,4.0,38,0.00,,,0.00,VWS V14.01,2013-04-09 04:51:00,
2013-04-08 21:52:00,57.9,32.5,29.91,East,90,3.1,5.4,38,0.00,,,0.00,VWS V14.01,2013-04-09 04:52:00,
2013-04-08 21:53:00,57.9,32.5,29.91,SE,135,3.6,5.8,38,0.00,,,0.00,VWS V14.01,2013-04-09 04:53:00,
2013-04-08 21:54:00,57.9,32.5,29.91,NE,45,0.0,3.6,38,0.00,,,0.00,VWS V14.01,2013-04-09 04:54:00,
2013-04-08 21:55:00,57.9,32.5,29.91,East,90,2.7,4.9,38,0.00,,,0.00,VWS V14.01,2013-04-09 04:55:00,
2013-04-08 21:56:00,57.9,32.5,29.91,NNW,338,2.7,2.7,38,0.00,,,0.00,VWS V14.01,2013-04-09 04:56:00,
2013-04-08 21:57:00,57.9,32.5,29.91,NNE,22,2.7,3.1,38,0.00,,,0.00,VWS V14.01,2013-04-09 04:57:00,
2013-04-08 21:58:00,57.9,32.5,29.91,SE,135,3.1,3.6,38,0.00,,,0.00,VWS V14.01,2013-04-09 04:58:00,
2013-04-08 21:59:00,57.9,32.5,29.91,NE,45,2.7,3.1,38,0.00,,,0.00,VWS V14.01,2013-04-09 04:59:00,
2013-04-08 22:00:00,57.9,32.5,29.91,NW,315,0.0,3.1,38,0.00,,,0.00,VWS V14.01,2013-04-09 05:00:00,
2013-04-08 22:01:00,57.9,32.5,29.91,ENE,68,3.6,4.0,38,0.00,,,0.00,VWS V14.01,2013-04-09 05:01:00,
2013-04-08 22:02:00,57.9,32.5,29.91,South,180,2.7,4.9,38,0.00,,,0.00,VWS V14.01,2013-04-09 05:02:00,
2013-04-08 22:03:00,57.9,32.5,29.91,East,90,2.7,3.1,38,0.00,,,0.00,VWS V14.01,2013-04-09 05:03:00,
2013-04-08 22:04:00,57.9,32.5,29.91,ESE,112,0.0,3.6,38,0.00,,,0.00,VWS V14.01,2013-04-09 05:04:00,
2013-04-08 22:05:00,57.9,32.5,29.91,SSW,202,2.7,3.1,38,0.00,,,0.00,VWS V14.01,2013-04-09 05:05:00,
2013-04-08 22:06:00,57.9,32.5,29.91,SSW,202,2.7,3.6,38,0.00,,,0.00,VWS V14.01,2013-04-09 05:06:00,
2013-04-08 22:07:00,57.9,32.5,29.91,ESE,112,0.0,2.7,38,0.00,,,0.00,VWS V14.01,2013-04-09 05:07:00,
2013-04-08 22:08:00,57.9,32.5,29.91,NE,45,2.2,3.6,38,0.00,,,0.00,VWS V14.01,2013-04-09 05:08:00,
2013-04-08 22:09:00,57.9,32.5,29.91,South,180,2.2,2.2,38,0.00,,,0.00,VWS V14.01,2013-04-09 05:09:00,
2013-04-08 22:10:00,57.9,32.5,29.91,NNE,22,0.0,2.7,38,0.00,,,0.00,VWS V14.01,2013-04-09 05:10:00,
2013-04-08 22:11:00,57.9,32.5,29.91,NNE,22,2.2,3.1,38,0.00,,,0.00,VWS V14.01,2013-04-09 05:11:00,
2013-04-08 22:12:00,57.9,32.5,29.91,NNW,338,4.0,4.0,38,0.00,,,0.00,VWS V14.01,2013-04-09 05:12:00,
2013-04-08 22:13:00,57.9,32.5,29.91,South,180,3.1,4.0,38,0.00,,,0.00,VWS V14.01,2013-04-09 05:13:00,
2013-04-08 22:14:00,57.9,32.5,29.91,SSE,158,3.1,3.1,38,0.00,,,0.00,VWS V14.01,2013-04-09 05:14:00,
2013-04-08 22:15:00,57.7,32.3,29.91,SSE,158,3.1,3.1,38,0.00,,,0.00,VWS V14.01,2013-04-09 05:15:00,
2013-04-08 22:16:00,57.7,32.3,29.91,ENE,68,2.7,3.1,38,0.00,,,0.00,VWS V14.01,2013-04-09 05:16:00,
2013-04-08 22:17:00,57.7,32.3,29.91,SSE,158,3.6,3.6,38,0.00,,,0.00,VWS V14.01,2013-04-09 05:17:00,
2013-04-08 22:18:00,57.7,32.3,29.91,East,90,2.7,3.6,38,0.00,,,0.00,VWS V14.01,2013-04-09 05:18:00,
2013-04-08 22:19:00,57.7,32.3,29.91,SSW,202,3.1,4.9,38,0.00,,,0.00,VWS V14.01,2013-04-09 05:19:00,
2013-04-08 22:20:00,57.7,32.3,29.91,SSE,158,4.0,5.4,38,0.00,,,0.00,VWS V14.01,2013-04-09 05:20:00,
2013-04-08 22:21:00,57.7,32.3,29.91,ENE,68,2.2,4.0,38,0.00,,,0.00,VWS V14.01,2013-04-09 05:21:00,
2013-04-08 22:22:00,57.7,32.3,29.91,South,180,3.6,3.6,38,0.00,,,0.00,VWS V14.01,2013-04-09 05:22:00,
2013-04-08 22:23:00,57.7,32.3,29.91,SSW,202,2.2,3.6,38,0.00,,,0.00,VWS V14.01,2013-04-09 05:23:00,
2013-04-08 22:24:00,57.6,32.2,29.91,East,90,0.0,3.1,38,0.00,,,0.00,VWS V14.01,2013-04-09 05:24:00,
2013-04-08 22:25:00,57.6,32.2,29.91,ESE,112,2.7,3.6,38,0.00,,,0.00,VWS V14.01,2013-04-09 05:25:00,
2013-04-08 22:26:00,57.6,32.2,29.91,SE,135,0.0,4.0,38,0.00,,,0.00,VWS V14.01,2013-04-09 05:26:00,
2013-04-08 22:27:00,57.6,32.2,29.91,ESE,112,0.0,2.7,38,0.00,,,0.00,VWS V14.01,2013-04-09 05:27:00,
2013-04-08 22:28:00,57.6,32.2,29.91,SSE,158,3.1,4.0,38,0.00,,,0.00,VWS V14.01,2013-04-09 05:28:00,
2013-04-08 22:29:00,57.6,32.2,29.91,ESE,112,2.7,3.6,38,0.00,,,0.00,VWS V14.01,2013-04-09 05:29:00,
2013-04-08 22:30:00,57.4,32.0,29.91,ESE,112,0.0,0.0,38,0.00,,,0.00,VWS V14.01,2013-04-09 05:30:00,
2013-04-08 22:31:00,57.4,32.7,29.91,SSW,202,0.0,2.2,39,0.00,,,0.00,VWS V14.01,2013-04-09 05:31:00,
2013-04-08 22:32:00,57.4,32.7,29.91,SSE,158,3.1,3.1,39,0.00,,,0.00,VWS V14.01,2013-04-09 05:32:00,
2013-04-08 22:33:00,57.4,32.7,29.91,ESE,112,5.4,5.4,39,0.00,,,0.00,VWS V14.01,2013-04-09 05:33:00,
2013-04-08 22:34:00,57.4,32.7,29.91,SE,135,5.4,5.4,39,0.00,,,0.00,VWS V14.01,2013-04-09 05:34:00,
2013-04-08 22:35:00,57.4,32.7,29.91,ESE,112,5.4,5.4,39,0.00,,,0.00,VWS V14.01,2013-04-09 05:35:00,
2013-04-08 22:36:00,57.2,32.5,29.91,SSE,158,4.9,5.8,39,0.00,,,0.00,VWS V14.01,2013-04-09 05:36:00,
2013-04-08 22:37:00,57.2,32.5,29.91,SE,135,2.7,4.9,39,0.00,,,0.00,VWS V14.01,2013-04-09 05:37:00,
2013-04-08 22:38:00,57.2,32.5,29.91,SSW,202,2.2,4.0,39,0.00,,,0.00,VWS V14.01,2013-04-09 05:38:00,
2013-04-08 22:39:00,57.2,32.5,29.91,SSE,158,3.1,4.0,39,0.00,,,0.00,VWS V14.01,2013-04-09 05:39:00,
2013-04-08 22:40:00,57.2,32.5,29.91,SSE,158,4.9,4.9,39,0.00,,,0.00,VWS V14.01,2013-04-09 05:40:00,
2013-04-08 22:41:00,57.2,32.5,29.91,South,180,2.2,4.9,39,0.00,,,0.00,VWS V14.01,2013-04-09 05:41:00,
2013-04-08 22:42:00,57.0,33.0,29.91,ESE,112,2.2,2.7,40,0.00,,,0.00,VWS V14.01,2013-04-09 05:42:00,
2013-04-08 22:43:00,57.0,33.0,29.91,ESE,112,2.7,3.1,40,0.00,,,0.00,VWS V14.01,2013-04-09 05:43:00,
2013-04-08 22:44:00,57.2,32.5,29.91,SSW,202,4.9,4.9,39,0.00,,,0.00,VWS V14.01,2013-04-09 05:44:00,
2013-04-08 22:45:00,57.2,32.5,29.91,NW,315,2.2,4.9,39,0.00,,,0.00,VWS V14.01,2013-04-09 05:45:00,
2013-04-08 22:46:00,57.2,32.5,29.91,ESE,112,3.1,4.0,39,0.00,,,0.00,VWS V14.01,2013-04-09 05:46:00,
2013-04-08 22:47:00,57.2,32.5,29.91,SSE,158,3.1,3.1,39,0.00,,,0.00,VWS V14.01,2013-04-09 05:47:00,
2013-04-08 22:48:00,57.2,33.1,29.91,SSE,158,3.1,3.1,40,0.00,,,0.00,VWS V14.01,2013-04-09 05:48:00,
2013-04-08 22:49:00,57.2,33.1,29.91,SSW,202,2.7,3.1,40,0.00,,,0.00,VWS V14.01,2013-04-09 05:49:00,
2013-04-08 22:50:00,57.2,33.1,29.91,South,180,2.2,2.2,40,0.00,,,0.00,VWS V14.01,2013-04-09 05:50:00,
2013-04-08 22:51:00,57.2,33.1,29.91,SSE,158,3.1,3.1,40,0.00,,,0.00,VWS V14.01,2013-04-09 05:51:00,
2013-04-08 22:52:00,57.2,33.1,29.91,SSE,158,0.0,3.1,40,0.00,,,0.00,VWS V14.01,2013-04-09 05:52:00,
2013-04-08 22:53:00,57.0,33.0,29.91,ESE,112,3.1,3.1,40,0.00,,,0.00,VWS V14.01,2013-04-09 05:53:00,
2013-04-08 22:54:00,57.2,33.1,29.91,SSW,202,2.2,3.1,40,0.00,,,0.00,VWS V14.01,2013-04-09 05:54:00,
2013-04-08 22:55:00,57.0,33.0,29.91,South,180,2.7,3.1,40,0.00,,,0.00,VWS V14.01,2013-04-09 05:55:00,
2013-04-08 22:56:00,57.0,33.0,29.91,SSE,158,2.2,2.7,40,0.00,,,0.00,VWS V14.01,2013-04-09 05:56:00,
2013-04-08 22:57:00,57.0,33.0,29.91,SSE,158,2.2,3.1,40,0.00,,,0.00,VWS V14.01,2013-04-09 05:57:00,
2013-04-08 22:58:00,57.0,33.0,29.91,SSE,158,2.2,3.1,40,0.00,,,0.00,VWS V14.01,2013-04-09 05:58:00,
2013-04-08 22:59:00,57.0,33.0,29.91,SSE,158,2.2,2.2,40,0.00,,,0.00,VWS V14.01,2013-04-09 05:59:00,
2013-04-08 23:00:00,57.2,33.1,29.91,SSE,158,3.6,3.6,40,0.00,,,0.00,VWS V14.01,2013-04-09 06:00:00,
2013-04-08 23:01:00,57.0,33.0,29.91,SSE,158,0.0,3.6,40,0.00,,,0.00,VWS V14.01,2013-04-09 06:01:00,
2013-04-08 23:02:00,57.0,33.0,29.91,ESE,112,0.0,0.0,40,0.00,,,0.00,VWS V14.01,2013-04-09 06:02:00,
2013-04-08 23:03:00,57.0,33.0,29.91,ENE,68,2.7,3.1,40,0.00,,,0.00,VWS V14.01,2013-04-09 06:03:00,
2013-04-08 23:04:00,57.2,33.1,29.91,SSW,202,3.1,3.1,40,0.00,,,0.00,VWS V14.01,2013-04-09 06:04:00,
2013-04-08 23:05:00,57.0,33.0,29.91,SSW,202,0.0,3.1,40,0.00,,,0.00,VWS V14.01,2013-04-09 06:05:00,
2013-04-08 23:06:00,57.0,33.0,29.91,SSW,202,0.0,0.0,40,0.00,,,0.00,VWS V14.01,2013-04-09 06:06:00,
2013-04-08 23:07:00,57.0,33.0,29.91,South,180,0.0,0.0,40,0.00,,,0.00,VWS V14.01,2013-04-09 06:07:00,
2013-04-08 23:08:00,57.0,33.0,29.91,South,180,0.0,0.0,40,0.00,,,0.00,VWS V14.01,2013-04-09 06:08:00,
2013-04-08 23:09:00,57.0,33.0,29.91,SSE,158,0.0,0.0,40,0.00,,,0.00,VWS V14.01,2013-04-09 06:09:00,
2013-04-08 23:10:00,57.0,33.0,29.91,SSE,158,0.0,2.7,40,0.00,,,0.00,VWS V14.01,2013-04-09 06:10:00,
2013-04-08 23:11:00,57.2,32.5,29.91,SSE,158,0.0,2.2,39,0.00,,,0.00,VWS V14.01,2013-04-09 06:11:00,
2013-04-08 23:12:00,57.0,33.0,29.91,SSW,202,2.2,3.1,40,0.00,,,0.00,VWS V14.01,2013-04-09 06:12:00,
2013-04-08 23:13:00,57.0,33.0,29.91,NNE,22,2.2,2.7,40,0.00,,,0.00,VWS V14.01,2013-04-09 06:13:00,
2013-04-08 23:14:00,57.2,32.5,29.91,North,0,0.0,2.2,39,0.00,,,0.00,VWS V14.01,2013-04-09 06:14:00,
2013-04-08 23:15:00,57.2,32.5,29.91,North,0,0.0,0.0,39,0.00,,,0.00,VWS V14.01,2013-04-09 06:15:00,
2013-04-08 23:16:00,57.2,32.5,29.91,NNW,338,0.0,0.0,39,0.00,,,0.00,VWS V14.01,2013-04-09 06:16:00,
2013-04-08 23:17:00,57.2,32.5,29.91,SSE,158,0.0,0.0,39,0.00,,,0.00,VWS V14.01,2013-04-09 06:17:00,
2013-04-08 23:18:00,57.2,31.8,29.91,SSW,202,0.0,2.7,38,0.00,,,0.00,VWS V14.01,2013-04-09 06:18:00,
2013-04-08 23:19:00,57.2,31.8,29.91,North,0,0.0,3.6,38,0.00,,,0.00,VWS V14.01,2013-04-09 06:19:00,
2013-04-08 23:20:00,57.2,31.8,29.91,SSE,158,0.0,2.7,38,0.00,,,0.00,VWS V14.01,2013-04-09 06:20:00,
2013-04-08 23:21:00,57.4,32.0,29.91,WSW,248,0.0,3.6,38,0.00,,,0.00,VWS V14.01,2013-04-09 06:21:00,
2013-04-08 23:22:00,57.6,32.2,29.91,SSE,158,2.7,2.7,38,0.00,,,0.00,VWS V14.01,2013-04-09 06:22:00,
2013-04-08 23:23:00,57.6,32.2,29.91,SSE,158,4.0,4.0,38,0.00,,,0.00,VWS V14.01,2013-04-09 06:23:00,
2013-04-08 23:24:00,57.6,32.2,29.91,South,180,3.1,4.0,38,0.00,,,0.00,VWS V14.01,2013-04-09 06:24:00,
2013-04-08 23:25:00,57.6,32.2,29.91,South,180,0.0,5.4,38,0.00,,,0.00,VWS V14.01,2013-04-09 06:25:00,
2013-04-08 23:26:00,57.6,32.2,29.91,SSE,158,0.0,0.0,38,0.00,,,0.00,VWS V14.01,2013-04-09 06:26:00,
2013-04-08 23:27:00,57.6,32.2,29.91,ENE,68,0.0,2.2,38,0.00,,,0.00,VWS V14.01,2013-04-09 06:27:00,
2013-04-08 23:28:00,57.7,31.7,29.91,ENE,68,3.1,3.1,37,0.00,,,0.00,VWS V14.01,2013-04-09 06:28:00,
2013-04-08 23:29:00,57.7,31.7,29.91,ENE,68,0.0,3.1,37,0.00,,,0.00,VWS V14.01,2013-04-09 06:29:00,
2013-04-08 23:30:00,57.7,31.7,29.91,ENE,68,0.0,0.0,37,0.00,,,0.00,VWS V14.01,2013-04-09 06:30:00,
2013-04-08 23:31:00,57.7,31.7,29.91,ENE,68,0.0,0.0,37,0.00,,,0.00,VWS V14.01,2013-04-09 06:31:00,
2013-04-08 23:32:00,57.7,31.7,29.91,WNW,292,0.0,0.0,37,0.00,,,0.00,VWS V14.01,2013-04-09 06:32:00,
2013-04-08 23:33:00,57.7,31.7,29.91,South,180,3.6,4.0,37,0.00,,,0.00,VWS V14.01,2013-04-09 06:33:00,
2013-04-08 23:34:00,57.7,31.7,29.91,NNE,22,0.0,3.6,37,0.00,,,0.00,VWS V14.01,2013-04-09 06:34:00,
2013-04-08 23:35:00,57.7,31.7,29.91,ENE,68,0.0,3.6,37,0.00,,,0.00,VWS V14.01,2013-04-09 06:35:00,
2013-04-08 23:37:00,57.7,31.7,29.91,SSW,202,3.6,3.6,37,0.00,,,0.00,VWS V14.01,2013-04-09 06:37:00,
2013-04-08 23:38:00,57.7,31.7,29.91,NW,315,0.0,3.6,37,0.00,,,0.00,VWS V14.01,2013-04-09 06:38:00,
2013-04-08 23:39:00,57.7,31.7,29.91,SE,135,0.0,0.0,37,0.00,,,0.00,VWS V14.01,2013-04-09 06:39:00,
2013-04-08 23:40:00,57.7,31.7,29.91,SSW,202,2.2,2.2,37,0.00,,,0.00,VWS V14.01,2013-04-09 06:40:00,
2013-04-08 23:41:00,57.7,31.7,29.91,SE,135,0.0,3.1,37,0.00,,,0.00,VWS V14.01,2013-04-09 06:41:00,
2013-04-08 23:42:00,57.7,31.7,29.91,ENE,68,2.7,2.7,37,0.00,,,0.00,VWS V14.01,2013-04-09 06:42:00,
2013-04-08 23:43:00,57.7,32.3,29.91,ENE,68,2.7,2.7,38,0.00,,,0.00,VWS V14.01,2013-04-09 06:43:00,
2013-04-08 23:44:00,57.7,32.3,29.91,SSW,202,3.6,3.6,38,0.00,,,0.00,VWS V14.01,2013-04-09 06:44:00,
2013-04-08 23:45:00,57.7,32.3,29.91,South,180,3.6,3.6,38,0.00,,,0.00,VWS V14.01,2013-04-09 06:45:00,
2013-04-08 23:46:00,57.7,32.3,29.91,South,180,4.9,4.9,38,0.00,,,0.00,VWS V14.01,2013-04-09 06:46:00,
2013-04-08 23:47:00,57.7,32.3,29.91,ENE,68,3.1,4.9,38,0.00,,,0.00,VWS V14.01,2013-04-09 06:47:00,
2013-04-08 23:48:00,57.7,32.3,29.91,SE,135,3.1,3.1,38,0.00,,,0.00,VWS V14.01,2013-04-09 06:48:00,
2013-04-08 23:49:00,57.7,32.3,29.91,SSE,158,0.0,3.1,38,0.00,,,0.00,VWS V14.01,2013-04-09 06:49:00,
2013-04-08 23:50:00,57.6,32.2,29.91,SSE,158,2.7,5.8,38,0.00,,,0.00,VWS V14.01,2013-04-09 06:50:00,
2013-04-08 23:51:00,57.6,32.2,29.91,SSW,202,3.6,4.0,38,0.00,,,0.00,VWS V14.01,2013-04-09 06:51:00,
2013-04-08 23:52:00,57.6,32.2,29.91,South,180,3.1,5.8,38,0.00,,,0.00,VWS V14.01,2013-04-09 06:52:00,
2013-04-08 23:53:00,57.7,32.3,29.91,ESE,112,4.9,6.3,38,0.00,,,0.00,VWS V14.01,2013-04-09 06:53:00,
2013-04-08 23:54:00,57.7,32.3,29.91,ESE,112,5.4,6.7,38,0.00,,,0.00,VWS V14.01,2013-04-09 06:54:00,
2013-04-08 23:55:00,57.7,32.3,29.91,ESE,112,5.4,6.7,38,0.00,,,0.00,VWS V14.01,2013-04-09 06:55:00,
2013-04-08 23:56:00,57.9,31.8,29.91,SSE,158,5.4,6.3,37,0.00,,,0.00,VWS V14.01,2013-04-09 06:56:00,
2013-04-08 23:57:00,57.9,31.8,29.91,ESE,112,4.0,5.4,37,0.00,,,0.00,VWS V14.01,2013-04-09 06:57:00,
2013-04-08 23:58:00,57.9,31.8,29.91,SE,135,5.4,5.4,37,0.00,,,0.00,VWS V14.01,2013-04-09 06:58:00,
2013-04-08 23:59:00,57.9,31.8,29.91,ESE,112,5.8,6.3,37,0.00,,,0.00,VWS V14.01,2013-04-09 06:59:00,